Darstellungsparameter: Aktuell verwendete Einstellungen:
Skalierung der Graphiken ... ?
xyx+y,   Skalierungsfaktor:      Skalierung: Modus: x, Faktor: 1
Darstellungszeitraum ... ?
Vom - - bis: - -   Zeitraum: 27.04.2019 - 03.05.2019
Min/Max/Avg-Anzeige ... ?
Zeige MMA aktuell
Zeige MMA Monat
Zeige MMA alles
Zeige --A aktuell
Zeige --A Monat
Zeige --A alles
Keine MMA-Anzeige
MMA:
Average (ber die Originaldaten)
MMA-Basis: 27.04.2019 - 03.05.2019
Quicknavigation für Darstellung... ?
Tage:      1T, 2T, 3T, 5T -1T -2T -3T -5T +1T +2T +3T +5T
Wochen: 1W, 2W, 3W -1W -2W -3W +1W +2W +3W
Monate: 1M, 3M, 6M -1M -3M -6M +1M +3M +6M
Jahre:    1J, 3J, 5J, 10J -1J -3J -5J -10J +1J +3J +5J +10J
Nutze für die Darstellung ... ?
Originaldaten oder Mittelwerte auf ...
Stundenbasis Tagesbasis Wochenbasis
Monatsbasis Jahresbasis      Datenbasis: Original-Daten
Darstellen als:
Statistik (Auto) Statistik J:M      Darstellung:
Zur Graphik,    zurück zur Übersicht aller Sensoren.
 
Tabellarische Datenbersicht: ?
 
Sensor: Nr:Datum:Temp:Abs-Feuchte:Windchill:Wind:
Aussen-T/F 1 27-04-2019 00:00:00 9.5 C 8.28 g/m*3 9.5 C 0 km/h
2 27-04-2019 00:05:00 9.4 C 8.23 g/m*3 9.4 C 0 km/h
3 27-04-2019 00:10:00 9.3 C 8.18 g/m*3 9.3 C 0 km/h
4 27-04-2019 00:15:00 9.2 C 8.13 g/m*3 9.2 C 0 km/h
5 27-04-2019 00:20:00 9.1 C 8.07 g/m*3 9.1 C 0 km/h
6 27-04-2019 00:25:00 9.1 C 8.16 g/m*3 9.1 C 0 km/h
7 27-04-2019 00:30:00 9.1 C 8.16 g/m*3 9.1 C 0 km/h
8 27-04-2019 00:35:00 9.1 C 8.16 g/m*3 9.1 C 0 km/h
9 27-04-2019 00:40:00 9.1 C 8.25 g/m*3 9.1 C 0 km/h
10 27-04-2019 00:45:00 9.2 C 8.3 g/m*3 9.2 C 0 km/h
11 27-04-2019 00:50:00 9.2 C 8.3 g/m*3 9.2 C 0 km/h
12 27-04-2019 00:55:00 9.2 C 8.3 g/m*3 9.2 C 0 km/h
13 27-04-2019 01:00:00 9.2 C 8.3 g/m*3 9.2 C 0 km/h
14 27-04-2019 01:05:00 9.2 C 8.3 g/m*3 9.2 C 0 km/h
15 27-04-2019 01:10:00 9.3 C 8.36 g/m*3 9.3 C 0 km/h
16 27-04-2019 01:15:00 9.3 C 8.36 g/m*3 9.3 C 0 km/h
17 27-04-2019 01:20:00 9.3 C 8.36 g/m*3 9.3 C 0 km/h
18 27-04-2019 01:25:00 9.2 C 8.3 g/m*3 9.2 C 0 km/h
19 27-04-2019 01:30:00 9.2 C 8.3 g/m*3 9.2 C 0 km/h
20 27-04-2019 01:35:00 9.1 C 8.25 g/m*3 9.1 C 0 km/h
21 27-04-2019 01:40:00 9.1 C 8.25 g/m*3 9.1 C 0 km/h
22 27-04-2019 01:45:00 9 C 8.2 g/m*3 9 C 0 km/h
23 27-04-2019 01:50:00 8.9 C 8.15 g/m*3 8.9 C 0 km/h
24 27-04-2019 01:55:00 8.9 C 8.15 g/m*3 8.9 C 0 km/h
25 27-04-2019 02:00:00 8.9 C 8.15 g/m*3 8.9 C 0 km/h
Sensor: Nr:Datum:Temp:Abs-Feuchte:Windchill:Wind:
Aussen-T/F 26 27-04-2019 02:05:00 8.8 C 8.09 g/m*3 8.8 C 0 km/h
27 27-04-2019 02:10:00 8.8 C 8.09 g/m*3 8.8 C 0 km/h
28 27-04-2019 02:15:00 8.8 C 8.09 g/m*3 8.8 C 0 km/h
29 27-04-2019 02:20:00 8.7 C 8.04 g/m*3 8.7 C 0 km/h
30 27-04-2019 02:25:00 8.7 C 8.04 g/m*3 8.7 C 0 km/h
31 27-04-2019 02:30:00 8.6 C 7.99 g/m*3 8.6 C 0 km/h
32 27-04-2019 02:35:00 8.5 C 7.94 g/m*3 8.5 C 1.6 km/h
33 27-04-2019 02:40:00 8.4 C 7.89 g/m*3 8.4 C 1.6 km/h
34 27-04-2019 02:45:00 8.3 C 7.84 g/m*3 8.3 C 0 km/h
35 27-04-2019 02:50:00 8.2 C 7.79 g/m*3 8.2 C 0 km/h
36 27-04-2019 02:55:00 8.2 C 7.87 g/m*3 8.2 C 0 km/h
37 27-04-2019 03:00:00 8.2 C 7.87 g/m*3 8.2 C 0 km/h
38 27-04-2019 03:05:00 8.1 C 7.82 g/m*3 8.1 C 0 km/h
39 27-04-2019 03:10:00 8.1 C 7.82 g/m*3 8.1 C 0 km/h
40 27-04-2019 03:15:00 8 C 7.77 g/m*3 8 C 0 km/h
41 27-04-2019 03:20:00 8 C 7.77 g/m*3 8 C 0 km/h
42 27-04-2019 03:25:00 7.9 C 7.72 g/m*3 7.9 C 0 km/h
43 27-04-2019 03:30:00 7.8 C 7.67 g/m*3 7.8 C 0 km/h
44 27-04-2019 03:35:00 7.8 C 7.67 g/m*3 7.8 C 0 km/h
45 27-04-2019 03:40:00 7.7 C 7.62 g/m*3 7.7 C 0 km/h
46 27-04-2019 03:45:00 7.7 C 7.62 g/m*3 7.7 C 0 km/h
47 27-04-2019 03:50:00 7.6 C 7.57 g/m*3 7.6 C 0 km/h
48 27-04-2019 03:55:00 7.6 C 7.57 g/m*3 7.6 C 0 km/h
49 27-04-2019 04:00:00 7.6 C 7.57 g/m*3 7.6 C 0 km/h
50 27-04-2019 04:05:00 7.5 C 7.52 g/m*3 7.5 C 0 km/h
Sensor: Nr:Datum:Temp:Abs-Feuchte:Windchill:Wind:
Aussen-T/F 51 27-04-2019 04:10:00 7.4 C 7.48 g/m*3 7.4 C 0 km/h
52 27-04-2019 04:15:00 7.3 C 7.43 g/m*3 7.3 C 0 km/h
53 27-04-2019 04:20:00 7.2 C 7.38 g/m*3 7.2 C 0 km/h
54 27-04-2019 04:25:00 7.1 C 7.33 g/m*3 7.1 C 0 km/h
55 27-04-2019 04:30:00 7.1 C 7.33 g/m*3 7.1 C 0 km/h
56 27-04-2019 04:35:00 7 C 7.28 g/m*3 7 C 0 km/h
57 27-04-2019 04:40:00 7 C 7.28 g/m*3 7 C 0 km/h
58 27-04-2019 04:45:00 7 C 7.36 g/m*3 7 C 0 km/h
59 27-04-2019 04:50:00 7 C 7.36 g/m*3 7 C 0 km/h
60 27-04-2019 04:55:00 7 C 7.36 g/m*3 7 C 0 km/h
61 27-04-2019 05:00:00 6.9 C 7.31 g/m*3 6.9 C 0 km/h
62 27-04-2019 05:05:00 6.9 C 7.31 g/m*3 6.9 C 0 km/h
63 27-04-2019 05:10:00 6.8 C 7.19 g/m*3 6.8 C 0 km/h
64 27-04-2019 05:15:00 6.7 C 7.22 g/m*3 6.7 C 0 km/h
65 27-04-2019 05:20:00 6.7 C 7.22 g/m*3 6.7 C 0 km/h
66 27-04-2019 05:25:00 6.7 C 7.22 g/m*3 6.7 C 0 km/h
67 27-04-2019 05:30:00 6.6 C 7.17 g/m*3 6.6 C 0 km/h
68 27-04-2019 05:35:00 6.6 C 7.17 g/m*3 6.6 C 0 km/h
69 27-04-2019 05:40:00 6.6 C 7.17 g/m*3 6.6 C 0 km/h
70 27-04-2019 05:45:00 6.4 C 7.08 g/m*3 6.4 C 0 km/h
71 27-04-2019 05:50:00 6.4 C 7.08 g/m*3 6.4 C 0 km/h
72 27-04-2019 05:55:00 6.4 C 7.08 g/m*3 6.4 C 0 km/h
73 27-04-2019 06:00:00 6.4 C 7.08 g/m*3 6.4 C 0 km/h
74 27-04-2019 06:05:00 6.3 C 7.03 g/m*3 6.3 C 0 km/h
75 27-04-2019 06:10:00 6.3 C 7.03 g/m*3 6.3 C 0 km/h
Sensor: Nr:Datum:Temp:Abs-Feuchte:Windchill:Wind:
Aussen-T/F 76 27-04-2019 06:15:00 6.4 C 7.08 g/m*3 6.4 C 0 km/h
77 27-04-2019 06:20:00 6.4 C 7.08 g/m*3 6.4 C 0 km/h
78 27-04-2019 06:25:00 6.5 C 7.2 g/m*3 6.5 C 0 km/h
79 27-04-2019 06:30:00 6.5 C 7.2 g/m*3 6.5 C 0 km/h
80 27-04-2019 06:35:00 6.4 C 7.08 g/m*3 6.4 C 0 km/h
81 27-04-2019 06:40:00 6.4 C 7.08 g/m*3 6.4 C 0 km/h
82 27-04-2019 06:45:00 6.4 C 7.15 g/m*3 6.4 C 0 km/h
83 27-04-2019 06:50:00 6.5 C 7.2 g/m*3 6.5 C 0 km/h
84 27-04-2019 06:55:00 6.6 C 7.25 g/m*3 6.6 C 0 km/h
85 27-04-2019 07:00:00 6.7 C 7.29 g/m*3 6.7 C 0 km/h
86 27-04-2019 07:05:00 6.7 C 7.29 g/m*3 6.7 C 0 km/h
87 27-04-2019 07:10:00 6.8 C 7.34 g/m*3 6.8 C 0 km/h
88 27-04-2019 07:15:00 6.8 C 7.34 g/m*3 6.8 C 0 km/h
89 27-04-2019 07:20:00 6.9 C 7.39 g/m*3 6.9 C 0 km/h
90 27-04-2019 07:25:00 7 C 7.44 g/m*3 7 C 0 km/h
91 27-04-2019 07:30:00 7.1 C 7.49 g/m*3 7.1 C 0 km/h
92 27-04-2019 07:35:00 7.3 C 7.58 g/m*3 7.3 C 0 km/h
93 27-04-2019 07:40:00 7.4 C 7.63 g/m*3 7.4 C 0 km/h
94 27-04-2019 07:45:00 7.6 C 7.73 g/m*3 7.6 C 0 km/h
95 27-04-2019 07:50:00 7.7 C 7.78 g/m*3 7.7 C 0 km/h
96 27-04-2019 07:55:00 7.8 C 7.83 g/m*3 7.8 C 0 km/h
97 27-04-2019 08:00:00 7.9 C 7.97 g/m*3 7.9 C 0 km/h
98 27-04-2019 08:05:00 8.1 C 8.07 g/m*3 8.1 C 0 km/h
99 27-04-2019 08:10:00 8.2 C 8.04 g/m*3 8.2 C 0 km/h
100 27-04-2019 08:15:00 8.4 C 8.23 g/m*3 8.4 C 0 km/h
Sensor: Nr:Datum:Temp:Abs-Feuchte:Windchill:Wind:
Aussen-T/F 101 27-04-2019 08:20:00 8.6 C 8.34 g/m*3 8.6 C 0 km/h
102 27-04-2019 08:25:00 8.7 C 8.39 g/m*3 8.7 C 0 km/h
103 27-04-2019 08:30:00 8.7 C 8.39 g/m*3 8.7 C 0 km/h
104 27-04-2019 08:35:00 8.8 C 8.44 g/m*3 8.8 C 0 km/h
105 27-04-2019 08:40:00 8.9 C 8.41 g/m*3 8.9 C 0 km/h
106 27-04-2019 08:45:00 9.1 C 8.61 g/m*3 9.1 C 0 km/h
107 27-04-2019 08:50:00 9.3 C 8.72 g/m*3 9.3 C 0 km/h
108 27-04-2019 08:55:00 9.3 C 8.72 g/m*3 9.3 C 0 km/h
109 27-04-2019 09:00:00 9.5 C 8.83 g/m*3 9.5 C 0 km/h
110 27-04-2019 09:05:00 9.7 C 8.94 g/m*3 9.7 C 0 km/h
111 27-04-2019 09:10:00 9.8 C 9 g/m*3 9.8 C 0 km/h
112 27-04-2019 09:15:00 9.9 C 8.96 g/m*3 9.9 C 0 km/h
113 27-04-2019 09:20:00 9.9 C 8.96 g/m*3 9.9 C 0 km/h
114 27-04-2019 09:25:00 10.1 C 9.08 g/m*3 10.1 C 1.6 km/h
115 27-04-2019 09:30:00 10.2 C 9.04 g/m*3 10.2 C 0 km/h
116 27-04-2019 09:35:00 10.3 C 9.1 g/m*3 10.3 C 0 km/h
117 27-04-2019 09:40:00 10.5 C 9.12 g/m*3 10.5 C 0 km/h
118 27-04-2019 09:45:00 10.6 C 9.08 g/m*3 10.06 C 6.4 km/h
119 27-04-2019 09:50:00 10.7 C 8.94 g/m*3 10.18 C 6.4 km/h
120 27-04-2019 09:55:00 10.8 C 8.99 g/m*3 10.8 C 1.6 km/h
121 27-04-2019 10:00:00 10.9 C 8.95 g/m*3 10.9 C 0 km/h
122 27-04-2019 10:05:00 11 C 8.91 g/m*3 11 C 0 km/h
123 27-04-2019 10:10:00 11.1 C 8.96 g/m*3 11.1 C 0 km/h
124 27-04-2019 10:15:00 11.2 C 9.02 g/m*3 11.2 C 0 km/h
125 27-04-2019 10:20:00 11.2 C 8.92 g/m*3 11.2 C 3.2 km/h
Sensor: Nr:Datum:Temp:Abs-Feuchte:Windchill:Wind:
Aussen-T/F 126 27-04-2019 10:25:00 11.2 C 9.02 g/m*3 11.2 C 3.2 km/h
127 27-04-2019 10:30:00 11.2 C 8.92 g/m*3 11.2 C 3.2 km/h
128 27-04-2019 10:35:00 11.3 C 8.98 g/m*3 11.3 C 0 km/h
129 27-04-2019 10:40:00 11.4 C 9.03 g/m*3 11.4 C 4.8 km/h
130 27-04-2019 10:45:00 11.6 C 9.04 g/m*3 11.6 C 4.8 km/h
131 27-04-2019 10:50:00 11.7 C 8.79 g/m*3 11.7 C 11.3 km/h
132 27-04-2019 10:55:00 11.9 C 8.79 g/m*3 11.9 C 6.4 km/h
133 27-04-2019 11:00:00 12.1 C 8.79 g/m*3 12.1 C 12.9 km/h
134 27-04-2019 11:05:00 12.2 C 8.74 g/m*3 12.2 C 6.4 km/h
135 27-04-2019 11:10:00 12.4 C 8.85 g/m*3 12.4 C 4.8 km/h
136 27-04-2019 11:15:00 12.8 C 8.74 g/m*3 12.8 C 8.1 km/h
137 27-04-2019 11:20:00 13 C 8.62 g/m*3 13 C 11.3 km/h
138 27-04-2019 11:25:00 13.1 C 8.22 g/m*3 13.1 C 20.9 km/h
139 27-04-2019 11:30:00 12.9 C 8.11 g/m*3 12.9 C 12.9 km/h
140 27-04-2019 11:35:00 12.8 C 8.18 g/m*3 12.8 C 16.1 km/h
141 27-04-2019 11:40:00 12.6 C 8.19 g/m*3 12.6 C 16.1 km/h
142 27-04-2019 11:45:00 12.6 C 8.41 g/m*3 12.6 C 8.1 km/h
143 27-04-2019 11:50:00 12.6 C 8.41 g/m*3 12.6 C 9.7 km/h
144 27-04-2019 11:55:00 12.6 C 8.52 g/m*3 12.6 C 6.4 km/h
145 27-04-2019 12:00:00 12.6 C 8.85 g/m*3 12.6 C 8.1 km/h
146 27-04-2019 12:05:00 12.6 C 8.96 g/m*3 12.6 C 11.3 km/h
147 27-04-2019 12:10:00 12.6 C 9.07 g/m*3 12.6 C 8.1 km/h
148 27-04-2019 12:15:00 12.5 C 9.13 g/m*3 12.5 C 8.1 km/h
149 27-04-2019 12:20:00 12.6 C 9.29 g/m*3 12.6 C 8.1 km/h
150 27-04-2019 12:25:00 12.6 C 9.18 g/m*3 12.6 C 8.1 km/h
Sensor: Nr:Datum:Temp:Abs-Feuchte:Windchill:Wind:
Aussen-T/F 151 27-04-2019 12:30:00 12.6 C 9.07 g/m*3 12.6 C 8.1 km/h
152 27-04-2019 12:35:00 12.7 C 9.13 g/m*3 12.7 C 12.9 km/h
153 27-04-2019 12:40:00 12.7 C 8.91 g/m*3 12.7 C 12.9 km/h
154 27-04-2019 12:45:00 12.8 C 9.07 g/m*3 12.8 C 6.4 km/h
155 27-04-2019 12:50:00 12.9 C 9.02 g/m*3 12.9 C 11.3 km/h
156 27-04-2019 12:55:00 13.1 C 9.24 g/m*3 13.1 C 8.1 km/h
157 27-04-2019 13:00:00 13.3 C 9.13 g/m*3 13.3 C 6.4 km/h
158 27-04-2019 13:05:00 13.5 C 9.12 g/m*3 13.5 C 11.3 km/h
159 27-04-2019 13:10:00 13.6 C 9.18 g/m*3 13.6 C 11.3 km/h
160 27-04-2019 13:15:00 13.7 C 9.24 g/m*3 13.7 C 11.3 km/h
161 27-04-2019 13:20:00 13.6 C 9.06 g/m*3 13.6 C 14.5 km/h
162 27-04-2019 13:25:00 13.6 C 9.06 g/m*3 13.6 C 12.9 km/h
163 27-04-2019 13:30:00 13.6 C 9.06 g/m*3 13.6 C 11.3 km/h
164 27-04-2019 13:35:00 13.4 C 9.18 g/m*3 13.4 C 11.3 km/h
165 27-04-2019 13:40:00 13.4 C 9.07 g/m*3 13.4 C 12.9 km/h
166 27-04-2019 13:45:00 12.8 C 8.29 g/m*3 12.8 C 32.2 km/h
167 27-04-2019 13:50:00 11.4 C 8.11 g/m*3 11.4 C 33.8 km/h
168 27-04-2019 13:55:00 10.4 C 7.81 g/m*3 9.16 C 9.7 km/h
169 27-04-2019 14:00:00 9.7 C 7.84 g/m*3 7.61 C 14.5 km/h
170 27-04-2019 14:05:00 9.3 C 7.73 g/m*3 7.58 C 11.3 km/h
171 27-04-2019 14:10:00 9.1 C 7.9 g/m*3 8.33 C 6.4 km/h
172 27-04-2019 14:15:00 9.2 C 8.04 g/m*3 8.45 C 6.4 km/h
173 27-04-2019 14:20:00 9.2 C 8.13 g/m*3 8.45 C 6.4 km/h
174 27-04-2019 14:25:00 9.2 C 8.13 g/m*3 9.2 C 0 km/h
175 27-04-2019 14:30:00 9.2 C 8.13 g/m*3 9.2 C 1.6 km/h
Sensor: Nr:Datum:Temp:Abs-Feuchte:Windchill:Wind:
Aussen-T/F 176 27-04-2019 14:35:00 9.6 C 8.52 g/m*3 8.21 C 9.7 km/h
177 27-04-2019 14:40:00 9.9 C 8.68 g/m*3 8.87 C 8.1 km/h
178 27-04-2019 14:45:00 9.9 C 8.5 g/m*3 8.56 C 9.7 km/h
179 27-04-2019 14:50:00 10 C 8.55 g/m*3 9.37 C 6.4 km/h
180 27-04-2019 14:55:00 10 C 8.36 g/m*3 9.37 C 6.4 km/h
181 27-04-2019 15:00:00 9.9 C 8.31 g/m*3 9.25 C 6.4 km/h
182 27-04-2019 15:05:00 10 C 8.46 g/m*3 10 C 0 km/h
183 27-04-2019 15:10:00 10.1 C 8.61 g/m*3 10.1 C 1.6 km/h
184 27-04-2019 15:15:00 10.1 C 8.61 g/m*3 10.1 C 0 km/h
185 27-04-2019 15:20:00 10.1 C 8.61 g/m*3 10.1 C 3.2 km/h
186 27-04-2019 15:25:00 10.2 C 8.76 g/m*3 10.2 C 3.2 km/h
187 27-04-2019 15:30:00 10.7 C 9.13 g/m*3 9.52 C 9.7 km/h
188 27-04-2019 15:35:00 11 C 9.11 g/m*3 11 C 1.6 km/h
189 27-04-2019 15:40:00 11.1 C 9.07 g/m*3 11.1 C 3.2 km/h
190 27-04-2019 15:45:00 10.8 C 8.6 g/m*3 10.8 C 4.8 km/h
191 27-04-2019 15:50:00 10.8 C 8.6 g/m*3 10.29 C 6.4 km/h
192 27-04-2019 15:55:00 10.8 C 8.7 g/m*3 10.8 C 1.6 km/h
193 27-04-2019 16:00:00 10.8 C 8.6 g/m*3 10.8 C 4.8 km/h
194 27-04-2019 16:05:00 11.1 C 8.76 g/m*3 11.1 C 6.4 km/h
195 27-04-2019 16:10:00 11.2 C 8.62 g/m*3 11.2 C 6.4 km/h
196 27-04-2019 16:15:00 11.3 C 8.47 g/m*3 11.3 C 9.7 km/h
197 27-04-2019 16:20:00 11.5 C 8.37 g/m*3 11.5 C 3.2 km/h
198 27-04-2019 16:25:00 11.6 C 8.52 g/m*3 11.6 C 4.8 km/h
199 27-04-2019 16:30:00 11.8 C 8.63 g/m*3 11.8 C 8.1 km/h
200 27-04-2019 16:35:00 12.3 C 8.69 g/m*3 12.3 C 8.1 km/h
Sensor: Nr:Datum:Temp:Abs-Feuchte:Windchill:Wind:
Aussen-T/F 201 27-04-2019 16:40:00 12.4 C 8.52 g/m*3 12.4 C 8.1 km/h
202 27-04-2019 16:45:00 12.3 C 8.58 g/m*3 12.3 C 8.1 km/h
203 27-04-2019 16:50:00 12.3 C 8.58 g/m*3 12.3 C 6.4 km/h
204 27-04-2019 16:55:00 12.4 C 8.52 g/m*3 12.4 C 8.1 km/h
205 27-04-2019 17:00:00 12.4 C 8.63 g/m*3 12.4 C 9.7 km/h
206 27-04-2019 17:05:00 12.3 C 8.47 g/m*3 12.3 C 4.8 km/h
207 27-04-2019 17:10:00 12.2 C 8.63 g/m*3 12.2 C 1.6 km/h
208 27-04-2019 17:15:00 12.1 C 8.58 g/m*3 12.1 C 6.4 km/h
209 27-04-2019 17:20:00 11.9 C 8.37 g/m*3 11.9 C 6.4 km/h
210 27-04-2019 17:25:00 12.1 C 8.79 g/m*3 12.1 C 8.1 km/h
211 27-04-2019 17:30:00 12.6 C 8.52 g/m*3 12.6 C 9.7 km/h
212 27-04-2019 17:35:00 12.7 C 8.57 g/m*3 12.7 C 9.7 km/h
213 27-04-2019 17:40:00 12.6 C 8.3 g/m*3 12.6 C 6.4 km/h
214 27-04-2019 17:45:00 12.3 C 8.36 g/m*3 12.3 C 6.4 km/h
215 27-04-2019 17:50:00 12.3 C 8.69 g/m*3 12.3 C 4.8 km/h
216 27-04-2019 17:55:00 12.7 C 8.79 g/m*3 12.7 C 8.1 km/h
217 27-04-2019 18:00:00 13.1 C 8.67 g/m*3 13.1 C 6.4 km/h
218 27-04-2019 18:05:00 12.9 C 8.23 g/m*3 12.9 C 8.1 km/h
219 27-04-2019 18:10:00 12.8 C 8.4 g/m*3 12.8 C 3.2 km/h
220 27-04-2019 18:15:00 12.4 C 8.19 g/m*3 12.4 C 4.8 km/h
221 27-04-2019 18:20:00 12.1 C 8.04 g/m*3 12.1 C 4.8 km/h
222 27-04-2019 18:25:00 11.6 C 8 g/m*3 11.6 C 17.7 km/h
223 27-04-2019 18:30:00 11 C 8.11 g/m*3 9.88 C 9.7 km/h
224 27-04-2019 18:35:00 10.6 C 8.1 g/m*3 10.06 C 6.4 km/h
225 27-04-2019 18:40:00 10.2 C 8.09 g/m*3 10.2 C 3.2 km/h
Sensor: Nr:Datum:Temp:Abs-Feuchte:Windchill:Wind:
Aussen-T/F 226 27-04-2019 18:45:00 9.9 C 8.12 g/m*3 9.9 C 1.6 km/h
227 27-04-2019 18:50:00 9.8 C 8.16 g/m*3 9.8 C 0 km/h
228 27-04-2019 18:55:00 9.7 C 8.2 g/m*3 9.7 C 4.8 km/h
229 27-04-2019 19:00:00 9.8 C 8.35 g/m*3 9.8 C 0 km/h
230 27-04-2019 19:05:00 10 C 8.64 g/m*3 10 C 3.2 km/h
231 27-04-2019 19:10:00 10.2 C 8.76 g/m*3 9.6 C 6.4 km/h
232 27-04-2019 19:15:00 10.3 C 8.71 g/m*3 10.3 C 4.8 km/h
233 27-04-2019 19:20:00 10.2 C 8.66 g/m*3 10.2 C 0 km/h
234 27-04-2019 19:25:00 10 C 8.46 g/m*3 10 C 3.2 km/h
235 27-04-2019 19:30:00 9.8 C 8.35 g/m*3 9.8 C 4.8 km/h
236 27-04-2019 19:35:00 9.6 C 8.15 g/m*3 8.21 C 9.7 km/h
237 27-04-2019 19:40:00 9.2 C 7.86 g/m*3 7.73 C 9.7 km/h
238 27-04-2019 19:45:00 8.8 C 7.75 g/m*3 7.98 C 6.4 km/h
239 27-04-2019 19:50:00 8.5 C 7.6 g/m*3 6.36 C 12.9 km/h
240 27-04-2019 19:55:00 8.3 C 7.59 g/m*3 6.12 C 12.9 km/h
241 27-04-2019 20:00:00 8.1 C 7.57 g/m*3 8.1 C 3.2 km/h
242 27-04-2019 20:05:00 8 C 7.52 g/m*3 7.06 C 6.4 km/h
243 27-04-2019 20:10:00 7.9 C 7.47 g/m*3 6.94 C 6.4 km/h
244 27-04-2019 20:15:00 7.8 C 7.51 g/m*3 7.8 C 4.8 km/h
245 27-04-2019 20:20:00 7.7 C 7.46 g/m*3 7.7 C 1.6 km/h
246 27-04-2019 20:25:00 7.7 C 7.46 g/m*3 7.7 C 3.2 km/h
247 27-04-2019 20:30:00 7.7 C 7.46 g/m*3 7.7 C 3.2 km/h
248 27-04-2019 20:35:00 7.6 C 7.49 g/m*3 7.6 C 1.6 km/h
249 27-04-2019 20:40:00 7.6 C 7.49 g/m*3 7.6 C 1.6 km/h
250 27-04-2019 20:45:00 7.6 C 7.49 g/m*3 7.6 C 1.6 km/h
Sensor: Nr:Datum:Temp:Abs-Feuchte:Windchill:Wind:
Aussen-T/F 251 27-04-2019 20:50:00 7.5 C 7.44 g/m*3 7.5 C 3.2 km/h
252 27-04-2019 20:55:00 7.5 C 7.44 g/m*3 7.5 C 3.2 km/h
253 27-04-2019 21:00:00 7.4 C 7.4 g/m*3 7.4 C 3.2 km/h
254 27-04-2019 21:05:00 7.4 C 7.4 g/m*3 7.4 C 1.6 km/h
255 27-04-2019 21:10:00 7.4 C 7.48 g/m*3 7.4 C 0 km/h
256 27-04-2019 21:15:00 7.4 C 7.48 g/m*3 7.4 C 1.6 km/h
257 27-04-2019 21:20:00 7.4 C 7.48 g/m*3 7.4 C 1.6 km/h
258 27-04-2019 21:25:00 7.4 C 7.48 g/m*3 7.4 C 0 km/h
259 27-04-2019 21:30:00 7.4 C 7.48 g/m*3 7.4 C 0 km/h
260 27-04-2019 21:35:00 7.3 C 7.43 g/m*3 7.3 C 0 km/h
261 27-04-2019 21:40:00 7.3 C 7.43 g/m*3 7.3 C 0 km/h
262 27-04-2019 21:45:00 7.2 C 7.38 g/m*3 7.2 C 1.6 km/h
263 27-04-2019 21:50:00 7.1 C 7.33 g/m*3 7.1 C 0 km/h
264 27-04-2019 21:55:00 6.9 C 7.24 g/m*3 6.9 C 0 km/h
265 27-04-2019 22:00:00 6.9 C 7.24 g/m*3 6.9 C 0 km/h
266 27-04-2019 22:05:00 6.8 C 7.19 g/m*3 6.8 C 0 km/h
267 27-04-2019 22:10:00 6.7 C 7.14 g/m*3 6.7 C 0 km/h
268 27-04-2019 22:15:00 6.7 C 7.14 g/m*3 6.7 C 1.6 km/h
269 27-04-2019 22:20:00 6.8 C 7.19 g/m*3 6.8 C 3.2 km/h
270 27-04-2019 22:25:00 6.8 C 7.27 g/m*3 6.8 C 1.6 km/h
271 27-04-2019 22:30:00 6.8 C 7.27 g/m*3 6.8 C 3.2 km/h
272 27-04-2019 22:35:00 6.8 C 7.27 g/m*3 6.8 C 1.6 km/h
273 27-04-2019 22:40:00 6.8 C 7.27 g/m*3 6.8 C 0 km/h
274 27-04-2019 22:45:00 6.7 C 7.22 g/m*3 6.7 C 1.6 km/h
275 27-04-2019 22:50:00 6.7 C 7.22 g/m*3 6.7 C 1.6 km/h
Sensor: Nr:Datum:Temp:Abs-Feuchte:Windchill:Wind:
Aussen-T/F 276 27-04-2019 22:55:00 6.7 C 7.22 g/m*3 6.7 C 1.6 km/h
277 27-04-2019 23:00:00 6.8 C 7.27 g/m*3 6.8 C 0 km/h
278 27-04-2019 23:05:00 6.8 C 7.27 g/m*3 6.8 C 1.6 km/h
279 27-04-2019 23:10:00 6.9 C 7.31 g/m*3 6.9 C 0 km/h
280 27-04-2019 23:15:00 6.9 C 7.31 g/m*3 5.79 C 6.4 km/h
281 27-04-2019 23:20:00 6.9 C 7.31 g/m*3 6.9 C 1.6 km/h
282 27-04-2019 23:25:00 6.9 C 7.31 g/m*3 6.9 C 1.6 km/h
283 27-04-2019 23:30:00 6.9 C 7.31 g/m*3 6.9 C 3.2 km/h
284 27-04-2019 23:35:00 6.8 C 7.27 g/m*3 6.8 C 4.8 km/h
285 27-04-2019 23:40:00 6.8 C 7.27 g/m*3 5.67 C 6.4 km/h
286 27-04-2019 23:45:00 6.8 C 7.27 g/m*3 4.29 C 12.9 km/h
287 27-04-2019 23:50:00 6.8 C 7.27 g/m*3 5.22 C 8.1 km/h
288 27-04-2019 23:55:00 6.8 C 7.19 g/m*3 5.22 C 8.1 km/h
289 28-04-2019 00:00:00 6.8 C 7.19 g/m*3 6.8 C 1.6 km/h
290 28-04-2019 00:05:00 6.8 C 7.19 g/m*3 6.8 C 3.2 km/h
291 28-04-2019 00:10:00 6.8 C 7.19 g/m*3 6.8 C 3.2 km/h
292 28-04-2019 00:15:00 6.9 C 7.24 g/m*3 6.9 C 3.2 km/h
293 28-04-2019 00:20:00 6.8 C 7.19 g/m*3 4.87 C 9.7 km/h
294 28-04-2019 00:25:00 6.9 C 7.24 g/m*3 6.9 C 1.6 km/h
295 28-04-2019 00:30:00 6.9 C 7.24 g/m*3 6.9 C 0 km/h
296 28-04-2019 00:35:00 6.9 C 7.24 g/m*3 6.9 C 4.8 km/h
297 28-04-2019 00:40:00 6.9 C 7.24 g/m*3 6.9 C 3.2 km/h
298 28-04-2019 00:45:00 6.9 C 7.16 g/m*3 4.99 C 9.7 km/h
299 28-04-2019 00:50:00 6.9 C 7.16 g/m*3 6.9 C 4.8 km/h
300 28-04-2019 00:55:00 6.9 C 7.16 g/m*3 6.9 C 4.8 km/h
Sensor: Nr:Datum:Temp:Abs-Feuchte:Windchill:Wind:
Aussen-T/F 301 28-04-2019 01:00:00 6.9 C 7.16 g/m*3 6.9 C 3.2 km/h
302 28-04-2019 01:05:00 6.9 C 7.16 g/m*3 5.79 C 6.4 km/h
303 28-04-2019 01:10:00 6.9 C 7.16 g/m*3 5.79 C 6.4 km/h
304 28-04-2019 01:15:00 6.9 C 7.08 g/m*3 6.9 C 1.6 km/h
305 28-04-2019 01:20:00 6.9 C 7.16 g/m*3 6.9 C 1.6 km/h
306 28-04-2019 01:25:00 6.9 C 7.08 g/m*3 4.41 C 12.9 km/h
307 28-04-2019 01:30:00 6.9 C 7.08 g/m*3 4.68 C 11.3 km/h
308 28-04-2019 01:35:00 6.9 C 7.08 g/m*3 4.99 C 9.7 km/h
309 28-04-2019 01:40:00 6.9 C 7.08 g/m*3 5.79 C 6.4 km/h
310 28-04-2019 01:45:00 6.8 C 7.04 g/m*3 6.8 C 4.8 km/h
311 28-04-2019 01:50:00 6.8 C 7.04 g/m*3 6.8 C 1.6 km/h
312 28-04-2019 01:55:00 6.8 C 6.96 g/m*3 5.67 C 6.4 km/h
313 28-04-2019 02:00:00 6.8 C 6.96 g/m*3 6.8 C 3.2 km/h
314 28-04-2019 02:05:00 6.7 C 6.91 g/m*3 4.17 C 12.9 km/h
315 28-04-2019 02:10:00 6.7 C 6.91 g/m*3 3.69 C 16.1 km/h
316 28-04-2019 02:15:00 6.6 C 6.87 g/m*3 3.57 C 16.1 km/h
317 28-04-2019 02:20:00 6.6 C 6.87 g/m*3 4.32 C 11.3 km/h
318 28-04-2019 02:25:00 6.5 C 6.82 g/m*3 6.5 C 1.6 km/h
319 28-04-2019 02:30:00 6.4 C 6.78 g/m*3 6.4 C 1.6 km/h
320 28-04-2019 02:35:00 6.3 C 6.74 g/m*3 6.3 C 1.6 km/h
321 28-04-2019 02:40:00 6.3 C 6.74 g/m*3 6.3 C 0 km/h
322 28-04-2019 02:45:00 6.2 C 6.69 g/m*3 6.2 C 1.6 km/h
323 28-04-2019 02:50:00 6.1 C 6.65 g/m*3 6.1 C 0 km/h
324 28-04-2019 02:55:00 6 C 6.6 g/m*3 6 C 3.2 km/h
325 28-04-2019 03:00:00 6 C 6.6 g/m*3 4.75 C 6.4 km/h
Sensor: Nr:Datum:Temp:Abs-Feuchte:Windchill:Wind:
Aussen-T/F 326 28-04-2019 03:05:00 6 C 6.6 g/m*3 6 C 4.8 km/h
327 28-04-2019 03:10:00 6.1 C 6.65 g/m*3 4.4 C 8.1 km/h
328 28-04-2019 03:15:00 6.1 C 6.65 g/m*3 6.1 C 4.8 km/h
329 28-04-2019 03:20:00 6.2 C 6.69 g/m*3 6.2 C 4.8 km/h
330 28-04-2019 03:25:00 6.2 C 6.62 g/m*3 6.2 C 3.2 km/h
331 28-04-2019 03:30:00 6.2 C 6.62 g/m*3 4.98 C 6.4 km/h
332 28-04-2019 03:35:00 6.3 C 6.66 g/m*3 6.3 C 3.2 km/h
333 28-04-2019 03:40:00 6.3 C 6.66 g/m*3 4.64 C 8.1 km/h
334 28-04-2019 03:45:00 6.3 C 6.66 g/m*3 4.64 C 8.1 km/h
335 28-04-2019 03:50:00 6.3 C 6.59 g/m*3 4.64 C 8.1 km/h
336 28-04-2019 03:55:00 6.3 C 6.59 g/m*3 4.27 C 9.7 km/h
337 28-04-2019 04:00:00 6.4 C 6.63 g/m*3 3.55 C 14.5 km/h
338 28-04-2019 04:05:00 6.4 C 6.63 g/m*3 4.39 C 9.7 km/h
339 28-04-2019 04:10:00 6.4 C 6.56 g/m*3 5.21 C 6.4 km/h
340 28-04-2019 04:15:00 6.4 C 6.56 g/m*3 3.8 C 12.9 km/h
341 28-04-2019 04:20:00 6.4 C 6.56 g/m*3 3.8 C 12.9 km/h
342 28-04-2019 04:25:00 6.5 C 6.6 g/m*3 5.33 C 6.4 km/h
343 28-04-2019 04:30:00 6.5 C 6.6 g/m*3 4.51 C 9.7 km/h
344 28-04-2019 04:35:00 6.4 C 6.56 g/m*3 4.39 C 9.7 km/h
345 28-04-2019 04:40:00 6.4 C 6.56 g/m*3 4.39 C 9.7 km/h
346 28-04-2019 04:45:00 6.4 C 6.56 g/m*3 5.21 C 6.4 km/h
347 28-04-2019 04:50:00 6.4 C 6.56 g/m*3 3.55 C 14.5 km/h
348 28-04-2019 04:55:00 6.4 C 6.56 g/m*3 3.8 C 12.9 km/h
349 28-04-2019 05:00:00 6.4 C 6.56 g/m*3 4.39 C 9.7 km/h
350 28-04-2019 05:05:00 6.4 C 6.56 g/m*3 3.55 C 14.5 km/h
Sensor: Nr:Datum:Temp:Abs-Feuchte:Windchill:Wind:
Aussen-T/F 351 28-04-2019 05:10:00 6.3 C 6.51 g/m*3 2.79 C 19.3 km/h
352 28-04-2019 05:15:00 6.3 C 6.51 g/m*3 6.3 C 4.8 km/h
353 28-04-2019 05:20:00 6.3 C 6.59 g/m*3 6.3 C 4.8 km/h
354 28-04-2019 05:25:00 6.3 C 6.59 g/m*3 4.27 C 9.7 km/h
355 28-04-2019 05:30:00 6.2 C 6.55 g/m*3 4.15 C 9.7 km/h
356 28-04-2019 05:35:00 6.2 C 6.55 g/m*3 4.98 C 6.4 km/h
357 28-04-2019 05:40:00 6.2 C 6.55 g/m*3 3.84 C 11.3 km/h
358 28-04-2019 05:45:00 6.2 C 6.55 g/m*3 4.15 C 9.7 km/h
359 28-04-2019 05:50:00 6.2 C 6.55 g/m*3 4.15 C 9.7 km/h
360 28-04-2019 05:55:00 6.2 C 6.55 g/m*3 3.56 C 12.9 km/h
361 28-04-2019 06:00:00 6.2 C 6.47 g/m*3 3.84 C 11.3 km/h
362 28-04-2019 06:05:00 6.2 C 6.47 g/m*3 4.52 C 8.1 km/h
363 28-04-2019 06:10:00 6.2 C 6.55 g/m*3 3.84 C 11.3 km/h
364 28-04-2019 06:15:00 6.2 C 6.55 g/m*3 4.15 C 9.7 km/h
365 28-04-2019 06:20:00 6.2 C 6.55 g/m*3 3.84 C 11.3 km/h
366 28-04-2019 06:25:00 6.2 C 6.55 g/m*3 3.3 C 14.5 km/h
367 28-04-2019 06:30:00 6.2 C 6.55 g/m*3 4.98 C 6.4 km/h
368 28-04-2019 06:35:00 6.2 C 6.55 g/m*3 4.98 C 6.4 km/h
369 28-04-2019 06:40:00 6.2 C 6.55 g/m*3 4.52 C 8.1 km/h
370 28-04-2019 06:45:00 6.2 C 6.55 g/m*3 6.2 C 1.6 km/h
371 28-04-2019 06:50:00 6.2 C 6.55 g/m*3 6.2 C 0 km/h
372 28-04-2019 06:55:00 6.2 C 6.55 g/m*3 6.2 C 0 km/h
373 28-04-2019 07:00:00 6.3 C 6.59 g/m*3 6.3 C 3.2 km/h
374 28-04-2019 07:05:00 6.3 C 6.66 g/m*3 6.3 C 1.6 km/h
375 28-04-2019 07:10:00 6.4 C 6.63 g/m*3 5.21 C 6.4 km/h
Sensor: Nr:Datum:Temp:Abs-Feuchte:Windchill:Wind:
Aussen-T/F 376 28-04-2019 07:15:00 6.5 C 6.67 g/m*3 4.2 C 11.3 km/h
377 28-04-2019 07:20:00 6.6 C 6.72 g/m*3 4.32 C 11.3 km/h
378 28-04-2019 07:25:00 6.7 C 6.69 g/m*3 5.11 C 8.1 km/h
379 28-04-2019 07:30:00 6.8 C 6.73 g/m*3 5.22 C 8.1 km/h
380 28-04-2019 07:35:00 7 C 6.82 g/m*3 7 C 4.8 km/h
381 28-04-2019 07:40:00 7.1 C 6.86 g/m*3 5.23 C 9.7 km/h
382 28-04-2019 07:45:00 7.3 C 6.87 g/m*3 5.81 C 8.1 km/h
383 28-04-2019 07:50:00 7.3 C 6.87 g/m*3 6.25 C 6.4 km/h
384 28-04-2019 07:55:00 7.4 C 6.92 g/m*3 5.93 C 8.1 km/h
385 28-04-2019 08:00:00 7.5 C 6.96 g/m*3 6.48 C 6.4 km/h
386 28-04-2019 08:05:00 7.5 C 6.88 g/m*3 6.05 C 8.1 km/h
387 28-04-2019 08:10:00 7.5 C 6.88 g/m*3 7.5 C 4.8 km/h
388 28-04-2019 08:15:00 7.6 C 6.93 g/m*3 6.6 C 6.4 km/h
389 28-04-2019 08:20:00 7.6 C 6.93 g/m*3 5.53 C 11.3 km/h
390 28-04-2019 08:25:00 7.6 C 6.93 g/m*3 6.16 C 8.1 km/h
391 28-04-2019 08:30:00 7.6 C 6.93 g/m*3 5.82 C 9.7 km/h
392 28-04-2019 08:35:00 7.6 C 6.93 g/m*3 6.16 C 8.1 km/h
393 28-04-2019 08:40:00 7.6 C 6.93 g/m*3 6.16 C 8.1 km/h
394 28-04-2019 08:45:00 7.6 C 6.93 g/m*3 6.6 C 6.4 km/h
395 28-04-2019 08:50:00 7.6 C 6.93 g/m*3 6.16 C 8.1 km/h
396 28-04-2019 08:55:00 7.6 C 6.93 g/m*3 6.6 C 6.4 km/h
397 28-04-2019 09:00:00 7.7 C 6.97 g/m*3 7.7 C 4.8 km/h
398 28-04-2019 09:05:00 7.7 C 6.97 g/m*3 6.28 C 8.1 km/h
399 28-04-2019 09:10:00 7.7 C 6.97 g/m*3 7.7 C 1.6 km/h
400 28-04-2019 09:15:00 7.8 C 7.02 g/m*3 7.8 C 4.8 km/h
Sensor: Nr:Datum:Temp:Abs-Feuchte:Windchill:Wind:
Aussen-T/F 401 28-04-2019 09:20:00 7.8 C 7.02 g/m*3 7.8 C 1.6 km/h
402 28-04-2019 09:25:00 7.9 C 7.15 g/m*3 7.9 C 3.2 km/h
403 28-04-2019 09:30:00 8 C 7.19 g/m*3 6.01 C 11.3 km/h
404 28-04-2019 09:35:00 8 C 7.19 g/m*3 8 C 3.2 km/h
405 28-04-2019 09:40:00 8 C 7.19 g/m*3 8 C 3.2 km/h
406 28-04-2019 09:45:00 8.1 C 7.24 g/m*3 8.1 C 3.2 km/h
407 28-04-2019 09:50:00 8.2 C 7.29 g/m*3 8.2 C 3.2 km/h
408 28-04-2019 09:55:00 8.3 C 7.33 g/m*3 8.3 C 3.2 km/h
409 28-04-2019 10:00:00 8.3 C 7.33 g/m*3 8.3 C 3.2 km/h
410 28-04-2019 10:05:00 8.4 C 7.21 g/m*3 8.4 C 4.8 km/h
411 28-04-2019 10:10:00 8.6 C 7.3 g/m*3 8.6 C 3.2 km/h
412 28-04-2019 10:15:00 8.7 C 7.35 g/m*3 7.87 C 6.4 km/h
413 28-04-2019 10:20:00 8.8 C 7.31 g/m*3 7.98 C 6.4 km/h
414 28-04-2019 10:25:00 8.9 C 7.27 g/m*3 8.1 C 6.4 km/h
415 28-04-2019 10:30:00 9 C 7.32 g/m*3 8.21 C 6.4 km/h
416 28-04-2019 10:35:00 9.1 C 7.28 g/m*3 9.1 C 4.8 km/h
417 28-04-2019 10:40:00 9.2 C 7.32 g/m*3 8.45 C 6.4 km/h
418 28-04-2019 10:45:00 9.2 C 7.14 g/m*3 8.45 C 6.4 km/h
419 28-04-2019 10:50:00 9.3 C 7.19 g/m*3 7.58 C 11.3 km/h
420 28-04-2019 10:55:00 9.4 C 7.24 g/m*3 8.28 C 8.1 km/h
421 28-04-2019 11:00:00 9.5 C 7.1 g/m*3 8.09 C 9.7 km/h
422 28-04-2019 11:05:00 9.7 C 7.19 g/m*3 8.33 C 9.7 km/h
423 28-04-2019 11:10:00 9.8 C 7.24 g/m*3 7.94 C 12.9 km/h
424 28-04-2019 11:15:00 9.9 C 6.91 g/m*3 7.85 C 14.5 km/h
425 28-04-2019 11:20:00 10 C 7.05 g/m*3 8.42 C 11.3 km/h
Sensor: Nr:Datum:Temp:Abs-Feuchte:Windchill:Wind:
Aussen-T/F 426 28-04-2019 11:25:00 10.1 C 7.09 g/m*3 8.54 C 11.3 km/h
427 28-04-2019 11:30:00 10.2 C 7.04 g/m*3 8.43 C 12.9 km/h
428 28-04-2019 11:35:00 10.3 C 6.99 g/m*3 8.78 C 11.3 km/h
429 28-04-2019 11:40:00 10.2 C 6.85 g/m*3 9.22 C 8.1 km/h
430 28-04-2019 11:45:00 10.1 C 6.81 g/m*3 8.54 C 11.3 km/h
431 28-04-2019 11:50:00 10.1 C 6.71 g/m*3 8.54 C 11.3 km/h
432 28-04-2019 11:55:00 10.1 C 6.81 g/m*3 8.54 C 11.3 km/h
433 28-04-2019 12:00:00 10.2 C 6.85 g/m*3 8.43 C 12.9 km/h
434 28-04-2019 12:05:00 10.3 C 6.9 g/m*3 9.04 C 9.7 km/h
435 28-04-2019 12:10:00 10.3 C 6.8 g/m*3 8.78 C 11.3 km/h
436 28-04-2019 12:15:00 10.3 C 6.7 g/m*3 9.72 C 6.4 km/h
437 28-04-2019 12:20:00 10.3 C 6.8 g/m*3 9.72 C 6.4 km/h
438 28-04-2019 12:25:00 10.3 C 6.7 g/m*3 9.04 C 9.7 km/h
439 28-04-2019 12:30:00 10.2 C 6.66 g/m*3 9.6 C 6.4 km/h
440 28-04-2019 12:35:00 10.2 C 6.76 g/m*3 8.43 C 12.9 km/h
441 28-04-2019 12:40:00 10.2 C 6.66 g/m*3 8.66 C 11.3 km/h
442 28-04-2019 12:45:00 10.3 C 6.7 g/m*3 8.34 C 14.5 km/h
443 28-04-2019 12:50:00 10.6 C 6.73 g/m*3 10.06 C 6.4 km/h
444 28-04-2019 12:55:00 10.7 C 6.97 g/m*3 10.7 C 4.8 km/h
445 28-04-2019 13:00:00 10.9 C 6.86 g/m*3 9.76 C 9.7 km/h
446 28-04-2019 13:05:00 11 C 6.81 g/m*3 9.88 C 9.7 km/h
447 28-04-2019 13:10:00 11.1 C 6.85 g/m*3 11.1 C 8.1 km/h
448 28-04-2019 13:15:00 11.1 C 6.85 g/m*3 11.1 C 4.8 km/h
449 28-04-2019 13:20:00 11.2 C 6.99 g/m*3 11.2 C 6.4 km/h
450 28-04-2019 13:25:00 11.2 C 6.79 g/m*3 11.2 C 8.1 km/h
Sensor: Nr:Datum:Temp:Abs-Feuchte:Windchill:Wind:
Aussen-T/F 451 28-04-2019 13:30:00 11.2 C 6.59 g/m*3 11.2 C 8.1 km/h
452 28-04-2019 13:35:00 11.3 C 6.83 g/m*3 11.3 C 8.1 km/h
453 28-04-2019 13:40:00 11.4 C 6.77 g/m*3 11.4 C 11.3 km/h
454 28-04-2019 13:45:00 11.6 C 7.07 g/m*3 11.6 C 11.3 km/h
455 28-04-2019 13:50:00 11.7 C 6.59 g/m*3 11.7 C 8.1 km/h
456 28-04-2019 13:55:00 11.9 C 6.99 g/m*3 11.9 C 9.7 km/h
457 28-04-2019 14:00:00 12 C 7.03 g/m*3 12 C 9.7 km/h
458 28-04-2019 14:05:00 12.1 C 7.18 g/m*3 12.1 C 6.4 km/h
459 28-04-2019 14:10:00 12.1 C 7.29 g/m*3 12.1 C 9.7 km/h
460 28-04-2019 14:15:00 12.1 C 7.18 g/m*3 12.1 C 9.7 km/h
461 28-04-2019 14:20:00 12.1 C 7.29 g/m*3 12.1 C 8.1 km/h
462 28-04-2019 14:25:00 12.1 C 7.08 g/m*3 12.1 C 1.6 km/h
463 28-04-2019 14:30:00 12.3 C 7.28 g/m*3 12.3 C 4.8 km/h
464 28-04-2019 14:35:00 12.4 C 7.43 g/m*3 12.4 C 6.4 km/h
465 28-04-2019 14:40:00 12.6 C 7.3 g/m*3 12.6 C 8.1 km/h
466 28-04-2019 14:45:00 12.7 C 7.46 g/m*3 12.7 C 1.6 km/h
467 28-04-2019 14:50:00 12.8 C 7.28 g/m*3 12.8 C 8.1 km/h
468 28-04-2019 14:55:00 12.9 C 7.1 g/m*3 12.9 C 11.3 km/h
469 28-04-2019 15:00:00 12.8 C 7.28 g/m*3 12.8 C 8.1 km/h
470 28-04-2019 15:05:00 12.8 C 7.5 g/m*3 12.8 C 11.3 km/h
471 28-04-2019 15:10:00 12.6 C 7.19 g/m*3 12.6 C 6.4 km/h
472 28-04-2019 15:15:00 12.2 C 7.34 g/m*3 12.2 C 11.3 km/h
473 28-04-2019 15:20:00 11.8 C 7.58 g/m*3 11.8 C 8.1 km/h
474 28-04-2019 15:25:00 11.6 C 7.48 g/m*3 11.6 C 4.8 km/h
475 28-04-2019 15:30:00 11.3 C 7.65 g/m*3 11.3 C 4.8 km/h
Sensor: Nr:Datum:Temp:Abs-Feuchte:Windchill:Wind:
Aussen-T/F 476 28-04-2019 15:35:00 11 C 7.61 g/m*3 10.52 C 6.4 km/h
477 28-04-2019 15:40:00 10.7 C 7.66 g/m*3 10.7 C 4.8 km/h
478 28-04-2019 15:45:00 10.6 C 7.71 g/m*3 10.06 C 6.4 km/h
479 28-04-2019 15:50:00 10.4 C 7.81 g/m*3 10.4 C 3.2 km/h
480 28-04-2019 15:55:00 10.3 C 7.85 g/m*3 10.3 C 3.2 km/h
481 28-04-2019 16:00:00 10.2 C 7.99 g/m*3 10.2 C 4.8 km/h
482 28-04-2019 16:05:00 10.1 C 8.04 g/m*3 10.1 C 1.6 km/h
483 28-04-2019 16:10:00 10 C 7.99 g/m*3 10 C 4.8 km/h
484 28-04-2019 16:15:00 9.8 C 7.79 g/m*3 9.8 C 4.8 km/h
485 28-04-2019 16:20:00 9.9 C 7.94 g/m*3 9.9 C 3.2 km/h
486 28-04-2019 16:25:00 9.9 C 7.94 g/m*3 8.87 C 8.1 km/h
487 28-04-2019 16:30:00 10 C 7.99 g/m*3 10 C 1.6 km/h
488 28-04-2019 16:35:00 10.1 C 7.94 g/m*3 10.1 C 1.6 km/h
489 28-04-2019 16:40:00 10.3 C 8.14 g/m*3 10.3 C 3.2 km/h
490 28-04-2019 16:45:00 10.8 C 8.3 g/m*3 9.93 C 8.1 km/h
491 28-04-2019 16:50:00 11.6 C 8.52 g/m*3 11.6 C 9.7 km/h
492 28-04-2019 16:55:00 11.8 C 8.21 g/m*3 11.8 C 11.3 km/h
493 28-04-2019 17:00:00 11.5 C 7.95 g/m*3 11.5 C 12.9 km/h
494 28-04-2019 17:05:00 11.4 C 8.01 g/m*3 11.4 C 6.4 km/h
495 28-04-2019 17:10:00 11.4 C 8.01 g/m*3 11.4 C 3.2 km/h
496 28-04-2019 17:15:00 11.5 C 8.26 g/m*3 11.5 C 3.2 km/h
497 28-04-2019 17:20:00 11.5 C 8.16 g/m*3 11.5 C 0 km/h
498 28-04-2019 17:25:00 11.5 C 8.16 g/m*3 11.5 C 0 km/h
499 28-04-2019 17:30:00 11.5 C 8.16 g/m*3 11.5 C 0 km/h
500 28-04-2019 17:35:00 11.4 C 8.11 g/m*3 11.4 C 3.2 km/h
Sensor: Nr:Datum:Temp:Abs-Feuchte:Windchill:Wind:
Aussen-T/F 501 28-04-2019 17:40:00 11.4 C 8.11 g/m*3 11.4 C 0 km/h
502 28-04-2019 17:45:00 11.4 C 8.21 g/m*3 11.4 C 0 km/h
503 28-04-2019 17:50:00 11.4 C 8.21 g/m*3 11.4 C 1.6 km/h
504 28-04-2019 17:55:00 11.4 C 8.31 g/m*3 11.4 C 0 km/h
505 28-04-2019 18:00:00 11.5 C 8.47 g/m*3 11.5 C 0 km/h
506 28-04-2019 18:05:00 11.5 C 8.37 g/m*3 11.5 C 0 km/h
507 28-04-2019 18:10:00 11.4 C 7.8 g/m*3 11.4 C 0 km/h
508 28-04-2019 18:15:00 11.4 C 7.49 g/m*3 11.4 C 9.7 km/h
509 28-04-2019 18:20:00 11.6 C 7.9 g/m*3 11.6 C 3.2 km/h
510 28-04-2019 18:25:00 11.7 C 7.64 g/m*3 11.7 C 8.1 km/h
511 28-04-2019 18:30:00 11.7 C 7.64 g/m*3 11.7 C 8.1 km/h
512 28-04-2019 18:35:00 11.6 C 7.59 g/m*3 11.6 C 11.3 km/h
513 28-04-2019 18:40:00 11.5 C 7.44 g/m*3 11.5 C 9.7 km/h
514 28-04-2019 18:45:00 11.4 C 7.29 g/m*3 11.4 C 11.3 km/h
515 28-04-2019 18:50:00 11.3 C 7.45 g/m*3 11.3 C 11.3 km/h
516 28-04-2019 18:55:00 11.2 C 7.3 g/m*3 11.2 C 8.1 km/h
517 28-04-2019 19:00:00 11.1 C 7.45 g/m*3 11.1 C 8.1 km/h
518 28-04-2019 19:05:00 11.1 C 7.45 g/m*3 11.1 C 8.1 km/h
519 28-04-2019 19:10:00 10.9 C 7.36 g/m*3 10.41 C 6.4 km/h
520 28-04-2019 19:15:00 10.8 C 7.51 g/m*3 10.8 C 4.8 km/h
521 28-04-2019 19:20:00 10.7 C 7.46 g/m*3 9.81 C 8.1 km/h
522 28-04-2019 19:25:00 10.6 C 7.61 g/m*3 10.06 C 6.4 km/h
523 28-04-2019 19:30:00 10.6 C 7.52 g/m*3 10.06 C 6.4 km/h
524 28-04-2019 19:35:00 10.7 C 7.56 g/m*3 9.81 C 8.1 km/h
525 28-04-2019 19:40:00 10.8 C 7.71 g/m*3 10.29 C 6.4 km/h
Sensor: Nr:Datum:Temp:Abs-Feuchte:Windchill:Wind:
Aussen-T/F 526 28-04-2019 19:45:00 10.9 C 7.56 g/m*3 10.41 C 6.4 km/h
527 28-04-2019 19:50:00 11.1 C 7.66 g/m*3 11.1 C 6.4 km/h
528 28-04-2019 19:55:00 11.1 C 7.66 g/m*3 11.1 C 8.1 km/h
529 28-04-2019 20:00:00 10.8 C 7.51 g/m*3 9.64 C 9.7 km/h
530 28-04-2019 20:05:00 10.7 C 7.56 g/m*3 10.7 C 3.2 km/h
531 28-04-2019 20:10:00 10.4 C 7.52 g/m*3 10.4 C 4.8 km/h
532 28-04-2019 20:15:00 10.3 C 7.57 g/m*3 10.3 C 0 km/h
533 28-04-2019 20:20:00 10.1 C 7.56 g/m*3 10.1 C 0 km/h
534 28-04-2019 20:25:00 9.9 C 7.47 g/m*3 9.9 C 0 km/h
535 28-04-2019 20:30:00 9.6 C 7.42 g/m*3 9.6 C 0 km/h
536 28-04-2019 20:35:00 9.3 C 7.28 g/m*3 9.3 C 0 km/h
537 28-04-2019 20:40:00 9.1 C 7.28 g/m*3 9.1 C 0 km/h
538 28-04-2019 20:45:00 8.8 C 7.14 g/m*3 8.8 C 0 km/h
539 28-04-2019 20:50:00 8.5 C 7.09 g/m*3 8.5 C 0 km/h
540 28-04-2019 20:55:00 8.3 C 7.08 g/m*3 8.3 C 0 km/h
541 28-04-2019 21:00:00 8.1 C 6.99 g/m*3 8.1 C 0 km/h
542 28-04-2019 21:05:00 7.9 C 6.98 g/m*3 7.9 C 0 km/h
543 28-04-2019 21:10:00 7.7 C 6.97 g/m*3 7.7 C 0 km/h
544 28-04-2019 21:15:00 7.6 C 6.93 g/m*3 7.6 C 0 km/h
545 28-04-2019 21:20:00 7.4 C 6.92 g/m*3 7.4 C 0 km/h
546 28-04-2019 21:25:00 7.3 C 6.87 g/m*3 7.3 C 0 km/h
547 28-04-2019 21:30:00 7.2 C 6.83 g/m*3 7.2 C 0 km/h
548 28-04-2019 21:35:00 7.1 C 6.86 g/m*3 7.1 C 0 km/h
549 28-04-2019 21:40:00 7 C 6.82 g/m*3 7 C 0 km/h
550 28-04-2019 21:45:00 6.9 C 6.77 g/m*3 6.9 C 0 km/h
Sensor: Nr:Datum:Temp:Abs-Feuchte:Windchill:Wind:
Aussen-T/F 551 28-04-2019 21:50:00 6.8 C 6.73 g/m*3 6.8 C 0 km/h
552 28-04-2019 21:55:00 6.7 C 6.76 g/m*3 6.7 C 0 km/h
553 28-04-2019 22:00:00 6.6 C 6.72 g/m*3 6.6 C 0 km/h
554 28-04-2019 22:05:00 6.4 C 6.63 g/m*3 6.4 C 0 km/h
555 28-04-2019 22:10:00 6.3 C 6.59 g/m*3 6.3 C 0 km/h
556 28-04-2019 22:15:00 6.2 C 6.62 g/m*3 6.2 C 0 km/h
557 28-04-2019 22:20:00 6.1 C 6.58 g/m*3 6.1 C 0 km/h
558 28-04-2019 22:25:00 6 C 6.53 g/m*3 6 C 0 km/h
559 28-04-2019 22:30:00 5.9 C 6.56 g/m*3 5.9 C 0 km/h
560 28-04-2019 22:35:00 5.8 C 6.52 g/m*3 5.8 C 0 km/h
561 28-04-2019 22:40:00 5.7 C 6.48 g/m*3 5.7 C 0 km/h
562 28-04-2019 22:45:00 5.6 C 6.43 g/m*3 5.6 C 0 km/h
563 28-04-2019 22:50:00 5.6 C 6.5 g/m*3 5.6 C 0 km/h
564 28-04-2019 22:55:00 5.4 C 6.42 g/m*3 5.4 C 0 km/h
565 28-04-2019 23:00:00 5.3 C 6.31 g/m*3 5.3 C 0 km/h
566 28-04-2019 23:05:00 5.2 C 6.27 g/m*3 5.2 C 0 km/h
567 28-04-2019 23:10:00 5.2 C 6.33 g/m*3 5.2 C 0 km/h
568 28-04-2019 23:15:00 5.1 C 6.29 g/m*3 5.1 C 0 km/h
569 28-04-2019 23:20:00 5.1 C 6.29 g/m*3 5.1 C 0 km/h
570 28-04-2019 23:25:00 5 C 6.32 g/m*3 5 C 0 km/h
571 28-04-2019 23:30:00 4.9 C 6.21 g/m*3 4.9 C 0 km/h
572 28-04-2019 23:35:00 4.9 C 6.28 g/m*3 4.9 C 0 km/h
573 28-04-2019 23:40:00 4.9 C 6.28 g/m*3 4.9 C 0 km/h
574 28-04-2019 23:45:00 4.8 C 6.24 g/m*3 4.8 C 0 km/h
575 28-04-2019 23:50:00 4.8 C 6.24 g/m*3 4.8 C 0 km/h
Sensor: Nr:Datum:Temp:Abs-Feuchte:Windchill:Wind:
Aussen-T/F 576 28-04-2019 23:55:00 4.8 C 6.24 g/m*3 4.8 C 0 km/h
577 29-04-2019 00:00:00 4.7 C 6.19 g/m*3 4.7 C 0 km/h
578 29-04-2019 00:05:00 4.7 C 6.19 g/m*3 4.7 C 0 km/h
579 29-04-2019 00:10:00 4.7 C 6.26 g/m*3 4.7 C 0 km/h
580 29-04-2019 00:15:00 4.6 C 6.15 g/m*3 4.6 C 0 km/h
581 29-04-2019 00:20:00 4.5 C 6.11 g/m*3 4.5 C 0 km/h
582 29-04-2019 00:25:00 4.4 C 6.07 g/m*3 4.4 C 0 km/h
583 29-04-2019 00:30:00 4.3 C 6.1 g/m*3 4.3 C 0 km/h
584 29-04-2019 00:35:00 4.3 C 6.1 g/m*3 4.3 C 0 km/h
585 29-04-2019 00:40:00 4.2 C 6.06 g/m*3 4.2 C 0 km/h
586 29-04-2019 00:45:00 4.2 C 6.06 g/m*3 4.2 C 0 km/h
587 29-04-2019 00:50:00 4.2 C 6.06 g/m*3 4.2 C 0 km/h
588 29-04-2019 00:55:00 4.2 C 6.06 g/m*3 4.2 C 0 km/h
589 29-04-2019 01:00:00 4.3 C 6.1 g/m*3 4.3 C 0 km/h
590 29-04-2019 01:05:00 4.4 C 6.14 g/m*3 4.4 C 0 km/h
591 29-04-2019 01:10:00 4.3 C 6.1 g/m*3 4.3 C 0 km/h
592 29-04-2019 01:15:00 4.3 C 6.1 g/m*3 4.3 C 0 km/h
593 29-04-2019 01:20:00 4.3 C 6.1 g/m*3 4.3 C 0 km/h
594 29-04-2019 01:25:00 4.2 C 6.06 g/m*3 4.2 C 0 km/h
595 29-04-2019 01:30:00 4 C 5.98 g/m*3 4 C 0 km/h
596 29-04-2019 01:35:00 3.9 C 5.94 g/m*3 3.9 C 0 km/h
597 29-04-2019 01:40:00 3.8 C 5.9 g/m*3 3.8 C 0 km/h
598 29-04-2019 01:45:00 3.7 C 5.86 g/m*3 3.7 C 0 km/h
599 29-04-2019 01:50:00 3.6 C 5.82 g/m*3 3.6 C 0 km/h
600 29-04-2019 01:55:00 3.6 C 5.82 g/m*3 3.6 C 0 km/h
Sensor: Nr:Datum:Temp:Abs-Feuchte:Windchill:Wind:
Aussen-T/F 601 29-04-2019 02:00:00 3.7 C 5.92 g/m*3 3.7 C 0 km/h
602 29-04-2019 02:05:00 3.6 C 5.88 g/m*3 3.6 C 0 km/h
603 29-04-2019 02:10:00 3.6 C 5.88 g/m*3 3.6 C 0 km/h
604 29-04-2019 02:15:00 3.4 C 5.74 g/m*3 3.4 C 0 km/h
605 29-04-2019 02:20:00 3.3 C 5.7 g/m*3 3.3 C 0 km/h
606 29-04-2019 02:25:00 3.3 C 5.7 g/m*3 3.3 C 0 km/h
607 29-04-2019 02:30:00 3.3 C 5.76 g/m*3 3.3 C 0 km/h
608 29-04-2019 02:35:00 3.3 C 5.76 g/m*3 3.3 C 0 km/h
609 29-04-2019 02:40:00 3.3 C 5.76 g/m*3 3.3 C 0 km/h
610 29-04-2019 02:45:00 3.4 C 5.8 g/m*3 3.4 C 0 km/h
611 29-04-2019 02:50:00 3.4 C 5.8 g/m*3 3.4 C 0 km/h
612 29-04-2019 02:55:00 3.5 C 5.84 g/m*3 3.5 C 0 km/h
613 29-04-2019 03:00:00 3.5 C 5.84 g/m*3 3.5 C 0 km/h
614 29-04-2019 03:05:00 3.5 C 5.84 g/m*3 3.5 C 0 km/h
615 29-04-2019 03:10:00 3.6 C 5.88 g/m*3 3.6 C 0 km/h
616 29-04-2019 03:15:00 3.6 C 5.88 g/m*3 3.6 C 0 km/h
617 29-04-2019 03:20:00 3.7 C 5.92 g/m*3 3.7 C 0 km/h
618 29-04-2019 03:25:00 3.7 C 5.92 g/m*3 3.7 C 0 km/h
619 29-04-2019 03:30:00 3.7 C 5.92 g/m*3 3.7 C 0 km/h
620 29-04-2019 03:35:00 3.8 C 5.96 g/m*3 3.8 C 0 km/h
621 29-04-2019 03:40:00 3.8 C 5.96 g/m*3 3.8 C 0 km/h
622 29-04-2019 03:45:00 3.8 C 5.96 g/m*3 3.8 C 0 km/h
623 29-04-2019 03:50:00 3.7 C 5.92 g/m*3 3.7 C 0 km/h
624 29-04-2019 03:55:00 3.7 C 5.92 g/m*3 3.7 C 0 km/h
625 29-04-2019 04:00:00 3.7 C 5.92 g/m*3 3.7 C 0 km/h
Sensor: Nr:Datum:Temp:Abs-Feuchte:Windchill:Wind:
Aussen-T/F 626 29-04-2019 04:05:00 3.6 C 5.88 g/m*3 3.6 C 0 km/h
627 29-04-2019 04:10:00 3.6 C 5.88 g/m*3 3.6 C 0 km/h
628 29-04-2019 04:15:00 3.6 C 5.88 g/m*3 3.6 C 0 km/h
629 29-04-2019 04:20:00 3.6 C 5.88 g/m*3 3.6 C 0 km/h
630 29-04-2019 04:25:00 3.6 C 5.94 g/m*3 3.6 C 0 km/h
631 29-04-2019 04:30:00 3.6 C 5.94 g/m*3 3.6 C 0 km/h
632 29-04-2019 04:35:00 3.5 C 5.9 g/m*3 3.5 C 0 km/h
633 29-04-2019 04:40:00 3.4 C 5.86 g/m*3 3.4 C 0 km/h
634 29-04-2019 04:45:00 3.4 C 5.86 g/m*3 3.4 C 0 km/h
635 29-04-2019 04:50:00 3.4 C 5.86 g/m*3 3.4 C 0 km/h
636 29-04-2019 04:55:00 3.5 C 5.9 g/m*3 3.5 C 0 km/h
637 29-04-2019 05:00:00 3.5 C 5.9 g/m*3 3.5 C 4.8 km/h
638 29-04-2019 05:05:00 3.5 C 5.9 g/m*3 3.5 C 3.2 km/h
639 29-04-2019 05:10:00 3.4 C 5.86 g/m*3 3.4 C 3.2 km/h
640 29-04-2019 05:15:00 3.4 C 5.86 g/m*3 1.75 C 6.4 km/h
641 29-04-2019 05:20:00 3.4 C 5.86 g/m*3 1.75 C 6.4 km/h
642 29-04-2019 05:25:00 3.4 C 5.86 g/m*3 3.4 C 1.6 km/h
643 29-04-2019 05:30:00 3.3 C 5.82 g/m*3 1.63 C 6.4 km/h
644 29-04-2019 05:35:00 3.3 C 5.82 g/m*3 3.3 C 3.2 km/h
645 29-04-2019 05:40:00 3.3 C 5.82 g/m*3 1.63 C 6.4 km/h
646 29-04-2019 05:45:00 3.3 C 5.82 g/m*3 3.3 C 1.6 km/h
647 29-04-2019 05:50:00 3.3 C 5.82 g/m*3 3.3 C 4.8 km/h
648 29-04-2019 05:55:00 3.2 C 5.79 g/m*3 3.2 C 3.2 km/h
649 29-04-2019 06:00:00 3.2 C 5.79 g/m*3 3.2 C 3.2 km/h
650 29-04-2019 06:05:00 3.2 C 5.79 g/m*3 3.2 C 3.2 km/h
Sensor: Nr:Datum:Temp:Abs-Feuchte:Windchill:Wind:
Aussen-T/F 651 29-04-2019 06:10:00 3.2 C 5.79 g/m*3 3.2 C 0 km/h
652 29-04-2019 06:15:00 3.2 C 5.79 g/m*3 3.2 C 0 km/h
653 29-04-2019 06:20:00 3.2 C 5.79 g/m*3 3.2 C 0 km/h
654 29-04-2019 06:25:00 3.2 C 5.79 g/m*3 3.2 C 0 km/h
655 29-04-2019 06:30:00 3.1 C 5.75 g/m*3 3.1 C 0 km/h
656 29-04-2019 06:35:00 3.1 C 5.75 g/m*3 3.1 C 1.6 km/h
657 29-04-2019 06:40:00 3.1 C 5.75 g/m*3 3.1 C 1.6 km/h
658 29-04-2019 06:45:00 3.1 C 5.75 g/m*3 3.1 C 1.6 km/h
659 29-04-2019 06:50:00 3.1 C 5.75 g/m*3 3.1 C 3.2 km/h
660 29-04-2019 06:55:00 3.1 C 5.75 g/m*3 3.1 C 3.2 km/h
661 29-04-2019 07:00:00 3.1 C 5.75 g/m*3 3.1 C 3.2 km/h
662 29-04-2019 07:05:00 3.1 C 5.75 g/m*3 3.1 C 0 km/h
663 29-04-2019 07:10:00 3.1 C 5.75 g/m*3 3.1 C 0 km/h
664 29-04-2019 07:15:00 3.1 C 5.75 g/m*3 3.1 C 0 km/h
665 29-04-2019 07:20:00 3.2 C 5.79 g/m*3 3.2 C 1.6 km/h
666 29-04-2019 07:25:00 3.2 C 5.79 g/m*3 3.2 C 0 km/h
667 29-04-2019 07:30:00 3.2 C 5.79 g/m*3 3.2 C 1.6 km/h
668 29-04-2019 07:35:00 3.3 C 5.82 g/m*3 3.3 C 1.6 km/h
669 29-04-2019 07:40:00 3.3 C 5.82 g/m*3 3.3 C 3.2 km/h
670 29-04-2019 07:45:00 3.3 C 5.82 g/m*3 3.3 C 1.6 km/h
671 29-04-2019 07:50:00 3.4 C 5.86 g/m*3 3.4 C 4.8 km/h
672 29-04-2019 07:55:00 3.4 C 5.86 g/m*3 3.4 C 3.2 km/h
673 29-04-2019 08:00:00 3.5 C 5.9 g/m*3 3.5 C 4.8 km/h
674 29-04-2019 08:05:00 3.6 C 5.94 g/m*3 3.6 C 3.2 km/h
675 29-04-2019 08:10:00 3.6 C 5.94 g/m*3 3.6 C 3.2 km/h
Sensor: Nr:Datum:Temp:Abs-Feuchte:Windchill:Wind:
Aussen-T/F 676 29-04-2019 08:15:00 3.7 C 5.98 g/m*3 3.7 C 3.2 km/h
677 29-04-2019 08:20:00 3.7 C 5.98 g/m*3 3.7 C 4.8 km/h
678 29-04-2019 08:25:00 3.8 C 6.09 g/m*3 3.8 C 3.2 km/h
679 29-04-2019 08:30:00 3.9 C 6.13 g/m*3 3.9 C 4.8 km/h
680 29-04-2019 08:35:00 3.9 C 6.06 g/m*3 3.9 C 3.2 km/h
681 29-04-2019 08:40:00 4 C 6.1 g/m*3 2.44 C 6.4 km/h
682 29-04-2019 08:45:00 4.1 C 6.21 g/m*3 2.55 C 6.4 km/h
683 29-04-2019 08:50:00 4.2 C 6.25 g/m*3 4.2 C 4.8 km/h
684 29-04-2019 08:55:00 4.3 C 6.29 g/m*3 4.3 C 3.2 km/h
685 29-04-2019 09:00:00 4.4 C 6.33 g/m*3 4.4 C 4.8 km/h
686 29-04-2019 09:05:00 4.5 C 6.38 g/m*3 3.02 C 6.4 km/h
687 29-04-2019 09:10:00 4.6 C 6.42 g/m*3 3.13 C 6.4 km/h
688 29-04-2019 09:15:00 4.7 C 6.46 g/m*3 3.25 C 6.4 km/h
689 29-04-2019 09:20:00 4.8 C 6.5 g/m*3 4.8 C 4.8 km/h
690 29-04-2019 09:25:00 5 C 6.59 g/m*3 5 C 3.2 km/h
691 29-04-2019 09:30:00 5.1 C 6.63 g/m*3 5.1 C 4.8 km/h
692 29-04-2019 09:35:00 5.2 C 6.68 g/m*3 5.2 C 4.8 km/h
693 29-04-2019 09:40:00 5.3 C 6.72 g/m*3 5.3 C 1.6 km/h
694 29-04-2019 09:45:00 5.4 C 6.77 g/m*3 5.4 C 3.2 km/h
695 29-04-2019 09:50:00 5.5 C 6.81 g/m*3 5.5 C 1.6 km/h
696 29-04-2019 09:55:00 5.4 C 6.77 g/m*3 5.4 C 1.6 km/h
697 29-04-2019 10:00:00 5.7 C 6.83 g/m*3 5.7 C 3.2 km/h
698 29-04-2019 10:05:00 5.8 C 6.88 g/m*3 5.8 C 3.2 km/h
699 29-04-2019 10:10:00 5.9 C 6.92 g/m*3 5.9 C 3.2 km/h
700 29-04-2019 10:15:00 6.2 C 7.06 g/m*3 4.98 C 6.4 km/h
Sensor: Nr:Datum:Temp:Abs-Feuchte:Windchill:Wind:
Aussen-T/F 701 29-04-2019 10:20:00 6.3 C 7.11 g/m*3 6.3 C 3.2 km/h
702 29-04-2019 10:25:00 6.5 C 7.2 g/m*3 6.5 C 1.6 km/h
703 29-04-2019 10:30:00 6.6 C 7.17 g/m*3 6.6 C 0 km/h
704 29-04-2019 10:35:00 6.8 C 7.27 g/m*3 6.8 C 0 km/h
705 29-04-2019 10:40:00 6.9 C 7.31 g/m*3 6.9 C 3.2 km/h
706 29-04-2019 10:45:00 7.1 C 7.33 g/m*3 7.1 C 1.6 km/h
707 29-04-2019 10:50:00 7.2 C 7.38 g/m*3 7.2 C 3.2 km/h
708 29-04-2019 10:55:00 7.2 C 7.3 g/m*3 7.2 C 0 km/h
709 29-04-2019 11:00:00 7.4 C 7.4 g/m*3 7.4 C 0 km/h
710 29-04-2019 11:05:00 7.6 C 7.49 g/m*3 7.6 C 3.2 km/h
711 29-04-2019 11:10:00 7.8 C 7.59 g/m*3 7.8 C 3.2 km/h
712 29-04-2019 11:15:00 8 C 7.61 g/m*3 8 C 3.2 km/h
713 29-04-2019 11:20:00 8.2 C 7.7 g/m*3 8.2 C 0 km/h
714 29-04-2019 11:25:00 8.4 C 7.8 g/m*3 8.4 C 3.2 km/h
715 29-04-2019 11:30:00 8.8 C 8.01 g/m*3 8.8 C 3.2 km/h
716 29-04-2019 11:35:00 9.1 C 8.07 g/m*3 9.1 C 0 km/h
717 29-04-2019 11:40:00 9.4 C 8.14 g/m*3 9.4 C 4.8 km/h
718 29-04-2019 11:45:00 9.7 C 8.11 g/m*3 9.7 C 4.8 km/h
719 29-04-2019 11:50:00 9.9 C 8.12 g/m*3 9.9 C 1.6 km/h
720 29-04-2019 11:55:00 10.1 C 8.13 g/m*3 10.1 C 1.6 km/h
721 29-04-2019 12:00:00 10.4 C 8.19 g/m*3 10.4 C 1.6 km/h
722 29-04-2019 12:05:00 10.7 C 8.25 g/m*3 10.7 C 3.2 km/h
723 29-04-2019 12:10:00 11.1 C 8.36 g/m*3 11.1 C 4.8 km/h
724 29-04-2019 12:15:00 11.3 C 8.16 g/m*3 11.3 C 8.1 km/h
725 29-04-2019 12:20:00 11.5 C 8.06 g/m*3 11.5 C 3.2 km/h
Sensor: Nr:Datum:Temp:Abs-Feuchte:Windchill:Wind:
Aussen-T/F 726 29-04-2019 12:25:00 11.8 C 8.31 g/m*3 11.8 C 1.6 km/h
727 29-04-2019 12:30:00 12.1 C 8.04 g/m*3 12.1 C 6.4 km/h
728 29-04-2019 12:35:00 12.3 C 8.25 g/m*3 12.3 C 4.8 km/h
729 29-04-2019 12:40:00 12.6 C 7.97 g/m*3 12.6 C 6.4 km/h
730 29-04-2019 12:45:00 12.8 C 8.18 g/m*3 12.8 C 4.8 km/h
731 29-04-2019 12:50:00 13.2 C 8.15 g/m*3 13.2 C 6.4 km/h
732 29-04-2019 12:55:00 13.3 C 7.97 g/m*3 13.3 C 14.5 km/h
733 29-04-2019 13:00:00 13.5 C 7.84 g/m*3 13.5 C 14.5 km/h
734 29-04-2019 13:05:00 13.7 C 7.7 g/m*3 13.7 C 8.1 km/h
735 29-04-2019 13:10:00 13.8 C 7.51 g/m*3 13.8 C 8.1 km/h
736 29-04-2019 13:15:00 13.9 C 7.55 g/m*3 13.9 C 8.1 km/h
737 29-04-2019 13:20:00 14 C 7.72 g/m*3 14 C 9.7 km/h
738 29-04-2019 13:25:00 14 C 7.72 g/m*3 14 C 9.7 km/h
739 29-04-2019 13:30:00 14 C 7.72 g/m*3 14 C 8.1 km/h
740 29-04-2019 13:35:00 14 C 7.72 g/m*3 14 C 6.4 km/h
741 29-04-2019 13:40:00 14 C 7.48 g/m*3 14 C 9.7 km/h
742 29-04-2019 13:45:00 14.2 C 7.69 g/m*3 14.2 C 8.1 km/h
743 29-04-2019 13:50:00 14.3 C 7.49 g/m*3 14.3 C 9.7 km/h
744 29-04-2019 13:55:00 14.3 C 7.37 g/m*3 14.3 C 8.1 km/h
745 29-04-2019 14:00:00 14.3 C 7.25 g/m*3 14.3 C 9.7 km/h
746 29-04-2019 14:05:00 14.4 C 7.42 g/m*3 14.4 C 6.4 km/h
747 29-04-2019 14:10:00 14.4 C 7.42 g/m*3 14.4 C 9.7 km/h
748 29-04-2019 14:15:00 14.7 C 7.18 g/m*3 14.7 C 11.3 km/h
749 29-04-2019 14:20:00 14.7 C 7.05 g/m*3 14.7 C 8.1 km/h
750 29-04-2019 14:25:00 14.8 C 7.47 g/m*3 14.8 C 11.3 km/h
Sensor: Nr:Datum:Temp:Abs-Feuchte:Windchill:Wind:
Aussen-T/F 751 29-04-2019 14:30:00 14.8 C 7.22 g/m*3 14.8 C 12.9 km/h
752 29-04-2019 14:35:00 14.9 C 7.14 g/m*3 14.9 C 8.1 km/h
753 29-04-2019 14:40:00 15.2 C 7.27 g/m*3 15.2 C 11.3 km/h
754 29-04-2019 14:45:00 15.3 C 7.18 g/m*3 15.3 C 9.7 km/h
755 29-04-2019 14:50:00 15.3 C 7.18 g/m*3 15.3 C 9.7 km/h
756 29-04-2019 14:55:00 15.2 C 7.14 g/m*3 15.2 C 8.1 km/h
757 29-04-2019 15:00:00 15.2 C 7.27 g/m*3 15.2 C 8.1 km/h
758 29-04-2019 15:05:00 15.3 C 7.44 g/m*3 15.3 C 11.3 km/h
759 29-04-2019 15:10:00 15.3 C 7.18 g/m*3 15.3 C 12.9 km/h
760 29-04-2019 15:15:00 15.3 C 7.44 g/m*3 15.3 C 8.1 km/h
761 29-04-2019 15:20:00 15.2 C 7.4 g/m*3 15.2 C 12.9 km/h
762 29-04-2019 15:25:00 15.3 C 7.44 g/m*3 15.3 C 11.3 km/h
763 29-04-2019 15:30:00 15.3 C 7.18 g/m*3 15.3 C 9.7 km/h
764 29-04-2019 15:35:00 15.3 C 7.31 g/m*3 15.3 C 6.4 km/h
765 29-04-2019 15:40:00 15.2 C 7.27 g/m*3 15.2 C 8.1 km/h
766 29-04-2019 15:45:00 15.3 C 7.57 g/m*3 15.3 C 6.4 km/h
767 29-04-2019 15:50:00 15.4 C 7.36 g/m*3 15.4 C 11.3 km/h
768 29-04-2019 15:55:00 15.4 C 7.36 g/m*3 15.4 C 9.7 km/h
769 29-04-2019 16:00:00 15.3 C 7.05 g/m*3 15.3 C 16.1 km/h
770 29-04-2019 16:05:00 15.3 C 7.05 g/m*3 15.3 C 16.1 km/h
771 29-04-2019 16:10:00 15.3 C 7.18 g/m*3 15.3 C 8.1 km/h
772 29-04-2019 16:15:00 15.3 C 7.18 g/m*3 15.3 C 9.7 km/h
773 29-04-2019 16:20:00 15.3 C 7.31 g/m*3 15.3 C 12.9 km/h
774 29-04-2019 16:25:00 15.3 C 7.18 g/m*3 15.3 C 9.7 km/h
775 29-04-2019 16:30:00 15.3 C 7.18 g/m*3 15.3 C 14.5 km/h
Sensor: Nr:Datum:Temp:Abs-Feuchte:Windchill:Wind:
Aussen-T/F 776 29-04-2019 16:35:00 15.3 C 7.05 g/m*3 15.3 C 8.1 km/h
777 29-04-2019 16:40:00 15.3 C 7.18 g/m*3 15.3 C 9.7 km/h
778 29-04-2019 16:45:00 15.3 C 7.57 g/m*3 15.3 C 12.9 km/h
779 29-04-2019 16:50:00 15.4 C 7.36 g/m*3 15.4 C 8.1 km/h
780 29-04-2019 16:55:00 15.4 C 7.49 g/m*3 15.4 C 11.3 km/h
781 29-04-2019 17:00:00 15.4 C 7.36 g/m*3 15.4 C 12.9 km/h
782 29-04-2019 17:05:00 15.4 C 7.49 g/m*3 15.4 C 8.1 km/h
783 29-04-2019 17:10:00 15.4 C 7.36 g/m*3 15.4 C 8.1 km/h
784 29-04-2019 17:15:00 15.4 C 7.23 g/m*3 15.4 C 11.3 km/h
785 29-04-2019 17:20:00 15.4 C 7.09 g/m*3 15.4 C 11.3 km/h
786 29-04-2019 17:25:00 15.4 C 7.23 g/m*3 15.4 C 14.5 km/h
787 29-04-2019 17:30:00 15.3 C 7.44 g/m*3 15.3 C 9.7 km/h
788 29-04-2019 17:35:00 15.3 C 7.31 g/m*3 15.3 C 12.9 km/h
789 29-04-2019 17:40:00 15.3 C 7.31 g/m*3 15.3 C 11.3 km/h
790 29-04-2019 17:45:00 15.2 C 7.27 g/m*3 15.2 C 14.5 km/h
791 29-04-2019 17:50:00 15.2 C 7.14 g/m*3 15.2 C 11.3 km/h
792 29-04-2019 17:55:00 15.1 C 7.22 g/m*3 15.1 C 14.5 km/h
793 29-04-2019 18:00:00 14.9 C 7.26 g/m*3 14.9 C 11.3 km/h
794 29-04-2019 18:05:00 14.7 C 7.3 g/m*3 14.7 C 11.3 km/h
795 29-04-2019 18:10:00 14.4 C 7.42 g/m*3 14.4 C 8.1 km/h
796 29-04-2019 18:15:00 14.2 C 7.69 g/m*3 14.2 C 3.2 km/h
797 29-04-2019 18:20:00 13.9 C 7.55 g/m*3 13.9 C 8.1 km/h
798 29-04-2019 18:25:00 13.7 C 7.7 g/m*3 13.7 C 11.3 km/h
799 29-04-2019 18:30:00 13.6 C 8.12 g/m*3 13.6 C 9.7 km/h
800 29-04-2019 18:35:00 13.4 C 8.37 g/m*3 13.4 C 9.7 km/h
Sensor: Nr:Datum:Temp:Abs-Feuchte:Windchill:Wind:
Aussen-T/F 801 29-04-2019 18:40:00 13.3 C 8.9 g/m*3 13.3 C 0 km/h
802 29-04-2019 18:45:00 13.1 C 8.79 g/m*3 13.1 C 11.3 km/h
803 29-04-2019 18:50:00 12.7 C 8.91 g/m*3 12.7 C 3.2 km/h
804 29-04-2019 18:55:00 12.4 C 9.07 g/m*3 12.4 C 0 km/h
805 29-04-2019 19:00:00 12.2 C 9.06 g/m*3 12.2 C 0 km/h
806 29-04-2019 19:05:00 11.9 C 9.11 g/m*3 11.9 C 0 km/h
807 29-04-2019 19:10:00 11.7 C 8.99 g/m*3 11.7 C 0 km/h
808 29-04-2019 19:15:00 11.4 C 8.93 g/m*3 11.4 C 0 km/h
809 29-04-2019 19:20:00 11.2 C 8.92 g/m*3 11.2 C 4.8 km/h
810 29-04-2019 19:25:00 11 C 8.81 g/m*3 11 C 3.2 km/h
811 29-04-2019 19:30:00 10.9 C 8.85 g/m*3 10.9 C 0 km/h
812 29-04-2019 19:35:00 10.7 C 8.74 g/m*3 10.7 C 1.6 km/h
813 29-04-2019 19:40:00 10.6 C 8.78 g/m*3 10.6 C 1.6 km/h
814 29-04-2019 19:45:00 10.5 C 8.73 g/m*3 10.5 C 1.6 km/h
815 29-04-2019 19:50:00 10.4 C 8.67 g/m*3 10.4 C 1.6 km/h
816 29-04-2019 19:55:00 10.4 C 8.67 g/m*3 10.4 C 0 km/h
817 29-04-2019 20:00:00 10.3 C 8.71 g/m*3 10.3 C 0 km/h
818 29-04-2019 20:05:00 10.3 C 8.71 g/m*3 10.3 C 0 km/h
819 29-04-2019 20:10:00 10.3 C 8.71 g/m*3 10.3 C 0 km/h
820 29-04-2019 20:15:00 10.3 C 8.71 g/m*3 10.3 C 0 km/h
821 29-04-2019 20:20:00 10.2 C 8.66 g/m*3 10.2 C 0 km/h
822 29-04-2019 20:25:00 10.3 C 8.81 g/m*3 10.3 C 0 km/h
823 29-04-2019 20:30:00 10.3 C 8.81 g/m*3 10.3 C 0 km/h
824 29-04-2019 20:35:00 10.2 C 8.76 g/m*3 10.2 C 0 km/h
825 29-04-2019 20:40:00 10.2 C 8.76 g/m*3 10.2 C 0 km/h
Sensor: Nr:Datum:Temp:Abs-Feuchte:Windchill:Wind:
Aussen-T/F 826 29-04-2019 20:45:00 10.2 C 8.76 g/m*3 10.2 C 0 km/h
827 29-04-2019 20:50:00 10.2 C 8.76 g/m*3 10.2 C 0 km/h
828 29-04-2019 20:55:00 10.2 C 8.76 g/m*3 10.2 C 0 km/h
829 29-04-2019 21:00:00 10.2 C 8.76 g/m*3 10.2 C 0 km/h
830 29-04-2019 21:05:00 10.1 C 8.79 g/m*3 10.1 C 0 km/h
831 29-04-2019 21:10:00 10.1 C 8.79 g/m*3 10.1 C 0 km/h
832 29-04-2019 21:15:00 10.1 C 8.79 g/m*3 10.1 C 0 km/h
833 29-04-2019 21:20:00 10.1 C 8.79 g/m*3 10.1 C 1.6 km/h
834 29-04-2019 21:25:00 10.1 C 8.7 g/m*3 10.1 C 0 km/h
835 29-04-2019 21:30:00 10.1 C 8.7 g/m*3 10.1 C 0 km/h
836 29-04-2019 21:35:00 10.1 C 8.7 g/m*3 10.1 C 0 km/h
837 29-04-2019 21:40:00 10.1 C 8.7 g/m*3 10.1 C 1.6 km/h
838 29-04-2019 21:45:00 10.2 C 8.76 g/m*3 10.2 C 0 km/h
839 29-04-2019 21:50:00 10.2 C 8.76 g/m*3 10.2 C 0 km/h
840 29-04-2019 21:55:00 10.2 C 8.76 g/m*3 10.2 C 1.6 km/h
841 29-04-2019 22:00:00 10.2 C 8.76 g/m*3 10.2 C 0 km/h
842 29-04-2019 22:05:00 10.2 C 8.76 g/m*3 10.2 C 4.8 km/h
843 29-04-2019 22:10:00 10.2 C 8.76 g/m*3 10.2 C 0 km/h
844 29-04-2019 22:15:00 10.3 C 8.81 g/m*3 10.3 C 0 km/h
845 29-04-2019 22:20:00 10.3 C 8.81 g/m*3 10.3 C 4.8 km/h
846 29-04-2019 22:25:00 10.2 C 8.76 g/m*3 10.2 C 1.6 km/h
847 29-04-2019 22:30:00 10.2 C 8.76 g/m*3 10.2 C 0 km/h
848 29-04-2019 22:35:00 10.3 C 8.81 g/m*3 10.3 C 1.6 km/h
849 29-04-2019 22:40:00 10.3 C 8.81 g/m*3 10.3 C 3.2 km/h
850 29-04-2019 22:45:00 10.3 C 8.71 g/m*3 8.78 C 11.3 km/h
Sensor: Nr:Datum:Temp:Abs-Feuchte:Windchill:Wind:
Aussen-T/F 851 29-04-2019 22:50:00 10.3 C 8.71 g/m*3 10.3 C 3.2 km/h
852 29-04-2019 22:55:00 10.3 C 8.71 g/m*3 10.3 C 1.6 km/h
853 29-04-2019 23:00:00 10.4 C 8.67 g/m*3 10.4 C 3.2 km/h
854 29-04-2019 23:05:00 10.5 C 8.73 g/m*3 10.5 C 0 km/h
855 29-04-2019 23:10:00 10.6 C 8.78 g/m*3 10.6 C 4.8 km/h
856 29-04-2019 23:15:00 10.6 C 8.69 g/m*3 10.6 C 1.6 km/h
857 29-04-2019 23:20:00 10.7 C 8.84 g/m*3 10.7 C 0 km/h
858 29-04-2019 23:25:00 10.7 C 8.74 g/m*3 10.7 C 3.2 km/h
859 29-04-2019 23:30:00 10.7 C 8.74 g/m*3 10.7 C 3.2 km/h
860 29-04-2019 23:35:00 10.7 C 8.74 g/m*3 10.7 C 0 km/h
861 29-04-2019 23:40:00 10.8 C 8.9 g/m*3 10.8 C 0 km/h
862 29-04-2019 23:45:00 10.8 C 8.9 g/m*3 10.8 C 0 km/h
863 29-04-2019 23:50:00 10.7 C 8.84 g/m*3 10.7 C 0 km/h
864 29-04-2019 23:55:00 10.7 C 8.74 g/m*3 10.7 C 4.8 km/h
865 30-04-2019 00:00:00 10.8 C 8.8 g/m*3 10.8 C 0 km/h
866 30-04-2019 00:05:00 10.8 C 8.8 g/m*3 10.8 C 0 km/h
867 30-04-2019 00:10:00 10.8 C 8.8 g/m*3 10.8 C 1.6 km/h
868 30-04-2019 00:15:00 10.8 C 8.7 g/m*3 10.8 C 1.6 km/h
869 30-04-2019 00:20:00 10.9 C 8.65 g/m*3 10.9 C 3.2 km/h
870 30-04-2019 00:25:00 11 C 8.71 g/m*3 11 C 4.8 km/h
871 30-04-2019 00:30:00 11.1 C 8.76 g/m*3 11.1 C 3.2 km/h
872 30-04-2019 00:35:00 11.1 C 8.76 g/m*3 11.1 C 1.6 km/h
873 30-04-2019 00:40:00 11.1 C 8.76 g/m*3 11.1 C 3.2 km/h
874 30-04-2019 00:45:00 11.1 C 8.66 g/m*3 11.1 C 8.1 km/h
875 30-04-2019 00:50:00 11.1 C 8.66 g/m*3 11.1 C 8.1 km/h
Sensor: Nr:Datum:Temp:Abs-Feuchte:Windchill:Wind:
Aussen-T/F 876 30-04-2019 00:55:00 11.2 C 8.72 g/m*3 11.2 C 6.4 km/h
877 30-04-2019 01:00:00 11.2 C 8.72 g/m*3 11.2 C 8.1 km/h
878 30-04-2019 01:05:00 11.2 C 8.72 g/m*3 11.2 C 8.1 km/h
879 30-04-2019 01:10:00 11.2 C 8.72 g/m*3 11.2 C 6.4 km/h
880 30-04-2019 01:15:00 11.2 C 8.72 g/m*3 11.2 C 6.4 km/h
881 30-04-2019 01:20:00 11.2 C 8.72 g/m*3 11.2 C 8.1 km/h
882 30-04-2019 01:25:00 11.2 C 8.72 g/m*3 11.2 C 3.2 km/h
883 30-04-2019 01:30:00 11.2 C 8.72 g/m*3 11.2 C 3.2 km/h
884 30-04-2019 01:35:00 11.2 C 8.72 g/m*3 11.2 C 3.2 km/h
885 30-04-2019 01:40:00 11.1 C 8.66 g/m*3 11.1 C 6.4 km/h
886 30-04-2019 01:45:00 11.1 C 8.76 g/m*3 11.1 C 1.6 km/h
887 30-04-2019 01:50:00 11.1 C 8.76 g/m*3 11.1 C 1.6 km/h
888 30-04-2019 01:55:00 11.1 C 8.76 g/m*3 11.1 C 4.8 km/h
889 30-04-2019 02:00:00 11 C 8.71 g/m*3 11 C 0 km/h
890 30-04-2019 02:05:00 11 C 8.71 g/m*3 11 C 0 km/h
891 30-04-2019 02:10:00 10.9 C 8.75 g/m*3 10.9 C 0 km/h
892 30-04-2019 02:15:00 10.9 C 8.75 g/m*3 10.9 C 4.8 km/h
893 30-04-2019 02:20:00 10.9 C 8.75 g/m*3 10.9 C 1.6 km/h
894 30-04-2019 02:25:00 10.9 C 8.75 g/m*3 10.9 C 4.8 km/h
895 30-04-2019 02:30:00 10.8 C 8.7 g/m*3 10.8 C 4.8 km/h
896 30-04-2019 02:35:00 10.8 C 8.7 g/m*3 10.8 C 3.2 km/h
897 30-04-2019 02:40:00 10.8 C 8.7 g/m*3 9.93 C 8.1 km/h
898 30-04-2019 02:45:00 10.8 C 8.8 g/m*3 10.29 C 6.4 km/h
899 30-04-2019 02:50:00 10.7 C 8.74 g/m*3 9.81 C 8.1 km/h
900 30-04-2019 02:55:00 10.7 C 8.74 g/m*3 10.18 C 6.4 km/h
Sensor: Nr:Datum:Temp:Abs-Feuchte:Windchill:Wind:
Aussen-T/F 901 30-04-2019 03:00:00 10.7 C 8.74 g/m*3 9.81 C 8.1 km/h
902 30-04-2019 03:05:00 10.7 C 8.74 g/m*3 10.7 C 4.8 km/h
903 30-04-2019 03:10:00 10.7 C 8.74 g/m*3 10.7 C 1.6 km/h
904 30-04-2019 03:15:00 10.6 C 8.69 g/m*3 10.6 C 0 km/h
905 30-04-2019 03:20:00 10.6 C 8.69 g/m*3 10.6 C 4.8 km/h
906 30-04-2019 03:25:00 10.6 C 8.69 g/m*3 10.6 C 3.2 km/h
907 30-04-2019 03:30:00 10.6 C 8.69 g/m*3 10.06 C 6.4 km/h
908 30-04-2019 03:35:00 10.6 C 8.69 g/m*3 10.6 C 1.6 km/h
909 30-04-2019 03:40:00 10.6 C 8.69 g/m*3 10.6 C 0 km/h
910 30-04-2019 03:45:00 10.5 C 8.63 g/m*3 10.5 C 0 km/h
911 30-04-2019 03:50:00 10.5 C 8.63 g/m*3 10.5 C 3.2 km/h
912 30-04-2019 03:55:00 10.4 C 8.58 g/m*3 10.4 C 1.6 km/h
913 30-04-2019 04:00:00 10.4 C 8.58 g/m*3 10.4 C 0 km/h
914 30-04-2019 04:05:00 10.4 C 8.58 g/m*3 10.4 C 0 km/h
915 30-04-2019 04:10:00 10.4 C 8.58 g/m*3 10.4 C 0 km/h
916 30-04-2019 04:15:00 10.3 C 8.52 g/m*3 9.34 C 8.1 km/h
917 30-04-2019 04:20:00 10.3 C 8.52 g/m*3 10.3 C 1.6 km/h
918 30-04-2019 04:25:00 10.3 C 8.52 g/m*3 10.3 C 4.8 km/h
919 30-04-2019 04:30:00 10.3 C 8.43 g/m*3 10.3 C 1.6 km/h
920 30-04-2019 04:35:00 10.3 C 8.52 g/m*3 10.3 C 4.8 km/h
921 30-04-2019 04:40:00 10.3 C 8.52 g/m*3 10.3 C 0 km/h
922 30-04-2019 04:45:00 10.3 C 8.52 g/m*3 10.3 C 4.8 km/h
923 30-04-2019 04:50:00 10.2 C 8.47 g/m*3 10.2 C 1.6 km/h
924 30-04-2019 04:55:00 10.2 C 8.47 g/m*3 10.2 C 0 km/h
925 30-04-2019 05:00:00 10.2 C 8.47 g/m*3 9.22 C 8.1 km/h
Sensor: Nr:Datum:Temp:Abs-Feuchte:Windchill:Wind:
Aussen-T/F 926 30-04-2019 05:05:00 10.2 C 8.37 g/m*3 10.2 C 4.8 km/h
927 30-04-2019 05:10:00 10.2 C 8.37 g/m*3 9.22 C 8.1 km/h
928 30-04-2019 05:15:00 10.2 C 8.37 g/m*3 10.2 C 3.2 km/h
929 30-04-2019 05:20:00 10.2 C 8.37 g/m*3 10.2 C 4.8 km/h
930 30-04-2019 05:25:00 10.2 C 8.37 g/m*3 8.66 C 11.3 km/h
931 30-04-2019 05:30:00 10.2 C 8.37 g/m*3 10.2 C 1.6 km/h
932 30-04-2019 05:35:00 10.2 C 8.37 g/m*3 10.2 C 3.2 km/h
933 30-04-2019 05:40:00 10.2 C 8.37 g/m*3 9.6 C 6.4 km/h
934 30-04-2019 05:45:00 10.2 C 8.37 g/m*3 10.2 C 0 km/h
935 30-04-2019 05:50:00 10.1 C 8.32 g/m*3 9.48 C 6.4 km/h
936 30-04-2019 05:55:00 10.1 C 8.32 g/m*3 10.1 C 4.8 km/h
937 30-04-2019 06:00:00 10.1 C 8.32 g/m*3 9.1 C 8.1 km/h
938 30-04-2019 06:05:00 10.1 C 8.32 g/m*3 8.54 C 11.3 km/h
939 30-04-2019 06:10:00 10.1 C 8.32 g/m*3 9.1 C 8.1 km/h
940 30-04-2019 06:15:00 10.1 C 8.32 g/m*3 9.48 C 6.4 km/h
941 30-04-2019 06:20:00 10.1 C 8.42 g/m*3 10.1 C 4.8 km/h
942 30-04-2019 06:25:00 10.1 C 8.42 g/m*3 10.1 C 1.6 km/h
943 30-04-2019 06:30:00 10.1 C 8.42 g/m*3 10.1 C 0 km/h
944 30-04-2019 06:35:00 10 C 8.36 g/m*3 10 C 4.8 km/h
945 30-04-2019 06:40:00 10 C 8.36 g/m*3 10 C 0 km/h
946 30-04-2019 06:45:00 10 C 8.36 g/m*3 10 C 0 km/h
947 30-04-2019 06:50:00 10 C 8.46 g/m*3 10 C 0 km/h
948 30-04-2019 06:55:00 10 C 8.46 g/m*3 10 C 1.6 km/h
949 30-04-2019 07:00:00 10 C 8.46 g/m*3 10 C 1.6 km/h
950 30-04-2019 07:05:00 9.9 C 8.4 g/m*3 9.9 C 1.6 km/h
Sensor: Nr:Datum:Temp:Abs-Feuchte:Windchill:Wind:
Aussen-T/F 951 30-04-2019 07:10:00 9.9 C 8.4 g/m*3 9.9 C 1.6 km/h
952 30-04-2019 07:15:00 9.9 C 8.31 g/m*3 9.9 C 4.8 km/h
953 30-04-2019 07:20:00 10 C 8.36 g/m*3 8.99 C 8.1 km/h
954 30-04-2019 07:25:00 10 C 8.36 g/m*3 8.99 C 8.1 km/h
955 30-04-2019 07:30:00 10.1 C 8.42 g/m*3 9.48 C 6.4 km/h
956 30-04-2019 07:35:00 10.1 C 8.42 g/m*3 9.1 C 8.1 km/h
957 30-04-2019 07:40:00 10.2 C 8.37 g/m*3 9.22 C 8.1 km/h
958 30-04-2019 07:45:00 10.2 C 8.37 g/m*3 9.22 C 8.1 km/h
959 30-04-2019 07:50:00 10.3 C 8.33 g/m*3 9.72 C 6.4 km/h
960 30-04-2019 07:55:00 10.3 C 8.33 g/m*3 9.72 C 6.4 km/h
961 30-04-2019 08:00:00 10.4 C 8.38 g/m*3 10.4 C 4.8 km/h
962 30-04-2019 08:05:00 10.4 C 8.38 g/m*3 10.4 C 3.2 km/h
963 30-04-2019 08:10:00 10.5 C 8.34 g/m*3 9.57 C 8.1 km/h
964 30-04-2019 08:15:00 10.6 C 8.39 g/m*3 9.69 C 8.1 km/h
965 30-04-2019 08:20:00 10.6 C 8.39 g/m*3 10.6 C 4.8 km/h
966 30-04-2019 08:25:00 10.7 C 8.45 g/m*3 10.7 C 4.8 km/h
967 30-04-2019 08:30:00 10.7 C 8.35 g/m*3 9.81 C 8.1 km/h
968 30-04-2019 08:35:00 10.8 C 8.2 g/m*3 9.38 C 11.3 km/h
969 30-04-2019 08:40:00 10.9 C 8.16 g/m*3 10.9 C 4.8 km/h
970 30-04-2019 08:45:00 11 C 8.01 g/m*3 10.16 C 8.1 km/h
971 30-04-2019 08:50:00 11 C 8.01 g/m*3 9.21 C 14.5 km/h
972 30-04-2019 08:55:00 11.1 C 7.96 g/m*3 11.1 C 14.5 km/h
973 30-04-2019 09:00:00 11 C 7.81 g/m*3 9.88 C 9.7 km/h
974 30-04-2019 09:05:00 11.1 C 7.66 g/m*3 11.1 C 11.3 km/h
975 30-04-2019 09:10:00 11.2 C 7.91 g/m*3 11.2 C 12.9 km/h
Sensor: Nr:Datum:Temp:Abs-Feuchte:Windchill:Wind:
Aussen-T/F 976 30-04-2019 09:15:00 11.3 C 7.85 g/m*3 11.3 C 11.3 km/h
977 30-04-2019 09:20:00 11.4 C 7.9 g/m*3 11.4 C 9.7 km/h
978 30-04-2019 09:25:00 11.5 C 7.95 g/m*3 11.5 C 8.1 km/h
979 30-04-2019 09:30:00 11.6 C 8 g/m*3 11.6 C 6.4 km/h
980 30-04-2019 09:35:00 11.7 C 8.05 g/m*3 11.7 C 11.3 km/h
981 30-04-2019 09:40:00 11.7 C 7.95 g/m*3 11.7 C 11.3 km/h
982 30-04-2019 09:45:00 11.8 C 8.1 g/m*3 11.8 C 8.1 km/h
983 30-04-2019 09:50:00 11.9 C 8.05 g/m*3 11.9 C 12.9 km/h
984 30-04-2019 09:55:00 12 C 8.1 g/m*3 12 C 9.7 km/h
985 30-04-2019 10:00:00 12.1 C 8.15 g/m*3 12.1 C 8.1 km/h
986 30-04-2019 10:05:00 12.2 C 7.88 g/m*3 12.2 C 11.3 km/h
987 30-04-2019 10:10:00 12.3 C 7.93 g/m*3 12.3 C 8.1 km/h
988 30-04-2019 10:15:00 12.4 C 7.76 g/m*3 12.4 C 9.7 km/h
989 30-04-2019 10:20:00 12.5 C 7.7 g/m*3 12.5 C 11.3 km/h
990 30-04-2019 10:25:00 12.6 C 7.63 g/m*3 12.6 C 8.1 km/h
991 30-04-2019 10:30:00 12.6 C 7.63 g/m*3 12.6 C 11.3 km/h
992 30-04-2019 10:35:00 12.7 C 7.68 g/m*3 12.7 C 11.3 km/h
993 30-04-2019 10:40:00 12.8 C 7.5 g/m*3 12.8 C 11.3 km/h
994 30-04-2019 10:45:00 12.9 C 7.78 g/m*3 12.9 C 8.1 km/h
995 30-04-2019 10:50:00 13.1 C 7.76 g/m*3 13.1 C 14.5 km/h
996 30-04-2019 10:55:00 13.2 C 7.69 g/m*3 13.2 C 16.1 km/h
997 30-04-2019 11:00:00 13.3 C 7.39 g/m*3 13.3 C 14.5 km/h
998 30-04-2019 11:05:00 13.3 C 7.39 g/m*3 13.3 C 6.4 km/h
999 30-04-2019 11:10:00 13.5 C 7.49 g/m*3 13.5 C 9.7 km/h
1000 30-04-2019 11:15:00 13.6 C 7.41 g/m*3 13.6 C 12.9 km/h
Sensor: Nr:Datum:Temp:Abs-Feuchte:Windchill:Wind:
Aussen-T/F 1001 30-04-2019 11:20:00 13.6 C 7.41 g/m*3 13.6 C 12.9 km/h
1002 30-04-2019 11:25:00 13.6 C 7.3 g/m*3 13.6 C 8.1 km/h
1003 30-04-2019 11:30:00 13.6 C 7.41 g/m*3 13.6 C 9.7 km/h
1004 30-04-2019 11:35:00 13.7 C 7.34 g/m*3 13.7 C 14.5 km/h
1005 30-04-2019 11:40:00 13.7 C 7.46 g/m*3 13.7 C 11.3 km/h
1006 30-04-2019 11:45:00 13.8 C 7.39 g/m*3 13.8 C 12.9 km/h
1007 30-04-2019 11:50:00 13.8 C 7.39 g/m*3 13.8 C 6.4 km/h
1008 30-04-2019 11:55:00 13.8 C 7.27 g/m*3 13.8 C 4.8 km/h
1009 30-04-2019 12:00:00 13.9 C 7.43 g/m*3 13.9 C 11.3 km/h
1010 30-04-2019 12:05:00 14.2 C 7.33 g/m*3 14.2 C 14.5 km/h
1011 30-04-2019 12:10:00 14.3 C 7.25 g/m*3 14.3 C 9.7 km/h
1012 30-04-2019 12:15:00 14.3 C 7.49 g/m*3 14.3 C 12.9 km/h
1013 30-04-2019 12:20:00 14.3 C 7.49 g/m*3 14.3 C 8.1 km/h
1014 30-04-2019 12:25:00 14.4 C 7.17 g/m*3 14.4 C 11.3 km/h
1015 30-04-2019 12:30:00 14.4 C 7.17 g/m*3 14.4 C 6.4 km/h
1016 30-04-2019 12:35:00 14.6 C 7.13 g/m*3 14.6 C 12.9 km/h
1017 30-04-2019 12:40:00 14.8 C 7.09 g/m*3 14.8 C 17.7 km/h
1018 30-04-2019 12:45:00 14.8 C 7.22 g/m*3 14.8 C 14.5 km/h
1019 30-04-2019 12:50:00 14.9 C 7.01 g/m*3 14.9 C 14.5 km/h
1020 30-04-2019 12:55:00 15.1 C 7.22 g/m*3 15.1 C 12.9 km/h
1021 30-04-2019 13:00:00 15.2 C 6.75 g/m*3 15.2 C 16.1 km/h
1022 30-04-2019 13:05:00 15.3 C 6.92 g/m*3 15.3 C 6.4 km/h
1023 30-04-2019 13:10:00 15.4 C 7.23 g/m*3 15.4 C 11.3 km/h
1024 30-04-2019 13:15:00 15.6 C 7.58 g/m*3 15.6 C 17.7 km/h
1025 30-04-2019 13:20:00 15.6 C 7.18 g/m*3 15.6 C 9.7 km/h
Sensor: Nr:Datum:Temp:Abs-Feuchte:Windchill:Wind:
Aussen-T/F 1026 30-04-2019 13:25:00 15.6 C 7.18 g/m*3 15.6 C 8.1 km/h
1027 30-04-2019 13:30:00 15.6 C 7.18 g/m*3 15.6 C 11.3 km/h
1028 30-04-2019 13:35:00 15.7 C 7.09 g/m*3 15.7 C 11.3 km/h
1029 30-04-2019 13:40:00 15.8 C 6.87 g/m*3 15.8 C 16.1 km/h
1030 30-04-2019 13:45:00 15.9 C 7.18 g/m*3 15.9 C 8.1 km/h
1031 30-04-2019 13:50:00 16 C 7.22 g/m*3 16 C 8.1 km/h
1032 30-04-2019 13:55:00 16.2 C 6.9 g/m*3 16.2 C 11.3 km/h
1033 30-04-2019 14:00:00 16.3 C 7.21 g/m*3 16.3 C 11.3 km/h
1034 30-04-2019 14:05:00 16.3 C 6.8 g/m*3 16.3 C 11.3 km/h
1035 30-04-2019 14:10:00 16.4 C 6.7 g/m*3 16.4 C 11.3 km/h
1036 30-04-2019 14:15:00 16.5 C 7.02 g/m*3 16.5 C 9.7 km/h
1037 30-04-2019 14:20:00 16.7 C 6.96 g/m*3 16.7 C 8.1 km/h
1038 30-04-2019 14:25:00 16.8 C 7.01 g/m*3 16.8 C 6.4 km/h
1039 30-04-2019 14:30:00 16.9 C 7.05 g/m*3 16.9 C 14.5 km/h
1040 30-04-2019 14:35:00 17.2 C 6.88 g/m*3 17.2 C 12.9 km/h
1041 30-04-2019 14:40:00 17.2 C 6.88 g/m*3 17.2 C 9.7 km/h
1042 30-04-2019 14:45:00 17.2 C 7.03 g/m*3 17.2 C 9.7 km/h
1043 30-04-2019 14:50:00 17.3 C 6.92 g/m*3 17.3 C 6.4 km/h
1044 30-04-2019 14:55:00 17.6 C 7.05 g/m*3 17.6 C 12.9 km/h
1045 30-04-2019 15:00:00 17.7 C 7.39 g/m*3 17.7 C 11.3 km/h
1046 30-04-2019 15:05:00 17.8 C 6.98 g/m*3 17.8 C 11.3 km/h
1047 30-04-2019 15:10:00 18.1 C 7.42 g/m*3 18.1 C 11.3 km/h
1048 30-04-2019 15:15:00 18.3 C 7.04 g/m*3 18.3 C 14.5 km/h
1049 30-04-2019 15:20:00 18.4 C 7.39 g/m*3 18.4 C 8.1 km/h
1050 30-04-2019 15:25:00 18.5 C 6.96 g/m*3 18.5 C 12.9 km/h
Sensor: Nr:Datum:Temp:Abs-Feuchte:Windchill:Wind:
Aussen-T/F 1051 30-04-2019 15:30:00 18.6 C 7.16 g/m*3 18.6 C 16.1 km/h
1052 30-04-2019 15:35:00 18.8 C 7.25 g/m*3 18.8 C 11.3 km/h
1053 30-04-2019 15:40:00 19.1 C 7.21 g/m*3 19.1 C 16.1 km/h
1054 30-04-2019 15:45:00 19.2 C 7.42 g/m*3 19.2 C 9.7 km/h
1055 30-04-2019 15:50:00 19.3 C 7.13 g/m*3 19.3 C 19.3 km/h
1056 30-04-2019 15:55:00 19.3 C 7.13 g/m*3 19.3 C 12.9 km/h
1057 30-04-2019 16:00:00 19.4 C 7.01 g/m*3 19.4 C 17.7 km/h
1058 30-04-2019 16:05:00 19.6 C 7.09 g/m*3 19.6 C 8.1 km/h
1059 30-04-2019 16:10:00 19.7 C 7.13 g/m*3 19.7 C 11.3 km/h
1060 30-04-2019 16:15:00 19.8 C 7 g/m*3 19.8 C 12.9 km/h
1061 30-04-2019 16:20:00 19.9 C 7.22 g/m*3 19.9 C 9.7 km/h
1062 30-04-2019 16:25:00 20.2 C 7.17 g/m*3 20.2 C 8.1 km/h
1063 30-04-2019 16:30:00 20.3 C 7.03 g/m*3 20.3 C 17.7 km/h
1064 30-04-2019 16:35:00 20.2 C 6.82 g/m*3 20.2 C 14.5 km/h
1065 30-04-2019 16:40:00 20.2 C 6.82 g/m*3 20.2 C 8.1 km/h
1066 30-04-2019 16:45:00 20.2 C 7.17 g/m*3 20.2 C 11.3 km/h
1067 30-04-2019 16:50:00 20.4 C 7.25 g/m*3 20.4 C 16.1 km/h
1068 30-04-2019 16:55:00 20.4 C 7.08 g/m*3 20.4 C 11.3 km/h
1069 30-04-2019 17:00:00 20.4 C 7.43 g/m*3 20.4 C 8.1 km/h
1070 30-04-2019 17:05:00 20.5 C 7.12 g/m*3 20.5 C 12.9 km/h
1071 30-04-2019 17:10:00 20.4 C 7.43 g/m*3 20.4 C 14.5 km/h
1072 30-04-2019 17:15:00 20.4 C 7.43 g/m*3 20.4 C 8.1 km/h
1073 30-04-2019 17:20:00 20.6 C 7.52 g/m*3 20.6 C 11.3 km/h
1074 30-04-2019 17:25:00 20.7 C 7.56 g/m*3 20.7 C 12.9 km/h
1075 30-04-2019 17:30:00 20.5 C 7.47 g/m*3 20.5 C 12.9 km/h
Sensor: Nr:Datum:Temp:Abs-Feuchte:Windchill:Wind:
Aussen-T/F 1076 30-04-2019 17:35:00 20.5 C 7.12 g/m*3 20.5 C 16.1 km/h
1077 30-04-2019 17:40:00 20.4 C 7.25 g/m*3 20.4 C 9.7 km/h
1078 30-04-2019 17:45:00 20.4 C 7.25 g/m*3 20.4 C 14.5 km/h
1079 30-04-2019 17:50:00 20.4 C 7.25 g/m*3 20.4 C 9.7 km/h
1080 30-04-2019 17:55:00 20.4 C 7.61 g/m*3 20.4 C 6.4 km/h
1081 30-04-2019 18:00:00 20.5 C 7.3 g/m*3 20.5 C 9.7 km/h
1082 30-04-2019 18:05:00 20.3 C 7.74 g/m*3 20.3 C 11.3 km/h
1083 30-04-2019 18:10:00 20.3 C 7.56 g/m*3 20.3 C 14.5 km/h
1084 30-04-2019 18:15:00 20.3 C 7.39 g/m*3 20.3 C 6.4 km/h
1085 30-04-2019 18:20:00 20.3 C 7.56 g/m*3 20.3 C 6.4 km/h
1086 30-04-2019 18:25:00 20.4 C 7.25 g/m*3 20.4 C 9.7 km/h
1087 30-04-2019 18:30:00 20.2 C 7.52 g/m*3 20.2 C 11.3 km/h
1088 30-04-2019 18:35:00 20.2 C 7.52 g/m*3 20.2 C 14.5 km/h
1089 30-04-2019 18:40:00 20.2 C 7.34 g/m*3 20.2 C 11.3 km/h
1090 30-04-2019 18:45:00 20.1 C 7.65 g/m*3 20.1 C 6.4 km/h
1091 30-04-2019 18:50:00 20.2 C 7.52 g/m*3 20.2 C 8.1 km/h
1092 30-04-2019 18:55:00 19.9 C 7.73 g/m*3 19.9 C 11.3 km/h
1093 30-04-2019 19:00:00 19.7 C 7.81 g/m*3 19.7 C 11.3 km/h
1094 30-04-2019 19:05:00 19.5 C 7.72 g/m*3 19.5 C 9.7 km/h
1095 30-04-2019 19:10:00 19.5 C 7.72 g/m*3 19.5 C 11.3 km/h
1096 30-04-2019 19:15:00 19.4 C 7.84 g/m*3 19.4 C 11.3 km/h
1097 30-04-2019 19:20:00 19.3 C 7.96 g/m*3 19.3 C 11.3 km/h
1098 30-04-2019 19:25:00 19.2 C 8.08 g/m*3 19.2 C 6.4 km/h
1099 30-04-2019 19:30:00 19.1 C 8.03 g/m*3 19.1 C 9.7 km/h
1100 30-04-2019 19:35:00 18.8 C 7.89 g/m*3 18.8 C 12.9 km/h
Sensor: Nr:Datum:Temp:Abs-Feuchte:Windchill:Wind:
Aussen-T/F 1101 30-04-2019 19:40:00 18.5 C 7.91 g/m*3 18.5 C 9.7 km/h
1102 30-04-2019 19:45:00 18.2 C 7.93 g/m*3 18.2 C 8.1 km/h
1103 30-04-2019 19:50:00 17.9 C 7.94 g/m*3 17.9 C 9.7 km/h
1104 30-04-2019 19:55:00 17.8 C 8.04 g/m*3 17.8 C 9.7 km/h
1105 30-04-2019 20:00:00 17.7 C 8 g/m*3 17.7 C 9.7 km/h
1106 30-04-2019 20:05:00 17.4 C 8 g/m*3 17.4 C 11.3 km/h
1107 30-04-2019 20:10:00 17.3 C 8.1 g/m*3 17.3 C 4.8 km/h
1108 30-04-2019 20:15:00 17.2 C 8.2 g/m*3 17.2 C 6.4 km/h
1109 30-04-2019 20:20:00 17.2 C 8.2 g/m*3 17.2 C 6.4 km/h
1110 30-04-2019 20:25:00 17.1 C 8.44 g/m*3 17.1 C 3.2 km/h
1111 30-04-2019 20:30:00 16.9 C 8.2 g/m*3 16.9 C 4.8 km/h
1112 30-04-2019 20:35:00 16.8 C 8.29 g/m*3 16.8 C 8.1 km/h
1113 30-04-2019 20:40:00 16.6 C 8.19 g/m*3 16.6 C 11.3 km/h
1114 30-04-2019 20:45:00 16.6 C 8.33 g/m*3 16.6 C 4.8 km/h
1115 30-04-2019 20:50:00 16.4 C 8.23 g/m*3 16.4 C 6.4 km/h
1116 30-04-2019 20:55:00 16.3 C 8.32 g/m*3 16.3 C 6.4 km/h
1117 30-04-2019 21:00:00 16.2 C 8.41 g/m*3 16.2 C 4.8 km/h
1118 30-04-2019 21:05:00 16.2 C 8.69 g/m*3 16.2 C 3.2 km/h
1119 30-04-2019 21:10:00 16 C 8.45 g/m*3 16 C 4.8 km/h
1120 30-04-2019 21:15:00 15.8 C 8.62 g/m*3 15.8 C 6.4 km/h
1121 30-04-2019 21:20:00 15.7 C 8.43 g/m*3 15.7 C 6.4 km/h
1122 30-04-2019 21:25:00 15.5 C 8.59 g/m*3 15.5 C 11.3 km/h
1123 30-04-2019 21:30:00 15.3 C 8.36 g/m*3 15.3 C 8.1 km/h
1124 30-04-2019 21:35:00 15.3 C 8.62 g/m*3 15.3 C 3.2 km/h
1125 30-04-2019 21:40:00 15.2 C 8.57 g/m*3 15.2 C 11.3 km/h
Sensor: Nr:Datum:Temp:Abs-Feuchte:Windchill:Wind:
Aussen-T/F 1126 30-04-2019 21:45:00 15 C 8.59 g/m*3 15 C 4.8 km/h
1127 30-04-2019 21:50:00 14.9 C 8.67 g/m*3 14.9 C 1.6 km/h
1128 30-04-2019 21:55:00 14.7 C 8.69 g/m*3 14.7 C 1.6 km/h
1129 30-04-2019 22:00:00 14.5 C 8.71 g/m*3 14.5 C 4.8 km/h
1130 30-04-2019 22:05:00 14.4 C 8.65 g/m*3 14.4 C 11.3 km/h
1131 30-04-2019 22:10:00 14.4 C 8.53 g/m*3 14.4 C 8.1 km/h
1132 30-04-2019 22:15:00 14.5 C 8.58 g/m*3 14.5 C 14.5 km/h
1133 30-04-2019 22:20:00 14.5 C 8.58 g/m*3 14.5 C 11.3 km/h
1134 30-04-2019 22:25:00 14.4 C 8.78 g/m*3 14.4 C 6.4 km/h
1135 30-04-2019 22:30:00 14.3 C 8.72 g/m*3 14.3 C 8.1 km/h
1136 30-04-2019 22:35:00 14.2 C 8.67 g/m*3 14.2 C 8.1 km/h
1137 30-04-2019 22:40:00 14.1 C 8.74 g/m*3 14.1 C 8.1 km/h
1138 30-04-2019 22:45:00 13.9 C 8.63 g/m*3 13.9 C 3.2 km/h
1139 30-04-2019 22:50:00 13.8 C 8.7 g/m*3 13.8 C 6.4 km/h
1140 30-04-2019 22:55:00 13.7 C 8.64 g/m*3 13.7 C 4.8 km/h
1141 30-04-2019 23:00:00 13.6 C 8.71 g/m*3 13.6 C 9.7 km/h
1142 30-04-2019 23:05:00 13.5 C 8.66 g/m*3 13.5 C 1.6 km/h
1143 30-04-2019 23:10:00 13.3 C 8.66 g/m*3 13.3 C 0 km/h
1144 30-04-2019 23:15:00 13.1 C 8.67 g/m*3 13.1 C 8.1 km/h
1145 30-04-2019 23:20:00 12.8 C 8.74 g/m*3 12.8 C 6.4 km/h
1146 30-04-2019 23:25:00 12.7 C 8.68 g/m*3 12.7 C 4.8 km/h
1147 30-04-2019 23:30:00 12.6 C 8.74 g/m*3 12.6 C 0 km/h
1148 30-04-2019 23:35:00 12.4 C 8.63 g/m*3 12.4 C 1.6 km/h
1149 30-04-2019 23:40:00 12.2 C 8.63 g/m*3 12.2 C 0 km/h
1150 30-04-2019 23:45:00 12.1 C 8.58 g/m*3 12.1 C 1.6 km/h
Sensor: Nr:Datum:Temp:Abs-Feuchte:Windchill:Wind:
Aussen-T/F 1151 30-04-2019 23:50:00 11.9 C 8.58 g/m*3 11.9 C 0 km/h
1152 30-04-2019 23:55:00 11.7 C 8.47 g/m*3 11.7 C 0 km/h
1153 01-05-2019 00:00:00 11.6 C 8.52 g/m*3 11.6 C 0 km/h
1154 01-05-2019 00:05:00 11.4 C 8.42 g/m*3 11.4 C 0 km/h
1155 01-05-2019 00:10:00 11.3 C 8.47 g/m*3 11.3 C 0 km/h
1156 01-05-2019 00:15:00 11.3 C 8.47 g/m*3 11.3 C 0 km/h
1157 01-05-2019 00:20:00 11.3 C 8.57 g/m*3 11.3 C 0 km/h
1158 01-05-2019 00:25:00 11.2 C 8.41 g/m*3 11.2 C 1.6 km/h
1159 01-05-2019 00:30:00 11.2 C 8.51 g/m*3 11.2 C 4.8 km/h
1160 01-05-2019 00:35:00 11.3 C 8.47 g/m*3 11.3 C 3.2 km/h
1161 01-05-2019 00:40:00 11.3 C 8.47 g/m*3 11.3 C 0 km/h
1162 01-05-2019 00:45:00 11.2 C 8.41 g/m*3 11.2 C 0 km/h
1163 01-05-2019 00:50:00 11.1 C 8.36 g/m*3 11.1 C 0 km/h
1164 01-05-2019 00:55:00 10.9 C 8.36 g/m*3 10.9 C 0 km/h
1165 01-05-2019 01:00:00 10.7 C 8.25 g/m*3 10.7 C 0 km/h
1166 01-05-2019 01:05:00 10.6 C 8.3 g/m*3 10.6 C 0 km/h
1167 01-05-2019 01:10:00 10.6 C 8.3 g/m*3 10.6 C 3.2 km/h
1168 01-05-2019 01:15:00 10.6 C 8.3 g/m*3 10.6 C 3.2 km/h
1169 01-05-2019 01:20:00 10.6 C 8.3 g/m*3 10.6 C 0 km/h
1170 01-05-2019 01:25:00 10.6 C 8.3 g/m*3 10.6 C 0 km/h
1171 01-05-2019 01:30:00 10.3 C 8.14 g/m*3 10.3 C 0 km/h
1172 01-05-2019 01:35:00 10.2 C 8.18 g/m*3 10.2 C 0 km/h
1173 01-05-2019 01:40:00 10.2 C 8.18 g/m*3 10.2 C 0 km/h
1174 01-05-2019 01:45:00 10.1 C 8.13 g/m*3 10.1 C 1.6 km/h
1175 01-05-2019 01:50:00 10 C 8.17 g/m*3 10 C 0 km/h
Sensor: Nr:Datum:Temp:Abs-Feuchte:Windchill:Wind:
Aussen-T/F 1176 01-05-2019 01:55:00 9.9 C 8.12 g/m*3 9.9 C 0 km/h
1177 01-05-2019 02:00:00 9.8 C 8.07 g/m*3 9.8 C 0 km/h
1178 01-05-2019 02:05:00 9.7 C 8.02 g/m*3 9.7 C 0 km/h
1179 01-05-2019 02:10:00 9.6 C 7.97 g/m*3 9.6 C 0 km/h
1180 01-05-2019 02:15:00 9.5 C 7.92 g/m*3 9.5 C 0 km/h
1181 01-05-2019 02:20:00 9.4 C 7.96 g/m*3 9.4 C 0 km/h
1182 01-05-2019 02:25:00 9.3 C 7.91 g/m*3 9.3 C 0 km/h
1183 01-05-2019 02:30:00 9.2 C 7.86 g/m*3 9.2 C 0 km/h
1184 01-05-2019 02:35:00 9.1 C 7.9 g/m*3 9.1 C 0 km/h
1185 01-05-2019 02:40:00 9 C 7.85 g/m*3 9 C 0 km/h
1186 01-05-2019 02:45:00 8.9 C 7.8 g/m*3 8.9 C 0 km/h
1187 01-05-2019 02:50:00 8.9 C 7.88 g/m*3 8.9 C 0 km/h
1188 01-05-2019 02:55:00 8.8 C 7.83 g/m*3 8.8 C 0 km/h
1189 01-05-2019 03:00:00 8.8 C 7.83 g/m*3 8.8 C 0 km/h
1190 01-05-2019 03:05:00 8.7 C 7.78 g/m*3 8.7 C 0 km/h
1191 01-05-2019 03:10:00 8.6 C 7.73 g/m*3 8.6 C 0 km/h
1192 01-05-2019 03:15:00 8.5 C 7.68 g/m*3 8.5 C 0 km/h
1193 01-05-2019 03:20:00 8.5 C 7.77 g/m*3 8.5 C 0 km/h
1194 01-05-2019 03:25:00 8.4 C 7.72 g/m*3 8.4 C 0 km/h
1195 01-05-2019 03:30:00 8.4 C 7.72 g/m*3 8.4 C 0 km/h
1196 01-05-2019 03:35:00 8.4 C 7.72 g/m*3 8.4 C 0 km/h
1197 01-05-2019 03:40:00 8.3 C 7.67 g/m*3 8.3 C 1.6 km/h
1198 01-05-2019 03:45:00 8.3 C 7.67 g/m*3 8.3 C 0 km/h
1199 01-05-2019 03:50:00 8.3 C 7.75 g/m*3 8.3 C 0 km/h
1200 01-05-2019 03:55:00 8.3 C 7.75 g/m*3 8.3 C 0 km/h
Sensor: Nr:Datum:Temp:Abs-Feuchte:Windchill:Wind:
Aussen-T/F 1201 01-05-2019 04:00:00 8.3 C 7.75 g/m*3 8.3 C 0 km/h
1202 01-05-2019 04:05:00 8.3 C 7.75 g/m*3 8.3 C 0 km/h
1203 01-05-2019 04:10:00 8.3 C 7.75 g/m*3 8.3 C 0 km/h
1204 01-05-2019 04:15:00 8.3 C 7.75 g/m*3 8.3 C 1.6 km/h
1205 01-05-2019 04:20:00 8.3 C 7.75 g/m*3 8.3 C 3.2 km/h
1206 01-05-2019 04:25:00 8.2 C 7.7 g/m*3 8.2 C 0 km/h
1207 01-05-2019 04:30:00 8.1 C 7.66 g/m*3 8.1 C 0 km/h
1208 01-05-2019 04:35:00 8 C 7.61 g/m*3 8 C 0 km/h
1209 01-05-2019 04:40:00 7.9 C 7.56 g/m*3 7.9 C 0 km/h
1210 01-05-2019 04:45:00 7.8 C 7.43 g/m*3 7.8 C 0 km/h
1211 01-05-2019 04:50:00 7.7 C 7.38 g/m*3 7.7 C 0 km/h
1212 01-05-2019 04:55:00 7.7 C 7.38 g/m*3 7.7 C 0 km/h
1213 01-05-2019 05:00:00 7.6 C 7.41 g/m*3 7.6 C 0 km/h
1214 01-05-2019 05:05:00 7.4 C 7.32 g/m*3 7.4 C 0 km/h
1215 01-05-2019 05:10:00 7.3 C 7.27 g/m*3 7.3 C 0 km/h
1216 01-05-2019 05:15:00 7.2 C 7.22 g/m*3 7.2 C 0 km/h
1217 01-05-2019 05:20:00 7.1 C 7.18 g/m*3 7.1 C 0 km/h
1218 01-05-2019 05:25:00 6.9 C 7.08 g/m*3 6.9 C 0 km/h
1219 01-05-2019 05:30:00 6.8 C 7.04 g/m*3 6.8 C 0 km/h
1220 01-05-2019 05:35:00 6.7 C 6.99 g/m*3 6.7 C 0 km/h
1221 01-05-2019 05:40:00 6.7 C 6.99 g/m*3 6.7 C 0 km/h
1222 01-05-2019 05:45:00 6.6 C 7.02 g/m*3 6.6 C 0 km/h
1223 01-05-2019 05:50:00 6.6 C 7.02 g/m*3 6.6 C 0 km/h
1224 01-05-2019 05:55:00 6.6 C 7.02 g/m*3 6.6 C 0 km/h
1225 01-05-2019 06:00:00 6.4 C 6.93 g/m*3 6.4 C 0 km/h
Sensor: Nr:Datum:Temp:Abs-Feuchte:Windchill:Wind:
Aussen-T/F 1226 01-05-2019 06:05:00 6.3 C 6.88 g/m*3 6.3 C 0 km/h
1227 01-05-2019 06:10:00 6.3 C 6.88 g/m*3 6.3 C 0 km/h
1228 01-05-2019 06:15:00 6.3 C 6.88 g/m*3 6.3 C 0 km/h
1229 01-05-2019 06:20:00 6.3 C 6.96 g/m*3 6.3 C 0 km/h
1230 01-05-2019 06:25:00 6.2 C 6.84 g/m*3 6.2 C 0 km/h
1231 01-05-2019 06:30:00 6.2 C 6.91 g/m*3 6.2 C 1.6 km/h
1232 01-05-2019 06:35:00 6.3 C 6.96 g/m*3 6.3 C 0 km/h
1233 01-05-2019 06:40:00 6.3 C 6.96 g/m*3 6.3 C 0 km/h
1234 01-05-2019 06:45:00 6.3 C 6.96 g/m*3 6.3 C 0 km/h
1235 01-05-2019 06:50:00 6.2 C 6.91 g/m*3 6.2 C 0 km/h
1236 01-05-2019 06:55:00 6.2 C 6.91 g/m*3 6.2 C 0 km/h
1237 01-05-2019 07:00:00 6.3 C 6.96 g/m*3 6.3 C 0 km/h
1238 01-05-2019 07:05:00 6.3 C 7.03 g/m*3 6.3 C 0 km/h
1239 01-05-2019 07:10:00 6.4 C 7.08 g/m*3 6.4 C 0 km/h
1240 01-05-2019 07:15:00 6.6 C 7.17 g/m*3 6.6 C 0 km/h
1241 01-05-2019 07:20:00 6.7 C 7.22 g/m*3 6.7 C 0 km/h
1242 01-05-2019 07:25:00 6.8 C 7.27 g/m*3 6.8 C 0 km/h
1243 01-05-2019 07:30:00 6.8 C 7.27 g/m*3 6.8 C 1.6 km/h
1244 01-05-2019 07:35:00 6.9 C 7.31 g/m*3 6.9 C 1.6 km/h
1245 01-05-2019 07:40:00 7.1 C 7.41 g/m*3 7.1 C 1.6 km/h
1246 01-05-2019 07:45:00 7.1 C 7.41 g/m*3 7.1 C 0 km/h
1247 01-05-2019 07:50:00 7.2 C 7.46 g/m*3 7.2 C 1.6 km/h
1248 01-05-2019 07:55:00 7.3 C 7.51 g/m*3 7.3 C 0 km/h
1249 01-05-2019 08:00:00 7.3 C 7.51 g/m*3 7.3 C 0 km/h
1250 01-05-2019 08:05:00 7.5 C 7.6 g/m*3 7.5 C 1.6 km/h
Sensor: Nr:Datum:Temp:Abs-Feuchte:Windchill:Wind:
Aussen-T/F 1251 01-05-2019 08:10:00 7.5 C 7.6 g/m*3 7.5 C 3.2 km/h
1252 01-05-2019 08:15:00 7.6 C 7.65 g/m*3 7.6 C 0 km/h
1253 01-05-2019 08:20:00 7.7 C 7.7 g/m*3 7.7 C 0 km/h
1254 01-05-2019 08:25:00 7.9 C 7.8 g/m*3 7.9 C 0 km/h
1255 01-05-2019 08:30:00 8.1 C 7.9 g/m*3 8.1 C 0 km/h
1256 01-05-2019 08:35:00 8.1 C 7.9 g/m*3 8.1 C 1.6 km/h
1257 01-05-2019 08:40:00 8.2 C 7.96 g/m*3 8.2 C 0 km/h
1258 01-05-2019 08:45:00 8.2 C 7.96 g/m*3 8.2 C 1.6 km/h
1259 01-05-2019 08:50:00 8.3 C 7.92 g/m*3 8.3 C 1.6 km/h
1260 01-05-2019 08:55:00 8.4 C 7.97 g/m*3 8.4 C 0 km/h
1261 01-05-2019 09:00:00 8.4 C 7.97 g/m*3 8.4 C 0 km/h
1262 01-05-2019 09:05:00 8.6 C 8.08 g/m*3 8.6 C 0 km/h
1263 01-05-2019 09:10:00 8.6 C 8.08 g/m*3 8.6 C 3.2 km/h
1264 01-05-2019 09:15:00 8.7 C 8.04 g/m*3 8.7 C 3.2 km/h
1265 01-05-2019 09:20:00 8.7 C 8.04 g/m*3 8.7 C 1.6 km/h
1266 01-05-2019 09:25:00 8.8 C 8.09 g/m*3 8.8 C 0 km/h
1267 01-05-2019 09:30:00 8.9 C 8.15 g/m*3 8.9 C 1.6 km/h
1268 01-05-2019 09:35:00 9.1 C 8.25 g/m*3 9.1 C 1.6 km/h
1269 01-05-2019 09:40:00 9.1 C 8.16 g/m*3 9.1 C 3.2 km/h
1270 01-05-2019 09:45:00 9.2 C 8.22 g/m*3 9.2 C 3.2 km/h
1271 01-05-2019 09:50:00 9.2 C 8.22 g/m*3 9.2 C 0 km/h
1272 01-05-2019 09:55:00 9.4 C 8.32 g/m*3 9.4 C 0 km/h
1273 01-05-2019 10:00:00 9.6 C 8.43 g/m*3 9.6 C 0 km/h
1274 01-05-2019 10:05:00 9.7 C 8.48 g/m*3 9.7 C 3.2 km/h
1275 01-05-2019 10:10:00 9.9 C 8.59 g/m*3 9.9 C 1.6 km/h
Sensor: Nr:Datum:Temp:Abs-Feuchte:Windchill:Wind:
Aussen-T/F 1276 01-05-2019 10:15:00 10.1 C 8.51 g/m*3 10.1 C 3.2 km/h
1277 01-05-2019 10:20:00 10 C 8.36 g/m*3 10 C 1.6 km/h
1278 01-05-2019 10:25:00 10 C 8.46 g/m*3 10 C 0 km/h
1279 01-05-2019 10:30:00 10.1 C 8.51 g/m*3 10.1 C 1.6 km/h
1280 01-05-2019 10:35:00 10.3 C 8.52 g/m*3 9.72 C 6.4 km/h
1281 01-05-2019 10:40:00 10.4 C 8.58 g/m*3 9.83 C 6.4 km/h
1282 01-05-2019 10:45:00 10.4 C 8.48 g/m*3 9.83 C 6.4 km/h
1283 01-05-2019 10:50:00 10.4 C 8.48 g/m*3 10.4 C 1.6 km/h
1284 01-05-2019 10:55:00 10.5 C 8.53 g/m*3 10.5 C 4.8 km/h
1285 01-05-2019 11:00:00 10.5 C 8.53 g/m*3 10.5 C 1.6 km/h
1286 01-05-2019 11:05:00 10.6 C 8.59 g/m*3 10.6 C 1.6 km/h
1287 01-05-2019 11:10:00 10.7 C 8.64 g/m*3 10.7 C 4.8 km/h
1288 01-05-2019 11:15:00 10.8 C 8.6 g/m*3 10.8 C 3.2 km/h
1289 01-05-2019 11:20:00 10.9 C 8.65 g/m*3 10.9 C 3.2 km/h
1290 01-05-2019 11:25:00 11.2 C 8.82 g/m*3 11.2 C 1.6 km/h
1291 01-05-2019 11:30:00 11.4 C 8.93 g/m*3 11.4 C 1.6 km/h
1292 01-05-2019 11:35:00 11.7 C 8.99 g/m*3 11.7 C 1.6 km/h
1293 01-05-2019 11:40:00 11.9 C 9.11 g/m*3 11.9 C 3.2 km/h
1294 01-05-2019 11:45:00 12.2 C 9.17 g/m*3 12.2 C 4.8 km/h
1295 01-05-2019 11:50:00 12.4 C 9.18 g/m*3 12.4 C 4.8 km/h
1296 01-05-2019 11:55:00 12.6 C 9.07 g/m*3 12.6 C 4.8 km/h
1297 01-05-2019 12:00:00 12.7 C 9.24 g/m*3 12.7 C 3.2 km/h
1298 01-05-2019 12:05:00 12.9 C 9.24 g/m*3 12.9 C 6.4 km/h
1299 01-05-2019 12:10:00 13.2 C 9.42 g/m*3 13.2 C 1.6 km/h
1300 01-05-2019 12:15:00 13.3 C 9.36 g/m*3 13.3 C 3.2 km/h
Sensor: Nr:Datum:Temp:Abs-Feuchte:Windchill:Wind:
Aussen-T/F 1301 01-05-2019 12:20:00 13.6 C 9.42 g/m*3 13.6 C 1.6 km/h
1302 01-05-2019 12:25:00 13.7 C 9.35 g/m*3 13.7 C 6.4 km/h
1303 01-05-2019 12:30:00 13.9 C 9.47 g/m*3 13.9 C 3.2 km/h
1304 01-05-2019 12:35:00 14.2 C 9.52 g/m*3 14.2 C 6.4 km/h
1305 01-05-2019 12:40:00 14.3 C 9.46 g/m*3 14.3 C 8.1 km/h
1306 01-05-2019 12:45:00 14.5 C 9.58 g/m*3 14.5 C 4.8 km/h
1307 01-05-2019 12:50:00 14.6 C 9.51 g/m*3 14.6 C 4.8 km/h
1308 01-05-2019 12:55:00 14.8 C 9.5 g/m*3 14.8 C 3.2 km/h
1309 01-05-2019 13:00:00 15 C 9.62 g/m*3 15 C 3.2 km/h
1310 01-05-2019 13:05:00 15.3 C 9.53 g/m*3 15.3 C 8.1 km/h
1311 01-05-2019 13:10:00 15.5 C 9.52 g/m*3 15.5 C 8.1 km/h
1312 01-05-2019 13:15:00 15.7 C 9.5 g/m*3 15.7 C 8.1 km/h
1313 01-05-2019 13:20:00 15.8 C 9.42 g/m*3 15.8 C 8.1 km/h
1314 01-05-2019 13:25:00 15.9 C 9.07 g/m*3 15.9 C 8.1 km/h
1315 01-05-2019 13:30:00 16.2 C 9.1 g/m*3 16.2 C 8.1 km/h
1316 01-05-2019 13:35:00 16.3 C 8.6 g/m*3 16.3 C 4.8 km/h
1317 01-05-2019 13:40:00 16.5 C 8.71 g/m*3 16.5 C 11.3 km/h
1318 01-05-2019 13:45:00 16.6 C 8.19 g/m*3 16.6 C 8.1 km/h
1319 01-05-2019 13:50:00 16.8 C 8.72 g/m*3 16.8 C 8.1 km/h
1320 01-05-2019 13:55:00 16.8 C 8.58 g/m*3 16.8 C 6.4 km/h
1321 01-05-2019 14:00:00 16.9 C 8.63 g/m*3 16.9 C 6.4 km/h
1322 01-05-2019 14:05:00 17.1 C 8.59 g/m*3 17.1 C 9.7 km/h
1323 01-05-2019 14:10:00 17.2 C 8.49 g/m*3 17.2 C 9.7 km/h
1324 01-05-2019 14:15:00 17.3 C 8.25 g/m*3 17.3 C 11.3 km/h
1325 01-05-2019 14:20:00 17.4 C 8.6 g/m*3 17.4 C 8.1 km/h
Sensor: Nr:Datum:Temp:Abs-Feuchte:Windchill:Wind:
Aussen-T/F 1326 01-05-2019 14:25:00 17.6 C 8.4 g/m*3 17.6 C 11.3 km/h
1327 01-05-2019 14:30:00 17.8 C 8.04 g/m*3 17.8 C 9.7 km/h
1328 01-05-2019 14:35:00 17.9 C 7.94 g/m*3 17.9 C 9.7 km/h
1329 01-05-2019 14:40:00 18.1 C 7.88 g/m*3 18.1 C 8.1 km/h
1330 01-05-2019 14:45:00 18.3 C 7.97 g/m*3 18.3 C 9.7 km/h
1331 01-05-2019 14:50:00 18.3 C 8.29 g/m*3 18.3 C 8.1 km/h
1332 01-05-2019 14:55:00 18.4 C 8.49 g/m*3 18.4 C 8.1 km/h
1333 01-05-2019 15:00:00 18.5 C 7.91 g/m*3 18.5 C 8.1 km/h
1334 01-05-2019 15:05:00 18.6 C 8.12 g/m*3 18.6 C 9.7 km/h
1335 01-05-2019 15:10:00 18.7 C 8.49 g/m*3 18.7 C 8.1 km/h
1336 01-05-2019 15:15:00 18.9 C 7.94 g/m*3 18.9 C 14.5 km/h
1337 01-05-2019 15:20:00 18.9 C 8.1 g/m*3 18.9 C 14.5 km/h
1338 01-05-2019 15:25:00 19.1 C 8.03 g/m*3 19.1 C 6.4 km/h
1339 01-05-2019 15:30:00 19.4 C 8.18 g/m*3 19.4 C 9.7 km/h
1340 01-05-2019 15:35:00 19.6 C 7.77 g/m*3 19.6 C 8.1 km/h
1341 01-05-2019 15:40:00 19.8 C 8.37 g/m*3 19.8 C 6.4 km/h
1342 01-05-2019 15:45:00 20.1 C 8 g/m*3 20.1 C 6.4 km/h
1343 01-05-2019 15:50:00 20.2 C 8.04 g/m*3 20.2 C 11.3 km/h
1344 01-05-2019 15:55:00 20.4 C 8.31 g/m*3 20.4 C 9.7 km/h
1345 01-05-2019 16:00:00 20.6 C 7.87 g/m*3 20.6 C 8.1 km/h
1346 01-05-2019 16:05:00 20.8 C 8.33 g/m*3 20.8 C 4.8 km/h
1347 01-05-2019 16:10:00 21.1 C 7.92 g/m*3 21.1 C 8.1 km/h
1348 01-05-2019 16:15:00 21 C 8.24 g/m*3 21 C 8.1 km/h
1349 01-05-2019 16:20:00 21.3 C 8.02 g/m*3 21.3 C 3.2 km/h
1350 01-05-2019 16:25:00 21.3 C 8.02 g/m*3 21.3 C 3.2 km/h
Sensor: Nr:Datum:Temp:Abs-Feuchte:Windchill:Wind:
Aussen-T/F 1351 01-05-2019 16:30:00 21.6 C 8.16 g/m*3 21.6 C 9.7 km/h
1352 01-05-2019 16:35:00 21.7 C 8.2 g/m*3 21.7 C 9.7 km/h
1353 01-05-2019 16:40:00 21.8 C 8.25 g/m*3 21.8 C 9.7 km/h
1354 01-05-2019 16:45:00 21.6 C 8.35 g/m*3 21.6 C 8.1 km/h
1355 01-05-2019 16:50:00 21.4 C 8.44 g/m*3 21.4 C 8.1 km/h
1356 01-05-2019 16:55:00 21.6 C 8.35 g/m*3 21.6 C 8.1 km/h
1357 01-05-2019 17:00:00 21.7 C 8.58 g/m*3 21.7 C 4.8 km/h
1358 01-05-2019 17:05:00 21.7 C 8.2 g/m*3 21.7 C 9.7 km/h
1359 01-05-2019 17:10:00 21.7 C 8.58 g/m*3 21.7 C 9.7 km/h
1360 01-05-2019 17:15:00 21.7 C 8.01 g/m*3 21.7 C 6.4 km/h
1361 01-05-2019 17:20:00 21.5 C 8.3 g/m*3 21.5 C 8.1 km/h
1362 01-05-2019 17:25:00 21.6 C 8.16 g/m*3 21.6 C 4.8 km/h
1363 01-05-2019 17:30:00 21.5 C 8.11 g/m*3 21.5 C 9.7 km/h
1364 01-05-2019 17:35:00 21.3 C 8.39 g/m*3 21.3 C 11.3 km/h
1365 01-05-2019 17:40:00 21.3 C 8.39 g/m*3 21.3 C 9.7 km/h
1366 01-05-2019 17:45:00 21.3 C 8.57 g/m*3 21.3 C 6.4 km/h
1367 01-05-2019 17:50:00 21.3 C 8.39 g/m*3 21.3 C 6.4 km/h
1368 01-05-2019 17:55:00 21.2 C 8.34 g/m*3 21.2 C 9.7 km/h
1369 01-05-2019 18:00:00 20.9 C 8.92 g/m*3 20.9 C 12.9 km/h
1370 01-05-2019 18:05:00 20.8 C 9.23 g/m*3 20.8 C 11.3 km/h
1371 01-05-2019 18:10:00 20.8 C 9.05 g/m*3 20.8 C 9.7 km/h
1372 01-05-2019 18:15:00 20.8 C 9.42 g/m*3 20.8 C 8.1 km/h
1373 01-05-2019 18:20:00 20.7 C 9.18 g/m*3 20.7 C 12.9 km/h
1374 01-05-2019 18:25:00 20.6 C 9.31 g/m*3 20.6 C 8.1 km/h
1375 01-05-2019 18:30:00 20.4 C 9.2 g/m*3 20.4 C 11.3 km/h
Sensor: Nr:Datum:Temp:Abs-Feuchte:Windchill:Wind:
Aussen-T/F 1376 01-05-2019 18:35:00 20.2 C 9.44 g/m*3 20.2 C 9.7 km/h
1377 01-05-2019 18:40:00 20 C 9.33 g/m*3 20 C 9.7 km/h
1378 01-05-2019 18:45:00 19.7 C 9.17 g/m*3 19.7 C 12.9 km/h
1379 01-05-2019 18:50:00 19.6 C 9.45 g/m*3 19.6 C 6.4 km/h
1380 01-05-2019 18:55:00 19.4 C 9.18 g/m*3 19.4 C 9.7 km/h
1381 01-05-2019 19:00:00 19.4 C 9.34 g/m*3 19.4 C 9.7 km/h
1382 01-05-2019 19:05:00 19.2 C 9.23 g/m*3 19.2 C 11.3 km/h
1383 01-05-2019 19:10:00 19 C 9.29 g/m*3 19 C 4.8 km/h
1384 01-05-2019 19:15:00 18.8 C 9.18 g/m*3 18.8 C 9.7 km/h
1385 01-05-2019 19:20:00 18.6 C 9.23 g/m*3 18.6 C 9.7 km/h
1386 01-05-2019 19:25:00 18.3 C 9.07 g/m*3 18.3 C 9.7 km/h
1387 01-05-2019 19:30:00 18 C 8.91 g/m*3 18 C 8.1 km/h
1388 01-05-2019 19:35:00 17.7 C 8.9 g/m*3 17.7 C 11.3 km/h
1389 01-05-2019 19:40:00 17.6 C 9 g/m*3 17.6 C 4.8 km/h
1390 01-05-2019 19:45:00 17.5 C 8.95 g/m*3 17.5 C 3.2 km/h
1391 01-05-2019 19:50:00 17.3 C 8.69 g/m*3 17.3 C 4.8 km/h
1392 01-05-2019 19:55:00 17.2 C 8.93 g/m*3 17.2 C 4.8 km/h
1393 01-05-2019 20:00:00 17.1 C 8.59 g/m*3 17.1 C 11.3 km/h
1394 01-05-2019 20:05:00 16.9 C 8.63 g/m*3 16.9 C 3.2 km/h
1395 01-05-2019 20:10:00 16.7 C 8.95 g/m*3 16.7 C 4.8 km/h
1396 01-05-2019 20:15:00 16.4 C 8.65 g/m*3 16.4 C 6.4 km/h
1397 01-05-2019 20:20:00 16.2 C 8.55 g/m*3 16.2 C 4.8 km/h
1398 01-05-2019 20:25:00 15.8 C 8.48 g/m*3 15.8 C 3.2 km/h
1399 01-05-2019 20:30:00 15.5 C 8.46 g/m*3 15.5 C 0 km/h
1400 01-05-2019 20:35:00 15.2 C 8.31 g/m*3 15.2 C 1.6 km/h
Sensor: Nr:Datum:Temp:Abs-Feuchte:Windchill:Wind:
Aussen-T/F 1401 01-05-2019 20:40:00 14.9 C 8.28 g/m*3 14.9 C 0 km/h
1402 01-05-2019 20:45:00 14.7 C 8.31 g/m*3 14.7 C 0 km/h
1403 01-05-2019 20:50:00 14.3 C 7.99 g/m*3 14.3 C 4.8 km/h
1404 01-05-2019 20:55:00 14.2 C 8.18 g/m*3 14.2 C 1.6 km/h
1405 01-05-2019 21:00:00 13.9 C 8.27 g/m*3 13.9 C 0 km/h
1406 01-05-2019 21:05:00 13.6 C 8.36 g/m*3 13.6 C 4.8 km/h
1407 01-05-2019 21:10:00 13.4 C 8.49 g/m*3 13.4 C 4.8 km/h
1408 01-05-2019 21:15:00 13.3 C 8.43 g/m*3 13.3 C 4.8 km/h
1409 01-05-2019 21:20:00 13.3 C 8.55 g/m*3 13.3 C 6.4 km/h
1410 01-05-2019 21:25:00 13.4 C 8.6 g/m*3 13.4 C 8.1 km/h
1411 01-05-2019 21:30:00 13.6 C 8.71 g/m*3 13.6 C 8.1 km/h
1412 01-05-2019 21:35:00 13.6 C 8.71 g/m*3 13.6 C 3.2 km/h
1413 01-05-2019 21:40:00 13.5 C 8.66 g/m*3 13.5 C 8.1 km/h
1414 01-05-2019 21:45:00 13.6 C 8.71 g/m*3 13.6 C 8.1 km/h
1415 01-05-2019 21:50:00 13.6 C 8.71 g/m*3 13.6 C 6.4 km/h
1416 01-05-2019 21:55:00 13.6 C 8.83 g/m*3 13.6 C 8.1 km/h
1417 01-05-2019 22:00:00 13.6 C 8.83 g/m*3 13.6 C 4.8 km/h
1418 01-05-2019 22:05:00 13.4 C 8.72 g/m*3 13.4 C 8.1 km/h
1419 01-05-2019 22:10:00 13.4 C 8.72 g/m*3 13.4 C 9.7 km/h
1420 01-05-2019 22:15:00 13.4 C 8.72 g/m*3 13.4 C 4.8 km/h
1421 01-05-2019 22:20:00 13.3 C 8.78 g/m*3 13.3 C 1.6 km/h
1422 01-05-2019 22:25:00 13.1 C 8.79 g/m*3 13.1 C 0 km/h
1423 01-05-2019 22:30:00 12.8 C 8.74 g/m*3 12.8 C 3.2 km/h
1424 01-05-2019 22:35:00 12.5 C 8.69 g/m*3 12.5 C 1.6 km/h
1425 01-05-2019 22:40:00 12.3 C 8.69 g/m*3 12.3 C 0 km/h
Sensor: Nr:Datum:Temp:Abs-Feuchte:Windchill:Wind:
Aussen-T/F 1426 01-05-2019 22:45:00 12 C 8.63 g/m*3 12 C 0 km/h
1427 01-05-2019 22:50:00 11.8 C 8.63 g/m*3 11.8 C 0 km/h
1428 01-05-2019 22:55:00 11.6 C 8.52 g/m*3 11.6 C 0 km/h
1429 01-05-2019 23:00:00 11.4 C 8.52 g/m*3 11.4 C 0 km/h
1430 01-05-2019 23:05:00 11.3 C 8.57 g/m*3 11.3 C 0 km/h
1431 01-05-2019 23:10:00 11.2 C 8.51 g/m*3 11.2 C 0 km/h
1432 01-05-2019 23:15:00 11.1 C 8.56 g/m*3 11.1 C 0 km/h
1433 01-05-2019 23:20:00 10.9 C 8.45 g/m*3 10.9 C 0 km/h
1434 01-05-2019 23:25:00 10.8 C 8.4 g/m*3 10.8 C 0 km/h
1435 01-05-2019 23:30:00 10.7 C 8.45 g/m*3 10.7 C 0 km/h
1436 01-05-2019 23:35:00 10.6 C 8.39 g/m*3 10.6 C 0 km/h
1437 01-05-2019 23:40:00 10.6 C 8.39 g/m*3 10.6 C 0 km/h
1438 01-05-2019 23:45:00 10.4 C 8.38 g/m*3 10.4 C 0 km/h
1439 01-05-2019 23:50:00 10.4 C 8.38 g/m*3 10.4 C 0 km/h
1440 01-05-2019 23:55:00 10.3 C 8.33 g/m*3 10.3 C 0 km/h
1441 02-05-2019 00:00:00 10.3 C 8.33 g/m*3 10.3 C 0 km/h
1442 02-05-2019 00:05:00 10.2 C 8.28 g/m*3 10.2 C 0 km/h
1443 02-05-2019 00:10:00 10.2 C 8.37 g/m*3 10.2 C 0 km/h
1444 02-05-2019 00:15:00 10.2 C 8.37 g/m*3 10.2 C 0 km/h
1445 02-05-2019 00:20:00 10.1 C 8.32 g/m*3 10.1 C 0 km/h
1446 02-05-2019 00:25:00 10 C 8.27 g/m*3 10 C 0 km/h
1447 02-05-2019 00:30:00 9.9 C 8.31 g/m*3 9.9 C 0 km/h
1448 02-05-2019 00:35:00 9.9 C 8.31 g/m*3 9.9 C 0 km/h
1449 02-05-2019 00:40:00 9.8 C 8.26 g/m*3 9.8 C 0 km/h
1450 02-05-2019 00:45:00 9.8 C 8.26 g/m*3 9.8 C 0 km/h
Sensor: Nr:Datum:Temp:Abs-Feuchte:Windchill:Wind:
Aussen-T/F 1451 02-05-2019 00:50:00 9.7 C 8.2 g/m*3 9.7 C 0 km/h
1452 02-05-2019 00:55:00 9.7 C 8.2 g/m*3 9.7 C 0 km/h
1453 02-05-2019 01:00:00 9.6 C 8.15 g/m*3 9.6 C 0 km/h
1454 02-05-2019 01:05:00 9.5 C 8.1 g/m*3 9.5 C 0 km/h
1455 02-05-2019 01:10:00 9.3 C 8.09 g/m*3 9.3 C 0 km/h
1456 02-05-2019 01:15:00 9.2 C 7.95 g/m*3 9.2 C 0 km/h
1457 02-05-2019 01:20:00 9.1 C 7.99 g/m*3 9.1 C 0 km/h
1458 02-05-2019 01:25:00 8.9 C 7.88 g/m*3 8.9 C 0 km/h
1459 02-05-2019 01:30:00 8.8 C 7.83 g/m*3 8.8 C 0 km/h
1460 02-05-2019 01:35:00 8.7 C 7.87 g/m*3 8.7 C 0 km/h
1461 02-05-2019 01:40:00 8.7 C 7.87 g/m*3 8.7 C 0 km/h
1462 02-05-2019 01:45:00 8.6 C 7.91 g/m*3 8.6 C 0 km/h
1463 02-05-2019 01:50:00 8.6 C 7.91 g/m*3 8.6 C 0 km/h
1464 02-05-2019 01:55:00 8.6 C 7.91 g/m*3 8.6 C 0 km/h
1465 02-05-2019 02:00:00 8.4 C 7.8 g/m*3 8.4 C 0 km/h
1466 02-05-2019 02:05:00 8.4 C 7.8 g/m*3 8.4 C 0 km/h
1467 02-05-2019 02:10:00 8.3 C 7.75 g/m*3 8.3 C 0 km/h
1468 02-05-2019 02:15:00 8.3 C 7.75 g/m*3 8.3 C 0 km/h
1469 02-05-2019 02:20:00 8.3 C 7.84 g/m*3 8.3 C 0 km/h
1470 02-05-2019 02:25:00 8.2 C 7.79 g/m*3 8.2 C 0 km/h
1471 02-05-2019 02:30:00 8.2 C 7.79 g/m*3 8.2 C 0 km/h
1472 02-05-2019 02:35:00 8.2 C 7.79 g/m*3 8.2 C 0 km/h
1473 02-05-2019 02:40:00 8.2 C 7.79 g/m*3 8.2 C 0 km/h
1474 02-05-2019 02:45:00 8.1 C 7.74 g/m*3 8.1 C 0 km/h
1475 02-05-2019 02:50:00 8.1 C 7.74 g/m*3 8.1 C 0 km/h
Sensor: Nr:Datum:Temp:Abs-Feuchte:Windchill:Wind:
Aussen-T/F 1476 02-05-2019 02:55:00 8.1 C 7.82 g/m*3 8.1 C 0 km/h
1477 02-05-2019 03:00:00 8 C 7.69 g/m*3 8 C 0 km/h
1478 02-05-2019 03:05:00 7.9 C 7.72 g/m*3 7.9 C 0 km/h
1479 02-05-2019 03:10:00 7.9 C 7.64 g/m*3 7.9 C 0 km/h
1480 02-05-2019 03:15:00 7.9 C 7.64 g/m*3 7.9 C 0 km/h
1481 02-05-2019 03:20:00 7.9 C 7.72 g/m*3 7.9 C 0 km/h
1482 02-05-2019 03:25:00 7.8 C 7.67 g/m*3 7.8 C 0 km/h
1483 02-05-2019 03:30:00 7.8 C 7.67 g/m*3 7.8 C 0 km/h
1484 02-05-2019 03:35:00 7.7 C 7.62 g/m*3 7.7 C 0 km/h
1485 02-05-2019 03:40:00 7.6 C 7.49 g/m*3 7.6 C 0 km/h
1486 02-05-2019 03:45:00 7.5 C 7.44 g/m*3 7.5 C 0 km/h
1487 02-05-2019 03:50:00 7.4 C 7.48 g/m*3 7.4 C 0 km/h
1488 02-05-2019 03:55:00 7.4 C 7.48 g/m*3 7.4 C 0 km/h
1489 02-05-2019 04:00:00 7.3 C 7.43 g/m*3 7.3 C 0 km/h
1490 02-05-2019 04:05:00 7.3 C 7.43 g/m*3 7.3 C 0 km/h
1491 02-05-2019 04:10:00 7.2 C 7.38 g/m*3 7.2 C 0 km/h
1492 02-05-2019 04:15:00 7.2 C 7.38 g/m*3 7.2 C 0 km/h
1493 02-05-2019 04:20:00 7.1 C 7.33 g/m*3 7.1 C 0 km/h
1494 02-05-2019 04:25:00 7.1 C 7.33 g/m*3 7.1 C 0 km/h
1495 02-05-2019 04:30:00 7 C 7.28 g/m*3 7 C 0 km/h
1496 02-05-2019 04:35:00 6.9 C 7.24 g/m*3 6.9 C 0 km/h
1497 02-05-2019 04:40:00 6.9 C 7.24 g/m*3 6.9 C 0 km/h
1498 02-05-2019 04:45:00 6.8 C 7.19 g/m*3 6.8 C 0 km/h
1499 02-05-2019 04:50:00 6.8 C 7.19 g/m*3 6.8 C 0 km/h
1500 02-05-2019 04:55:00 6.7 C 7.14 g/m*3 6.7 C 0 km/h
Sensor: Nr:Datum:Temp:Abs-Feuchte:Windchill:Wind:
Aussen-T/F 1501 02-05-2019 05:00:00 6.6 C 7.1 g/m*3 6.6 C 0 km/h
1502 02-05-2019 05:05:00 6.6 C 7.1 g/m*3 6.6 C 0 km/h
1503 02-05-2019 05:10:00 6.6 C 7.1 g/m*3 6.6 C 0 km/h
1504 02-05-2019 05:15:00 6.4 C 7 g/m*3 6.4 C 0 km/h
1505 02-05-2019 05:20:00 6.4 C 7 g/m*3 6.4 C 0 km/h
1506 02-05-2019 05:25:00 6.3 C 6.96 g/m*3 6.3 C 0 km/h
1507 02-05-2019 05:30:00 6.3 C 6.96 g/m*3 6.3 C 0 km/h
1508 02-05-2019 05:35:00 6.2 C 6.91 g/m*3 6.2 C 0 km/h
1509 02-05-2019 05:40:00 6.2 C 6.99 g/m*3 6.2 C 0 km/h
1510 02-05-2019 05:45:00 6.1 C 6.94 g/m*3 6.1 C 0 km/h
1511 02-05-2019 05:50:00 6.1 C 6.87 g/m*3 6.1 C 0 km/h
1512 02-05-2019 05:55:00 6.1 C 6.94 g/m*3 6.1 C 0 km/h
1513 02-05-2019 06:00:00 6.1 C 6.94 g/m*3 6.1 C 0 km/h
1514 02-05-2019 06:05:00 6 C 6.9 g/m*3 6 C 0 km/h
1515 02-05-2019 06:10:00 5.9 C 6.85 g/m*3 5.9 C 0 km/h
1516 02-05-2019 06:15:00 5.9 C 6.85 g/m*3 5.9 C 0 km/h
1517 02-05-2019 06:20:00 5.8 C 6.81 g/m*3 5.8 C 0 km/h
1518 02-05-2019 06:25:00 5.8 C 6.81 g/m*3 5.8 C 0 km/h
1519 02-05-2019 06:30:00 5.8 C 6.81 g/m*3 5.8 C 0 km/h
1520 02-05-2019 06:35:00 5.8 C 6.81 g/m*3 5.8 C 0 km/h
1521 02-05-2019 06:40:00 5.8 C 6.81 g/m*3 5.8 C 0 km/h
1522 02-05-2019 06:45:00 5.9 C 6.85 g/m*3 5.9 C 0 km/h
1523 02-05-2019 06:50:00 5.9 C 6.85 g/m*3 5.9 C 0 km/h
1524 02-05-2019 06:55:00 6 C 6.9 g/m*3 6 C 0 km/h
1525 02-05-2019 07:00:00 6.1 C 7.01 g/m*3 6.1 C 0 km/h
Sensor: Nr:Datum:Temp:Abs-Feuchte:Windchill:Wind:
Aussen-T/F 1526 02-05-2019 07:05:00 6.2 C 7.06 g/m*3 6.2 C 0 km/h
1527 02-05-2019 07:10:00 6.4 C 7.15 g/m*3 6.4 C 0 km/h
1528 02-05-2019 07:15:00 6.6 C 7.25 g/m*3 6.6 C 0 km/h
1529 02-05-2019 07:20:00 6.7 C 7.29 g/m*3 6.7 C 0 km/h
1530 02-05-2019 07:25:00 6.8 C 7.34 g/m*3 6.8 C 0 km/h
1531 02-05-2019 07:30:00 6.9 C 7.39 g/m*3 6.9 C 0 km/h
1532 02-05-2019 07:35:00 7.1 C 7.49 g/m*3 7.1 C 3.2 km/h
1533 02-05-2019 07:40:00 7.1 C 7.49 g/m*3 7.1 C 1.6 km/h
1534 02-05-2019 07:45:00 7.2 C 7.54 g/m*3 7.2 C 0 km/h
1535 02-05-2019 07:50:00 7.4 C 7.63 g/m*3 7.4 C 3.2 km/h
1536 02-05-2019 07:55:00 7.6 C 7.73 g/m*3 7.6 C 1.6 km/h
1537 02-05-2019 08:00:00 7.7 C 7.78 g/m*3 7.7 C 1.6 km/h
1538 02-05-2019 08:05:00 7.8 C 7.83 g/m*3 7.8 C 0 km/h
1539 02-05-2019 08:10:00 7.9 C 7.89 g/m*3 7.9 C 3.2 km/h
1540 02-05-2019 08:15:00 8.1 C 7.99 g/m*3 8.1 C 0 km/h
1541 02-05-2019 08:20:00 8.3 C 8.09 g/m*3 8.3 C 0 km/h
1542 02-05-2019 08:25:00 8.4 C 8.14 g/m*3 7.52 C 6.4 km/h
1543 02-05-2019 08:30:00 8.6 C 8.25 g/m*3 8.6 C 3.2 km/h
1544 02-05-2019 08:35:00 8.6 C 8.25 g/m*3 8.6 C 4.8 km/h
1545 02-05-2019 08:40:00 8.7 C 8.3 g/m*3 8.7 C 1.6 km/h
1546 02-05-2019 08:45:00 8.6 C 8.16 g/m*3 8.6 C 4.8 km/h
1547 02-05-2019 08:50:00 8.6 C 8.16 g/m*3 8.6 C 0 km/h
1548 02-05-2019 08:55:00 8.6 C 8.16 g/m*3 8.6 C 0 km/h
1549 02-05-2019 09:00:00 8.7 C 8.22 g/m*3 8.7 C 0 km/h
1550 02-05-2019 09:05:00 8.7 C 8.13 g/m*3 8.7 C 0 km/h
Sensor: Nr:Datum:Temp:Abs-Feuchte:Windchill:Wind:
Aussen-T/F 1551 02-05-2019 09:10:00 8.8 C 8.27 g/m*3 8.8 C 0 km/h
1552 02-05-2019 09:15:00 8.9 C 8.23 g/m*3 8.9 C 4.8 km/h
1553 02-05-2019 09:20:00 8.9 C 8.15 g/m*3 8.9 C 4.8 km/h
1554 02-05-2019 09:25:00 9 C 8.2 g/m*3 9 C 1.6 km/h
1555 02-05-2019 09:30:00 9.1 C 8.16 g/m*3 9.1 C 1.6 km/h
1556 02-05-2019 09:35:00 9.2 C 8.22 g/m*3 9.2 C 1.6 km/h
1557 02-05-2019 09:40:00 9.2 C 8.13 g/m*3 9.2 C 1.6 km/h
1558 02-05-2019 09:45:00 9.3 C 8.09 g/m*3 9.3 C 0 km/h
1559 02-05-2019 09:50:00 9.4 C 8.14 g/m*3 9.4 C 1.6 km/h
1560 02-05-2019 09:55:00 9.7 C 8.2 g/m*3 9.7 C 3.2 km/h
1561 02-05-2019 10:00:00 9.9 C 8.22 g/m*3 9.9 C 1.6 km/h
1562 02-05-2019 10:05:00 10.2 C 8.28 g/m*3 10.2 C 1.6 km/h
1563 02-05-2019 10:10:00 10.3 C 8.14 g/m*3 10.3 C 3.2 km/h
1564 02-05-2019 10:15:00 10.4 C 8.19 g/m*3 10.4 C 3.2 km/h
1565 02-05-2019 10:20:00 10.6 C 8.1 g/m*3 10.6 C 1.6 km/h
1566 02-05-2019 10:25:00 10.6 C 8 g/m*3 10.6 C 3.2 km/h
1567 02-05-2019 10:30:00 10.8 C 8.01 g/m*3 10.29 C 6.4 km/h
1568 02-05-2019 10:35:00 10.9 C 7.96 g/m*3 10.9 C 1.6 km/h
1569 02-05-2019 10:40:00 11 C 8.21 g/m*3 10.52 C 6.4 km/h
1570 02-05-2019 10:45:00 11.2 C 8.11 g/m*3 11.2 C 0 km/h
1571 02-05-2019 10:50:00 11.3 C 8.06 g/m*3 11.3 C 3.2 km/h
1572 02-05-2019 10:55:00 11.5 C 8.16 g/m*3 11.5 C 6.4 km/h
1573 02-05-2019 11:00:00 11.7 C 8.16 g/m*3 11.7 C 6.4 km/h
1574 02-05-2019 11:05:00 11.8 C 8.31 g/m*3 11.8 C 3.2 km/h
1575 02-05-2019 11:10:00 11.9 C 8.15 g/m*3 11.9 C 8.1 km/h
Sensor: Nr:Datum:Temp:Abs-Feuchte:Windchill:Wind:
Aussen-T/F 1576 02-05-2019 11:15:00 12.1 C 8.36 g/m*3 12.1 C 6.4 km/h
1577 02-05-2019 11:20:00 12.2 C 8.31 g/m*3 12.2 C 4.8 km/h
1578 02-05-2019 11:25:00 12.2 C 8.31 g/m*3 12.2 C 4.8 km/h
1579 02-05-2019 11:30:00 12.3 C 8.14 g/m*3 12.3 C 4.8 km/h
1580 02-05-2019 11:35:00 12.3 C 8.25 g/m*3 12.3 C 3.2 km/h
1581 02-05-2019 11:40:00 12.3 C 8.25 g/m*3 12.3 C 4.8 km/h
1582 02-05-2019 11:45:00 12.4 C 8.19 g/m*3 12.4 C 3.2 km/h
1583 02-05-2019 11:50:00 12.3 C 8.14 g/m*3 12.3 C 8.1 km/h
1584 02-05-2019 11:55:00 12.4 C 8.3 g/m*3 12.4 C 4.8 km/h
1585 02-05-2019 12:00:00 12.4 C 8.19 g/m*3 12.4 C 6.4 km/h
1586 02-05-2019 12:05:00 12.5 C 8.14 g/m*3 12.5 C 4.8 km/h
1587 02-05-2019 12:10:00 12.5 C 8.25 g/m*3 12.5 C 4.8 km/h
1588 02-05-2019 12:15:00 12.7 C 8.46 g/m*3 12.7 C 4.8 km/h
1589 02-05-2019 12:20:00 12.8 C 8.29 g/m*3 12.8 C 3.2 km/h
1590 02-05-2019 12:25:00 12.9 C 8.34 g/m*3 12.9 C 9.7 km/h
1591 02-05-2019 12:30:00 12.9 C 8.34 g/m*3 12.9 C 9.7 km/h
1592 02-05-2019 12:35:00 13 C 8.51 g/m*3 13 C 8.1 km/h
1593 02-05-2019 12:40:00 13.2 C 8.5 g/m*3 13.2 C 9.7 km/h
1594 02-05-2019 12:45:00 13.3 C 8.43 g/m*3 13.3 C 6.4 km/h
1595 02-05-2019 12:50:00 13.4 C 8.37 g/m*3 13.4 C 8.1 km/h
1596 02-05-2019 12:55:00 13.5 C 8.42 g/m*3 13.5 C 8.1 km/h
1597 02-05-2019 13:00:00 13.5 C 8.3 g/m*3 13.5 C 8.1 km/h
1598 02-05-2019 13:05:00 13.6 C 8.36 g/m*3 13.6 C 8.1 km/h
1599 02-05-2019 13:10:00 13.7 C 8.53 g/m*3 13.7 C 4.8 km/h
1600 02-05-2019 13:15:00 13.9 C 8.39 g/m*3 13.9 C 8.1 km/h
Sensor: Nr:Datum:Temp:Abs-Feuchte:Windchill:Wind:
Aussen-T/F 1601 02-05-2019 13:20:00 14.1 C 8.5 g/m*3 14.1 C 6.4 km/h
1602 02-05-2019 13:25:00 14.2 C 8.43 g/m*3 14.2 C 6.4 km/h
1603 02-05-2019 13:30:00 14.3 C 8.48 g/m*3 14.3 C 11.3 km/h
1604 02-05-2019 13:35:00 14.3 C 8.35 g/m*3 14.3 C 8.1 km/h
1605 02-05-2019 13:40:00 14.3 C 8.48 g/m*3 14.3 C 8.1 km/h
1606 02-05-2019 13:45:00 14.5 C 8.46 g/m*3 14.5 C 8.1 km/h
1607 02-05-2019 13:50:00 14.6 C 8.51 g/m*3 14.6 C 6.4 km/h
1608 02-05-2019 13:55:00 14.8 C 8.74 g/m*3 14.8 C 3.2 km/h
1609 02-05-2019 14:00:00 14.9 C 8.67 g/m*3 14.9 C 4.8 km/h
1610 02-05-2019 14:05:00 15.2 C 8.7 g/m*3 15.2 C 6.4 km/h
1611 02-05-2019 14:10:00 15.3 C 8.62 g/m*3 15.3 C 4.8 km/h
1612 02-05-2019 14:15:00 15.4 C 8.54 g/m*3 15.4 C 6.4 km/h
1613 02-05-2019 14:20:00 15.6 C 8.64 g/m*3 15.6 C 8.1 km/h
1614 02-05-2019 14:25:00 15.7 C 8.7 g/m*3 15.7 C 6.4 km/h
1615 02-05-2019 14:30:00 15.8 C 8.75 g/m*3 15.8 C 6.4 km/h
1616 02-05-2019 14:35:00 16 C 8.99 g/m*3 16 C 3.2 km/h
1617 02-05-2019 14:40:00 16.3 C 9.16 g/m*3 16.3 C 9.7 km/h
1618 02-05-2019 14:45:00 16.6 C 9.04 g/m*3 16.6 C 12.9 km/h
1619 02-05-2019 14:50:00 16.7 C 8.81 g/m*3 16.7 C 8.1 km/h
1620 02-05-2019 14:55:00 16.7 C 9.1 g/m*3 16.7 C 6.4 km/h
1621 02-05-2019 15:00:00 16.7 C 8.81 g/m*3 16.7 C 11.3 km/h
1622 02-05-2019 15:05:00 16.7 C 8.81 g/m*3 16.7 C 8.1 km/h
1623 02-05-2019 15:10:00 16.7 C 9.1 g/m*3 16.7 C 6.4 km/h
1624 02-05-2019 15:15:00 16.6 C 8.76 g/m*3 16.6 C 12.9 km/h
1625 02-05-2019 15:20:00 16.4 C 8.51 g/m*3 16.4 C 8.1 km/h
Sensor: Nr:Datum:Temp:Abs-Feuchte:Windchill:Wind:
Aussen-T/F 1626 02-05-2019 15:25:00 16.3 C 8.6 g/m*3 16.3 C 11.3 km/h
1627 02-05-2019 15:30:00 16.4 C 8.65 g/m*3 16.4 C 8.1 km/h
1628 02-05-2019 15:35:00 16.4 C 8.51 g/m*3 16.4 C 9.7 km/h
1629 02-05-2019 15:40:00 16.7 C 8.53 g/m*3 16.7 C 8.1 km/h
1630 02-05-2019 15:45:00 16.8 C 8.58 g/m*3 16.8 C 11.3 km/h
1631 02-05-2019 15:50:00 16.7 C 8.38 g/m*3 16.7 C 12.9 km/h
1632 02-05-2019 15:55:00 16.6 C 8.19 g/m*3 16.6 C 8.1 km/h
1633 02-05-2019 16:00:00 16.5 C 8.28 g/m*3 16.5 C 8.1 km/h
1634 02-05-2019 16:05:00 16.6 C 8.48 g/m*3 16.6 C 6.4 km/h
1635 02-05-2019 16:10:00 16.7 C 8.53 g/m*3 16.7 C 6.4 km/h
1636 02-05-2019 16:15:00 16.8 C 8.29 g/m*3 16.8 C 8.1 km/h
1637 02-05-2019 16:20:00 16.9 C 8.49 g/m*3 16.9 C 4.8 km/h
1638 02-05-2019 16:25:00 17.1 C 8.59 g/m*3 17.1 C 4.8 km/h
1639 02-05-2019 16:30:00 17.4 C 8.74 g/m*3 17.4 C 8.1 km/h
1640 02-05-2019 16:35:00 18.1 C 8.96 g/m*3 18.1 C 9.7 km/h
1641 02-05-2019 16:40:00 18.3 C 8.6 g/m*3 18.3 C 17.7 km/h
1642 02-05-2019 16:45:00 18 C 8.91 g/m*3 18 C 9.7 km/h
1643 02-05-2019 16:50:00 17.2 C 8.05 g/m*3 17.2 C 12.9 km/h
1644 02-05-2019 16:55:00 17.1 C 8.15 g/m*3 17.1 C 9.7 km/h
1645 02-05-2019 17:00:00 17.4 C 8.15 g/m*3 17.4 C 8.1 km/h
1646 02-05-2019 17:05:00 17.6 C 8.1 g/m*3 17.6 C 8.1 km/h
1647 02-05-2019 17:10:00 17.6 C 7.8 g/m*3 17.6 C 9.7 km/h
1648 02-05-2019 17:15:00 17.4 C 7.71 g/m*3 17.4 C 9.7 km/h
1649 02-05-2019 17:20:00 17.3 C 7.96 g/m*3 17.3 C 8.1 km/h
1650 02-05-2019 17:25:00 17.6 C 8.1 g/m*3 17.6 C 11.3 km/h
Sensor: Nr:Datum:Temp:Abs-Feuchte:Windchill:Wind:
Aussen-T/F 1651 02-05-2019 17:30:00 17.7 C 7.85 g/m*3 17.7 C 9.7 km/h
1652 02-05-2019 17:35:00 17.6 C 7.65 g/m*3 17.6 C 6.4 km/h
1653 02-05-2019 17:40:00 17.7 C 7.69 g/m*3 17.7 C 6.4 km/h
1654 02-05-2019 17:45:00 18.1 C 7.73 g/m*3 18.1 C 9.7 km/h
1655 02-05-2019 17:50:00 18.4 C 7.39 g/m*3 18.4 C 12.9 km/h
1656 02-05-2019 17:55:00 18.6 C 7.32 g/m*3 18.6 C 11.3 km/h
1657 02-05-2019 18:00:00 18.4 C 7.39 g/m*3 18.4 C 9.7 km/h
1658 02-05-2019 18:05:00 18.5 C 7.28 g/m*3 18.5 C 9.7 km/h
1659 02-05-2019 18:10:00 18.4 C 7.24 g/m*3 18.4 C 12.9 km/h
1660 02-05-2019 18:15:00 18.4 C 7.24 g/m*3 18.4 C 11.3 km/h
1661 02-05-2019 18:20:00 18.3 C 7.35 g/m*3 18.3 C 8.1 km/h
1662 02-05-2019 18:25:00 18.1 C 7.11 g/m*3 18.1 C 11.3 km/h
1663 02-05-2019 18:30:00 17.8 C 7.13 g/m*3 17.8 C 9.7 km/h
1664 02-05-2019 18:35:00 17.7 C 7.09 g/m*3 17.7 C 8.1 km/h
1665 02-05-2019 18:40:00 17.6 C 7.2 g/m*3 17.6 C 8.1 km/h
1666 02-05-2019 18:45:00 17.5 C 7.16 g/m*3 17.5 C 9.7 km/h
1667 02-05-2019 18:50:00 17.5 C 7.01 g/m*3 17.5 C 6.4 km/h
1668 02-05-2019 18:55:00 17.4 C 6.97 g/m*3 17.4 C 8.1 km/h
1669 02-05-2019 19:00:00 17.3 C 7.07 g/m*3 17.3 C 9.7 km/h
1670 02-05-2019 19:05:00 17 C 6.95 g/m*3 17 C 12.9 km/h
1671 02-05-2019 19:10:00 16.7 C 7.11 g/m*3 16.7 C 8.1 km/h
1672 02-05-2019 19:15:00 16.4 C 7.82 g/m*3 16.4 C 16.1 km/h
1673 02-05-2019 19:20:00 15.9 C 8.13 g/m*3 15.9 C 16.1 km/h
1674 02-05-2019 19:25:00 15.4 C 8.28 g/m*3 15.4 C 17.7 km/h
1675 02-05-2019 19:30:00 15.1 C 8.39 g/m*3 15.1 C 9.7 km/h
Sensor: Nr:Datum:Temp:Abs-Feuchte:Windchill:Wind:
Aussen-T/F 1676 02-05-2019 19:35:00 14.9 C 8.41 g/m*3 14.9 C 9.7 km/h
1677 02-05-2019 19:40:00 14.7 C 8.31 g/m*3 14.7 C 12.9 km/h
1678 02-05-2019 19:45:00 14.6 C 8.26 g/m*3 14.6 C 14.5 km/h
1679 02-05-2019 19:50:00 14.4 C 8.28 g/m*3 14.4 C 14.5 km/h
1680 02-05-2019 19:55:00 14.1 C 8.25 g/m*3 14.1 C 12.9 km/h
1681 02-05-2019 20:00:00 13.8 C 8.22 g/m*3 13.8 C 12.9 km/h
1682 02-05-2019 20:05:00 13.5 C 8.3 g/m*3 13.5 C 16.1 km/h
1683 02-05-2019 20:10:00 13.3 C 8.55 g/m*3 13.3 C 9.7 km/h
1684 02-05-2019 20:15:00 13.1 C 8.56 g/m*3 13.1 C 6.4 km/h
1685 02-05-2019 20:20:00 12.9 C 8.57 g/m*3 12.9 C 12.9 km/h
1686 02-05-2019 20:25:00 12.7 C 8.57 g/m*3 12.7 C 6.4 km/h
1687 02-05-2019 20:30:00 12.6 C 8.63 g/m*3 12.6 C 3.2 km/h
1688 02-05-2019 20:35:00 12.5 C 8.69 g/m*3 12.5 C 4.8 km/h
1689 02-05-2019 20:40:00 12.4 C 8.74 g/m*3 12.4 C 6.4 km/h
1690 02-05-2019 20:45:00 12.3 C 8.8 g/m*3 12.3 C 4.8 km/h
1691 02-05-2019 20:50:00 12.2 C 8.74 g/m*3 12.2 C 3.2 km/h
1692 02-05-2019 20:55:00 12.1 C 8.79 g/m*3 12.1 C 11.3 km/h
1693 02-05-2019 21:00:00 12 C 8.85 g/m*3 12 C 0 km/h
1694 02-05-2019 21:05:00 11.9 C 9 g/m*3 11.9 C 0 km/h
1695 02-05-2019 21:10:00 11.8 C 9.16 g/m*3 11.8 C 0 km/h
1696 02-05-2019 21:15:00 11.7 C 9.2 g/m*3 11.7 C 0 km/h
1697 02-05-2019 21:20:00 11.6 C 9.15 g/m*3 11.6 C 0 km/h
1698 02-05-2019 21:25:00 11.4 C 9.14 g/m*3 11.4 C 0 km/h
1699 02-05-2019 21:30:00 11.3 C 9.08 g/m*3 11.3 C 1.6 km/h
1700 02-05-2019 21:35:00 11.2 C 9.12 g/m*3 11.2 C 1.6 km/h
Sensor: Nr:Datum:Temp:Abs-Feuchte:Windchill:Wind:
Aussen-T/F 1701 02-05-2019 21:40:00 11.2 C 9.12 g/m*3 11.2 C 0 km/h
1702 02-05-2019 21:45:00 11.1 C 9.17 g/m*3 11.1 C 1.6 km/h
1703 02-05-2019 21:50:00 11.1 C 9.17 g/m*3 11.1 C 0 km/h
1704 02-05-2019 21:55:00 11 C 9.11 g/m*3 11 C 0 km/h
1705 02-05-2019 22:00:00 10.9 C 9.05 g/m*3 10.9 C 3.2 km/h
1706 02-05-2019 22:05:00 10.8 C 8.9 g/m*3 10.8 C 3.2 km/h
1707 02-05-2019 22:10:00 10.8 C 8.99 g/m*3 10.8 C 3.2 km/h
1708 02-05-2019 22:15:00 10.8 C 8.99 g/m*3 10.8 C 4.8 km/h
1709 02-05-2019 22:20:00 10.8 C 8.99 g/m*3 10.8 C 0 km/h
1710 02-05-2019 22:25:00 10.8 C 8.99 g/m*3 10.8 C 4.8 km/h
1711 02-05-2019 22:30:00 10.7 C 8.94 g/m*3 10.7 C 0 km/h
1712 02-05-2019 22:35:00 10.7 C 8.94 g/m*3 10.7 C 1.6 km/h
1713 02-05-2019 22:40:00 10.7 C 8.94 g/m*3 10.7 C 0 km/h
1714 02-05-2019 22:45:00 10.7 C 8.94 g/m*3 10.7 C 4.8 km/h
1715 02-05-2019 22:50:00 10.7 C 8.94 g/m*3 10.7 C 4.8 km/h
1716 02-05-2019 22:55:00 10.7 C 8.94 g/m*3 10.7 C 4.8 km/h
1717 02-05-2019 23:00:00 10.7 C 8.94 g/m*3 10.7 C 1.6 km/h
1718 02-05-2019 23:05:00 10.7 C 8.94 g/m*3 10.7 C 0 km/h
1719 02-05-2019 23:10:00 10.7 C 8.94 g/m*3 10.7 C 3.2 km/h
1720 02-05-2019 23:15:00 10.7 C 8.94 g/m*3 10.7 C 0 km/h
1721 02-05-2019 23:20:00 10.7 C 9.04 g/m*3 10.7 C 0 km/h
1722 02-05-2019 23:25:00 10.7 C 9.04 g/m*3 10.7 C 0 km/h
1723 02-05-2019 23:30:00 10.7 C 9.04 g/m*3 10.7 C 0 km/h
1724 02-05-2019 23:35:00 10.7 C 9.04 g/m*3 10.7 C 0 km/h
1725 02-05-2019 23:40:00 10.7 C 9.04 g/m*3 10.7 C 0 km/h
Sensor: Nr:Datum:Temp:Abs-Feuchte:Windchill:Wind:
Aussen-T/F 1726 02-05-2019 23:45:00 10.7 C 9.04 g/m*3 10.7 C 1.6 km/h
1727 02-05-2019 23:50:00 10.7 C 9.04 g/m*3 10.7 C 0 km/h
1728 02-05-2019 23:55:00 10.7 C 9.13 g/m*3 10.7 C 0 km/h
1729 03-05-2019 00:00:00 10.6 C 9.08 g/m*3 10.6 C 0 km/h
1730 03-05-2019 00:05:00 10.6 C 9.08 g/m*3 10.6 C 4.8 km/h
1731 03-05-2019 00:10:00 10.6 C 9.08 g/m*3 10.6 C 0 km/h
1732 03-05-2019 00:15:00 10.6 C 9.08 g/m*3 10.6 C 0 km/h
1733 03-05-2019 00:20:00 10.6 C 9.08 g/m*3 10.6 C 0 km/h
1734 03-05-2019 00:25:00 10.6 C 9.08 g/m*3 10.6 C 1.6 km/h
1735 03-05-2019 00:30:00 10.6 C 9.08 g/m*3 10.6 C 0 km/h
1736 03-05-2019 00:35:00 10.6 C 8.98 g/m*3 10.06 C 6.4 km/h
1737 03-05-2019 00:40:00 10.6 C 8.98 g/m*3 10.06 C 6.4 km/h
1738 03-05-2019 00:45:00 10.6 C 8.88 g/m*3 10.06 C 6.4 km/h
1739 03-05-2019 00:50:00 10.6 C 8.88 g/m*3 10.6 C 4.8 km/h
1740 03-05-2019 00:55:00 10.6 C 8.88 g/m*3 10.6 C 4.8 km/h
1741 03-05-2019 01:00:00 10.6 C 8.78 g/m*3 10.6 C 3.2 km/h
1742 03-05-2019 01:05:00 10.7 C 8.84 g/m*3 9.81 C 8.1 km/h
1743 03-05-2019 01:10:00 10.6 C 8.69 g/m*3 9.69 C 8.1 km/h
1744 03-05-2019 01:15:00 10.6 C 8.59 g/m*3 8.71 C 14.5 km/h
1745 03-05-2019 01:20:00 10.6 C 8.49 g/m*3 8.71 C 14.5 km/h
1746 03-05-2019 01:25:00 10.6 C 8.49 g/m*3 9.69 C 8.1 km/h
1747 03-05-2019 01:30:00 10.6 C 8.39 g/m*3 9.4 C 9.7 km/h
1748 03-05-2019 01:35:00 10.5 C 8.34 g/m*3 9.57 C 8.1 km/h
1749 03-05-2019 01:40:00 10.4 C 8.19 g/m*3 9.46 C 8.1 km/h
1750 03-05-2019 01:45:00 10.4 C 8.19 g/m*3 10.4 C 3.2 km/h
Sensor: Nr:Datum:Temp:Abs-Feuchte:Windchill:Wind:
Aussen-T/F 1751 03-05-2019 01:50:00 10.3 C 8.04 g/m*3 8.78 C 11.3 km/h
1752 03-05-2019 01:55:00 10.3 C 7.95 g/m*3 9.04 C 9.7 km/h
1753 03-05-2019 02:00:00 10.3 C 7.95 g/m*3 9.72 C 6.4 km/h
1754 03-05-2019 02:05:00 10.2 C 7.9 g/m*3 9.22 C 8.1 km/h
1755 03-05-2019 02:10:00 10.1 C 7.85 g/m*3 8.54 C 11.3 km/h
1756 03-05-2019 02:15:00 9.9 C 7.75 g/m*3 8.87 C 8.1 km/h
1757 03-05-2019 02:20:00 9.8 C 7.79 g/m*3 8.75 C 8.1 km/h
1758 03-05-2019 02:25:00 9.8 C 7.79 g/m*3 8.75 C 8.1 km/h
1759 03-05-2019 02:30:00 9.8 C 7.89 g/m*3 9.8 C 1.6 km/h
1760 03-05-2019 02:35:00 9.7 C 7.84 g/m*3 9.7 C 1.6 km/h
1761 03-05-2019 02:40:00 9.7 C 7.84 g/m*3 9.7 C 0 km/h
1762 03-05-2019 02:45:00 9.7 C 7.84 g/m*3 9.7 C 1.6 km/h
1763 03-05-2019 02:50:00 9.6 C 7.79 g/m*3 7.48 C 14.5 km/h
1764 03-05-2019 02:55:00 9.6 C 7.79 g/m*3 9.6 C 1.6 km/h
1765 03-05-2019 03:00:00 9.5 C 7.74 g/m*3 9.5 C 4.8 km/h
1766 03-05-2019 03:05:00 9.5 C 7.74 g/m*3 9.5 C 4.8 km/h
1767 03-05-2019 03:10:00 9.4 C 7.69 g/m*3 9.4 C 3.2 km/h
1768 03-05-2019 03:15:00 9.4 C 7.69 g/m*3 7.97 C 9.7 km/h
1769 03-05-2019 03:20:00 9.4 C 7.78 g/m*3 9.4 C 0 km/h
1770 03-05-2019 03:25:00 9.4 C 7.78 g/m*3 9.4 C 1.6 km/h
1771 03-05-2019 03:30:00 9.4 C 7.78 g/m*3 9.4 C 1.6 km/h
1772 03-05-2019 03:35:00 9.3 C 7.73 g/m*3 9.3 C 4.8 km/h
1773 03-05-2019 03:40:00 9.3 C 7.73 g/m*3 9.3 C 1.6 km/h
1774 03-05-2019 03:45:00 9.3 C 7.73 g/m*3 9.3 C 0 km/h
1775 03-05-2019 03:50:00 9.3 C 7.73 g/m*3 9.3 C 0 km/h
Sensor: Nr:Datum:Temp:Abs-Feuchte:Windchill:Wind:
Aussen-T/F 1776 03-05-2019 03:55:00 9.3 C 7.82 g/m*3 9.3 C 0 km/h
1777 03-05-2019 04:00:00 9.3 C 7.82 g/m*3 9.3 C 0 km/h
1778 03-05-2019 04:05:00 9.2 C 7.77 g/m*3 9.2 C 0 km/h
1779 03-05-2019 04:10:00 9.2 C 7.77 g/m*3 9.2 C 0 km/h
1780 03-05-2019 04:15:00 9.2 C 7.77 g/m*3 9.2 C 0 km/h
1781 03-05-2019 04:20:00 9.2 C 7.86 g/m*3 9.2 C 0 km/h
1782 03-05-2019 04:25:00 9.2 C 7.86 g/m*3 9.2 C 0 km/h
1783 03-05-2019 04:30:00 9.1 C 7.81 g/m*3 9.1 C 0 km/h
1784 03-05-2019 04:35:00 9.1 C 7.81 g/m*3 9.1 C 0 km/h
1785 03-05-2019 04:40:00 9.1 C 7.81 g/m*3 9.1 C 3.2 km/h
1786 03-05-2019 04:45:00 9.1 C 7.81 g/m*3 9.1 C 0 km/h
1787 03-05-2019 04:50:00 9.1 C 7.81 g/m*3 9.1 C 3.2 km/h
1788 03-05-2019 04:55:00 9.2 C 7.86 g/m*3 9.2 C 0 km/h
1789 03-05-2019 05:00:00 9.2 C 7.86 g/m*3 9.2 C 3.2 km/h
1790 03-05-2019 05:05:00 9.2 C 7.86 g/m*3 9.2 C 1.6 km/h
1791 03-05-2019 05:10:00 9.3 C 7.91 g/m*3 8.56 C 6.4 km/h
1792 03-05-2019 05:15:00 9.3 C 7.91 g/m*3 8.56 C 6.4 km/h
1793 03-05-2019 05:20:00 9.3 C 7.91 g/m*3 8.56 C 6.4 km/h
1794 03-05-2019 05:25:00 9.3 C 7.91 g/m*3 9.3 C 0 km/h
1795 03-05-2019 05:30:00 9.3 C 7.91 g/m*3 9.3 C 1.6 km/h
1796 03-05-2019 05:35:00 9.3 C 7.91 g/m*3 9.3 C 3.2 km/h
1797 03-05-2019 05:40:00 9.3 C 7.91 g/m*3 9.3 C 1.6 km/h
1798 03-05-2019 05:45:00 9.3 C 7.91 g/m*3 9.3 C 3.2 km/h
1799 03-05-2019 05:50:00 9.3 C 7.91 g/m*3 9.3 C 4.8 km/h
1800 03-05-2019 05:55:00 9.3 C 7.91 g/m*3 9.3 C 3.2 km/h
Sensor: Nr:Datum:Temp:Abs-Feuchte:Windchill:Wind:
Aussen-T/F 1801 03-05-2019 06:00:00 9.3 C 7.91 g/m*3 9.3 C 0 km/h
1802 03-05-2019 06:05:00 9.3 C 7.91 g/m*3 8.56 C 6.4 km/h
1803 03-05-2019 06:10:00 9.3 C 7.91 g/m*3 9.3 C 3.2 km/h
1804 03-05-2019 06:15:00 9.2 C 7.86 g/m*3 9.2 C 4.8 km/h
1805 03-05-2019 06:20:00 9.2 C 7.86 g/m*3 9.2 C 1.6 km/h
1806 03-05-2019 06:25:00 9.2 C 7.86 g/m*3 9.2 C 3.2 km/h
1807 03-05-2019 06:30:00 9.2 C 7.77 g/m*3 8.45 C 6.4 km/h
1808 03-05-2019 06:35:00 9.2 C 7.77 g/m*3 8.05 C 8.1 km/h
1809 03-05-2019 06:40:00 9.2 C 7.77 g/m*3 9.2 C 1.6 km/h
1810 03-05-2019 06:45:00 9.3 C 7.91 g/m*3 9.3 C 1.6 km/h
1811 03-05-2019 06:50:00 9.3 C 7.91 g/m*3 9.3 C 1.6 km/h
1812 03-05-2019 06:55:00 9.3 C 7.91 g/m*3 9.3 C 3.2 km/h
1813 03-05-2019 07:00:00 9.2 C 7.86 g/m*3 9.2 C 1.6 km/h
1814 03-05-2019 07:05:00 9.2 C 7.77 g/m*3 9.2 C 4.8 km/h
1815 03-05-2019 07:10:00 9.2 C 7.77 g/m*3 9.2 C 4.8 km/h
1816 03-05-2019 07:15:00 9.2 C 7.68 g/m*3 8.45 C 6.4 km/h
1817 03-05-2019 07:20:00 9.2 C 7.68 g/m*3 9.2 C 4.8 km/h
1818 03-05-2019 07:25:00 9.3 C 7.73 g/m*3 8.16 C 8.1 km/h
1819 03-05-2019 07:30:00 9.2 C 7.59 g/m*3 8.05 C 8.1 km/h
1820 03-05-2019 07:35:00 9.3 C 7.64 g/m*3 9.3 C 0 km/h
1821 03-05-2019 07:40:00 9.3 C 7.64 g/m*3 7.85 C 9.7 km/h
1822 03-05-2019 07:45:00 9.3 C 7.64 g/m*3 8.16 C 8.1 km/h
1823 03-05-2019 07:50:00 9.3 C 7.55 g/m*3 8.56 C 6.4 km/h
1824 03-05-2019 07:55:00 9.3 C 7.55 g/m*3 9.3 C 4.8 km/h
1825 03-05-2019 08:00:00 9.4 C 7.69 g/m*3 9.4 C 0 km/h
Sensor: Nr:Datum:Temp:Abs-Feuchte:Windchill:Wind:
Aussen-T/F 1826 03-05-2019 08:05:00 9.5 C 7.74 g/m*3 8.79 C 6.4 km/h
1827 03-05-2019 08:10:00 9.6 C 7.69 g/m*3 9.6 C 1.6 km/h
1828 03-05-2019 08:15:00 9.7 C 7.74 g/m*3 8.63 C 8.1 km/h
1829 03-05-2019 08:20:00 9.8 C 7.79 g/m*3 9.14 C 6.4 km/h
1830 03-05-2019 08:25:00 9.8 C 7.79 g/m*3 9.14 C 6.4 km/h
1831 03-05-2019 08:30:00 9.7 C 7.65 g/m*3 8.63 C 8.1 km/h
1832 03-05-2019 08:35:00 9.7 C 7.65 g/m*3 9.02 C 6.4 km/h
1833 03-05-2019 08:40:00 9.7 C 7.56 g/m*3 8.33 C 9.7 km/h
1834 03-05-2019 08:45:00 9.6 C 7.6 g/m*3 9.6 C 1.6 km/h
1835 03-05-2019 08:50:00 9.7 C 7.65 g/m*3 9.02 C 6.4 km/h
1836 03-05-2019 08:55:00 9.7 C 7.56 g/m*3 8.63 C 8.1 km/h
1837 03-05-2019 09:00:00 9.7 C 7.56 g/m*3 8.63 C 8.1 km/h
1838 03-05-2019 09:05:00 9.8 C 7.61 g/m*3 7.73 C 14.5 km/h
1839 03-05-2019 09:10:00 9.9 C 7.56 g/m*3 8.3 C 11.3 km/h
1840 03-05-2019 09:15:00 10 C 7.52 g/m*3 8.68 C 9.7 km/h
1841 03-05-2019 09:20:00 10.1 C 7.56 g/m*3 9.1 C 8.1 km/h
1842 03-05-2019 09:25:00 10.1 C 7.56 g/m*3 8.31 C 12.9 km/h
1843 03-05-2019 09:30:00 10.1 C 7.47 g/m*3 9.1 C 8.1 km/h
1844 03-05-2019 09:35:00 10.1 C 7.47 g/m*3 9.1 C 8.1 km/h
1845 03-05-2019 09:40:00 10.2 C 7.52 g/m*3 10.2 C 4.8 km/h
1846 03-05-2019 09:45:00 10.3 C 7.47 g/m*3 9.04 C 9.7 km/h
1847 03-05-2019 09:50:00 10.4 C 7.61 g/m*3 9.46 C 8.1 km/h
1848 03-05-2019 09:55:00 10.6 C 7.32 g/m*3 9.4 C 9.7 km/h
1849 03-05-2019 10:00:00 10.7 C 7.27 g/m*3 9.04 C 12.9 km/h
1850 03-05-2019 10:05:00 10.7 C 7.17 g/m*3 9.04 C 12.9 km/h
Sensor: Nr:Datum:Temp:Abs-Feuchte:Windchill:Wind:
Aussen-T/F 1851 03-05-2019 10:10:00 10.7 C 7.37 g/m*3 9.52 C 9.7 km/h
1852 03-05-2019 10:15:00 10.7 C 7.37 g/m*3 9.26 C 11.3 km/h
1853 03-05-2019 10:20:00 10.7 C 7.46 g/m*3 9.52 C 9.7 km/h
1854 03-05-2019 10:25:00 10.7 C 7.27 g/m*3 9.26 C 11.3 km/h
1855 03-05-2019 10:30:00 10.8 C 7.51 g/m*3 10.8 C 4.8 km/h
1856 03-05-2019 10:35:00 10.9 C 7.36 g/m*3 9.08 C 14.5 km/h
1857 03-05-2019 10:40:00 10.8 C 7.12 g/m*3 9.38 C 11.3 km/h
1858 03-05-2019 10:45:00 10.8 C 7.22 g/m*3 9.38 C 11.3 km/h
1859 03-05-2019 10:50:00 10.9 C 7.06 g/m*3 9.76 C 9.7 km/h
1860 03-05-2019 10:55:00 11 C 7.21 g/m*3 9.21 C 14.5 km/h
1861 03-05-2019 11:00:00 11.1 C 7.05 g/m*3 11.1 C 14.5 km/h
1862 03-05-2019 11:05:00 11.1 C 6.95 g/m*3 11.1 C 12.9 km/h
1863 03-05-2019 11:10:00 11.2 C 6.99 g/m*3 11.2 C 8.1 km/h
1864 03-05-2019 11:15:00 11.3 C 7.14 g/m*3 11.3 C 9.7 km/h
1865 03-05-2019 11:20:00 11.4 C 7.08 g/m*3 11.4 C 6.4 km/h
1866 03-05-2019 11:25:00 11.4 C 6.98 g/m*3 11.4 C 8.1 km/h
1867 03-05-2019 11:30:00 11.3 C 6.94 g/m*3 11.3 C 8.1 km/h
1868 03-05-2019 11:35:00 11.1 C 6.95 g/m*3 11.1 C 12.9 km/h
1869 03-05-2019 11:40:00 10.9 C 6.86 g/m*3 9.51 C 11.3 km/h
1870 03-05-2019 11:45:00 10.9 C 6.96 g/m*3 9.51 C 11.3 km/h
1871 03-05-2019 11:50:00 11.1 C 6.95 g/m*3 11.1 C 11.3 km/h
1872 03-05-2019 11:55:00 11.2 C 6.99 g/m*3 11.2 C 12.9 km/h
1873 03-05-2019 12:00:00 11.1 C 6.95 g/m*3 11.1 C 8.1 km/h
1874 03-05-2019 12:05:00 11 C 6.91 g/m*3 9.88 C 9.7 km/h
1875 03-05-2019 12:10:00 10.9 C 6.96 g/m*3 10.41 C 6.4 km/h
Sensor: Nr:Datum:Temp:Abs-Feuchte:Windchill:Wind:
Aussen-T/F 1876 03-05-2019 12:15:00 10.9 C 6.86 g/m*3 10.04 C 8.1 km/h
1877 03-05-2019 12:20:00 10.9 C 6.86 g/m*3 9.76 C 9.7 km/h
1878 03-05-2019 12:25:00 11.1 C 7.05 g/m*3 11.1 C 4.8 km/h
1879 03-05-2019 12:30:00 11.3 C 7.24 g/m*3 11.3 C 9.7 km/h
1880 03-05-2019 12:35:00 11.6 C 7.38 g/m*3 11.6 C 8.1 km/h
1881 03-05-2019 12:40:00 11.8 C 7.05 g/m*3 11.8 C 9.7 km/h
1882 03-05-2019 12:45:00 11.8 C 7.16 g/m*3 11.8 C 9.7 km/h
1883 03-05-2019 12:50:00 11.9 C 7.1 g/m*3 11.9 C 11.3 km/h
1884 03-05-2019 12:55:00 11.8 C 7.05 g/m*3 11.8 C 8.1 km/h
1885 03-05-2019 13:00:00 11.8 C 7.05 g/m*3 11.8 C 9.7 km/h
1886 03-05-2019 13:05:00 11.8 C 6.95 g/m*3 11.8 C 9.7 km/h
1887 03-05-2019 13:10:00 11.8 C 6.95 g/m*3 11.8 C 4.8 km/h
1888 03-05-2019 13:15:00 11.8 C 6.95 g/m*3 11.8 C 9.7 km/h
1889 03-05-2019 13:20:00 11.9 C 6.88 g/m*3 11.9 C 8.1 km/h
1890 03-05-2019 13:25:00 12.1 C 7.08 g/m*3 12.1 C 9.7 km/h
1891 03-05-2019 13:30:00 12.2 C 7.12 g/m*3 12.2 C 14.5 km/h
1892 03-05-2019 13:35:00 12.3 C 7.17 g/m*3 12.3 C 6.4 km/h
1893 03-05-2019 13:40:00 12.4 C 6.99 g/m*3 12.4 C 12.9 km/h
1894 03-05-2019 13:45:00 12.3 C 6.95 g/m*3 12.3 C 8.1 km/h
1895 03-05-2019 13:50:00 12.2 C 6.91 g/m*3 12.2 C 14.5 km/h
1896 03-05-2019 13:55:00 12.3 C 7.28 g/m*3 12.3 C 11.3 km/h
1897 03-05-2019 14:00:00 12.6 C 7.19 g/m*3 12.6 C 8.1 km/h
1898 03-05-2019 14:05:00 12.8 C 6.94 g/m*3 12.8 C 12.9 km/h
1899 03-05-2019 14:10:00 12.9 C 6.88 g/m*3 12.9 C 12.9 km/h
1900 03-05-2019 14:15:00 12.9 C 6.76 g/m*3 12.9 C 12.9 km/h
Sensor: Nr:Datum:Temp:Abs-Feuchte:Windchill:Wind:
Aussen-T/F 1901 03-05-2019 14:20:00 12.7 C 6.79 g/m*3 12.7 C 12.9 km/h
1902 03-05-2019 14:25:00 12.7 C 6.57 g/m*3 12.7 C 14.5 km/h
1903 03-05-2019 14:30:00 12.7 C 6.68 g/m*3 12.7 C 14.5 km/h
1904 03-05-2019 14:35:00 12.8 C 6.72 g/m*3 12.8 C 12.9 km/h
1905 03-05-2019 14:40:00 13.1 C 6.73 g/m*3 13.1 C 16.1 km/h
1906 03-05-2019 14:45:00 13.3 C 6.47 g/m*3 13.3 C 22.5 km/h
1907 03-05-2019 14:50:00 13.7 C 6.63 g/m*3 13.7 C 17.7 km/h
1908 03-05-2019 14:55:00 13.6 C 6.47 g/m*3 13.6 C 20.9 km/h
1909 03-05-2019 15:00:00 13.3 C 6.35 g/m*3 13.3 C 12.9 km/h
1910 03-05-2019 15:05:00 13.3 C 6.47 g/m*3 13.3 C 16.1 km/h
1911 03-05-2019 15:10:00 13.7 C 6.39 g/m*3 13.7 C 17.7 km/h
1912 03-05-2019 15:15:00 13.9 C 6.23 g/m*3 13.9 C 16.1 km/h
1913 03-05-2019 15:20:00 14.3 C 6.51 g/m*3 14.3 C 22.5 km/h
1914 03-05-2019 15:25:00 14.3 C 6.51 g/m*3 14.3 C 20.9 km/h
1915 03-05-2019 15:30:00 14.3 C 6.51 g/m*3 14.3 C 9.7 km/h
1916 03-05-2019 15:35:00 14.4 C 6.68 g/m*3 14.4 C 11.3 km/h
1917 03-05-2019 15:40:00 14.9 C 6.75 g/m*3 14.9 C 11.3 km/h
1918 03-05-2019 15:45:00 15.2 C 6.75 g/m*3 15.2 C 17.7 km/h
1919 03-05-2019 15:50:00 15.4 C 6.57 g/m*3 15.4 C 11.3 km/h
1920 03-05-2019 15:55:00 15.6 C 6.65 g/m*3 15.6 C 12.9 km/h
1921 03-05-2019 16:00:00 15.6 C 6.52 g/m*3 15.6 C 16.1 km/h
1922 03-05-2019 16:05:00 15.3 C 6.53 g/m*3 15.3 C 12.9 km/h
1923 03-05-2019 16:10:00 15.4 C 6.57 g/m*3 15.4 C 14.5 km/h
1924 03-05-2019 16:15:00 15.4 C 6.44 g/m*3 15.4 C 17.7 km/h
1925 03-05-2019 16:20:00 15.3 C 6.53 g/m*3 15.3 C 12.9 km/h
Sensor: Nr:Datum:Temp:Abs-Feuchte:Windchill:Wind:
Aussen-T/F 1926 03-05-2019 16:25:00 15 C 6.54 g/m*3 15 C 16.1 km/h
1927 03-05-2019 16:30:00 14.7 C 6.42 g/m*3 14.7 C 14.5 km/h
1928 03-05-2019 16:35:00 14.3 C 6.39 g/m*3 14.3 C 11.3 km/h
1929 03-05-2019 16:40:00 14.1 C 6.43 g/m*3 14.1 C 11.3 km/h
1930 03-05-2019 16:45:00 14.4 C 6.68 g/m*3 14.4 C 8.1 km/h
1931 03-05-2019 16:50:00 15.2 C 6.88 g/m*3 15.2 C 14.5 km/h
1932 03-05-2019 16:55:00 15.3 C 6.53 g/m*3 15.3 C 8.1 km/h
1933 03-05-2019 17:00:00 15.2 C 6.62 g/m*3 15.2 C 11.3 km/h
1934 03-05-2019 17:05:00 15.1 C 6.84 g/m*3 15.1 C 12.9 km/h
1935 03-05-2019 17:10:00 14.8 C 6.33 g/m*3 14.8 C 16.1 km/h
1936 03-05-2019 17:15:00 14.5 C 6.47 g/m*3 14.5 C 17.7 km/h
1937 03-05-2019 17:20:00 14.2 C 6.35 g/m*3 14.2 C 14.5 km/h
1938 03-05-2019 17:25:00 14 C 6.51 g/m*3 14 C 12.9 km/h
1939 03-05-2019 17:30:00 13.8 C 6.67 g/m*3 13.8 C 14.5 km/h
1940 03-05-2019 17:35:00 13.8 C 6.67 g/m*3 13.8 C 12.9 km/h
1941 03-05-2019 17:40:00 13.7 C 6.63 g/m*3 13.7 C 16.1 km/h
1942 03-05-2019 17:45:00 13.5 C 6.55 g/m*3 13.5 C 9.7 km/h
1943 03-05-2019 17:50:00 13.5 C 6.55 g/m*3 13.5 C 11.3 km/h
1944 03-05-2019 17:55:00 13.4 C 6.39 g/m*3 13.4 C 12.9 km/h
1945 03-05-2019 18:00:00 13.3 C 6.47 g/m*3 13.3 C 11.3 km/h
1946 03-05-2019 18:05:00 13.4 C 6.51 g/m*3 13.4 C 11.3 km/h
1947 03-05-2019 18:10:00 13.6 C 6.71 g/m*3 13.6 C 11.3 km/h
1948 03-05-2019 18:15:00 13.9 C 6.59 g/m*3 13.9 C 11.3 km/h
1949 03-05-2019 18:20:00 14 C 6.63 g/m*3 14 C 11.3 km/h
1950 03-05-2019 18:25:00 13.9 C 6.59 g/m*3 13.9 C 11.3 km/h
Sensor: Nr:Datum:Temp:Abs-Feuchte:Windchill:Wind:
Aussen-T/F 1951 03-05-2019 18:30:00 13.8 C 6.67 g/m*3 13.8 C 9.7 km/h
1952 03-05-2019 18:35:00 13.8 C 6.67 g/m*3 13.8 C 8.1 km/h
1953 03-05-2019 18:40:00 13.7 C 6.75 g/m*3 13.7 C 8.1 km/h
1954 03-05-2019 18:45:00 13.6 C 6.71 g/m*3 13.6 C 11.3 km/h
1955 03-05-2019 18:50:00 13.4 C 6.74 g/m*3 13.4 C 6.4 km/h
1956 03-05-2019 18:55:00 13.3 C 6.7 g/m*3 13.3 C 11.3 km/h
1957 03-05-2019 19:00:00 13.1 C 6.73 g/m*3 13.1 C 8.1 km/h
1958 03-05-2019 19:05:00 12.9 C 6.65 g/m*3 12.9 C 11.3 km/h
1959 03-05-2019 19:10:00 12.7 C 6.57 g/m*3 12.7 C 8.1 km/h
1960 03-05-2019 19:15:00 12.6 C 6.64 g/m*3 12.6 C 8.1 km/h
1961 03-05-2019 19:20:00 12.5 C 6.71 g/m*3 12.5 C 9.7 km/h
1962 03-05-2019 19:25:00 12.4 C 6.56 g/m*3 12.4 C 6.4 km/h
1963 03-05-2019 19:30:00 12.4 C 6.56 g/m*3 12.4 C 6.4 km/h
1964 03-05-2019 19:35:00 12.3 C 6.41 g/m*3 12.3 C 8.1 km/h
1965 03-05-2019 19:40:00 12.2 C 6.37 g/m*3 12.2 C 9.7 km/h
1966 03-05-2019 19:45:00 12 C 6.5 g/m*3 12 C 6.4 km/h
1967 03-05-2019 19:50:00 11.9 C 6.46 g/m*3 11.9 C 9.7 km/h
1968 03-05-2019 19:55:00 11.8 C 6.53 g/m*3 11.8 C 4.8 km/h
1969 03-05-2019 20:00:00 11.7 C 6.48 g/m*3 11.7 C 4.8 km/h
1970 03-05-2019 20:05:00 11.7 C 6.48 g/m*3 11.7 C 4.8 km/h
1971 03-05-2019 20:10:00 11.6 C 6.44 g/m*3 11.6 C 9.7 km/h
1972 03-05-2019 20:15:00 11.5 C 6.51 g/m*3 11.5 C 3.2 km/h
1973 03-05-2019 20:20:00 11.4 C 6.47 g/m*3 11.4 C 6.4 km/h
1974 03-05-2019 20:25:00 11.3 C 6.53 g/m*3 11.3 C 3.2 km/h
1975 03-05-2019 20:30:00 11.3 C 6.53 g/m*3 11.3 C 4.8 km/h
Sensor: Nr:Datum:Temp:Abs-Feuchte:Windchill:Wind:
Aussen-T/F 1976 03-05-2019 20:35:00 11.2 C 6.59 g/m*3 11.2 C 11.3 km/h
1977 03-05-2019 20:40:00 11 C 6.51 g/m*3 9.63 C 11.3 km/h
1978 03-05-2019 20:45:00 10.7 C 6.48 g/m*3 9.26 C 11.3 km/h
1979 03-05-2019 20:50:00 10.5 C 6.5 g/m*3 9.57 C 8.1 km/h
1980 03-05-2019 20:55:00 10.3 C 6.51 g/m*3 9.34 C 8.1 km/h
1981 03-05-2019 21:00:00 10.2 C 6.47 g/m*3 9.6 C 6.4 km/h
1982 03-05-2019 21:05:00 10.1 C 6.52 g/m*3 8.8 C 9.7 km/h
1983 03-05-2019 21:10:00 10 C 6.48 g/m*3 8.99 C 8.1 km/h
1984 03-05-2019 21:15:00 9.9 C 6.44 g/m*3 9.25 C 6.4 km/h
1985 03-05-2019 21:20:00 9.9 C 6.54 g/m*3 9.9 C 4.8 km/h
1986 03-05-2019 21:25:00 9.8 C 6.49 g/m*3 9.8 C 4.8 km/h
1987 03-05-2019 21:30:00 9.8 C 6.59 g/m*3 9.8 C 4.8 km/h
1988 03-05-2019 21:35:00 9.8 C 6.59 g/m*3 9.8 C 3.2 km/h
1989 03-05-2019 21:40:00 9.8 C 6.59 g/m*3 9.8 C 3.2 km/h
1990 03-05-2019 21:45:00 9.8 C 6.59 g/m*3 9.8 C 0 km/h
1991 03-05-2019 21:50:00 9.7 C 6.55 g/m*3 9.7 C 1.6 km/h
1992 03-05-2019 21:55:00 9.7 C 6.64 g/m*3 9.7 C 4.8 km/h
1993 03-05-2019 22:00:00 9.7 C 6.64 g/m*3 9.7 C 1.6 km/h
1994 03-05-2019 22:05:00 9.7 C 6.64 g/m*3 9.7 C 0 km/h
1995 03-05-2019 22:10:00 9.6 C 6.69 g/m*3 9.6 C 0 km/h
1996 03-05-2019 22:15:00 9.6 C 6.78 g/m*3 9.6 C 0 km/h
1997 03-05-2019 22:20:00 9.5 C 6.74 g/m*3 9.5 C 3.2 km/h
1998 03-05-2019 22:25:00 9.4 C 6.87 g/m*3 9.4 C 1.6 km/h
1999 03-05-2019 22:30:00 9.3 C 6.74 g/m*3 8.56 C 6.4 km/h
2000 03-05-2019 22:35:00 9.2 C 6.7 g/m*3 8.45 C 6.4 km/h
Sensor: Nr:Datum:Temp:Abs-Feuchte:Windchill:Wind:
Aussen-T/F 2001 03-05-2019 22:40:00 9.2 C 6.79 g/m*3 9.2 C 3.2 km/h
2002 03-05-2019 22:45:00 9.1 C 6.65 g/m*3 7.93 C 8.1 km/h
2003 03-05-2019 22:50:00 9.1 C 6.65 g/m*3 9.1 C 3.2 km/h
2004 03-05-2019 22:55:00 9.1 C 6.65 g/m*3 9.1 C 3.2 km/h
2005 03-05-2019 23:00:00 9.1 C 6.74 g/m*3 9.1 C 3.2 km/h
2006 03-05-2019 23:05:00 8.9 C 6.66 g/m*3 8.9 C 3.2 km/h
2007 03-05-2019 23:10:00 8.9 C 6.75 g/m*3 8.9 C 3.2 km/h
2008 03-05-2019 23:15:00 8.9 C 6.75 g/m*3 8.9 C 0 km/h
2009 03-05-2019 23:20:00 8.8 C 6.79 g/m*3 8.8 C 0 km/h
2010 03-05-2019 23:25:00 8.7 C 6.83 g/m*3 8.7 C 0 km/h
2011 03-05-2019 23:30:00 8.6 C 6.79 g/m*3 8.6 C 0 km/h
2012 03-05-2019 23:35:00 8.6 C 6.87 g/m*3 8.6 C 0 km/h
2013 03-05-2019 23:40:00 8.4 C 6.79 g/m*3 8.4 C 0 km/h
2014 03-05-2019 23:45:00 8.4 C 6.79 g/m*3 8.4 C 0 km/h
2015 03-05-2019 23:50:00 8.3 C 6.83 g/m*3 8.3 C 0 km/h
2016 03-05-2019 23:55:00 8.3 C 6.74 g/m*3 8.3 C 0 km/h

Legende:
   Min
   Max


Maximal/Minimal-Werte vom 27.04.2019 - 03.05.2019

Sensor Min Max Avg
Temp
(Aussen-T/F)
3.1 °C
29-04-2019  06:30:00
21.8 °C
01-05-2019  16:40:00
10.82 °C
Abs-Feuchte
(Aussen-T/F)
5.7 g/m*3
29-04-2019  02:20:00
9.62 g/m*3
01-05-2019  13:00:00
7.7 g/m*3
Windchill
(Aussen-T/F)
1.63 C
29-04-2019  05:30:00
21.8 C
01-05-2019  16:40:00
10.63 C

Die Daten stammen von einer Davis Vantage Pro 2 Wetter-Station und werden unter Linux mit der Software wview2wettercgi und aufbereitet. Alle Angaben erfolgen ohne Gewähr für ihre Vollständigkeit oder Richtigkeit.
Kontakt: Rainer Krienke krienke@uni-koblenz.de . Meine Webseiten an der Uni Koblenz oder privat.
Version: $Revision: 0.78 $